<?xml version="1.0" encoding="ISO-8859-1" standalone="yes"?>
<gpx
  xmlns="http://www.topografix.com/GPX/1/1"
  version="1.1" creator="LoadMyTracks/073 http://www.cluetrust.com/LoadMyTracks.html"
  xmlns:xsi="http://www.w3.org/2001/XMLSchema-instance"
  xmlns:gpxdata="http://www.cluetrust.com/XML/GPXDATA/1/0"
  xmlns:geocache="http://www.groundspeak.com/cache/1/0"
  xsi:schemaLocation="http://www.topografix.com/GPX/1/1 http://www.topografix.com/GPX/1/1/gpx.xsd
http://www.cluetrust.com/XML/GPXDATA/1/0 http://www.cluetrust.com/Schemas/gpxdata10.xsd">
<trk>
<name>2010/7/21 9:12:3 GMT</name>
<trkseg>
	<trkpt lat="51.730795" lon="-2.073898333"><ele>178.000000</ele><time>2010-07-21T09:12:03Z</time></trkpt>
	<trkpt lat="51.730815" lon="-2.0739"><ele>172.000000</ele><time>2010-07-21T09:12:09Z</time></trkpt>
	<trkpt lat="51.73080333" lon="-2.073893333"><ele>173.000000</ele><time>2010-07-21T09:12:14Z</time></trkpt>
	<trkpt lat="51.730795" lon="-2.073876667"><ele>171.000000</ele><time>2010-07-21T09:12:19Z</time></trkpt>
	<trkpt lat="51.73084333" lon="-2.073858333"><ele>173.000000</ele><time>2010-07-21T09:12:24Z</time></trkpt>
	<trkpt lat="51.73089667" lon="-2.073788333"><ele>174.000000</ele><time>2010-07-21T09:12:29Z</time></trkpt>
	<trkpt lat="51.73094833" lon="-2.073716667"><ele>176.000000</ele><time>2010-07-21T09:12:34Z</time></trkpt>
	<trkpt lat="51.73101333" lon="-2.073635"><ele>176.000000</ele><time>2010-07-21T09:12:39Z</time></trkpt>
	<trkpt lat="51.73108" lon="-2.073541667"><ele>176.000000</ele><time>2010-07-21T09:12:44Z</time></trkpt>
	<trkpt lat="51.73115167" lon="-2.073458333"><ele>177.000000</ele><time>2010-07-21T09:12:49Z</time></trkpt>
	<trkpt lat="51.73122" lon="-2.073365"><ele>177.000000</ele><time>2010-07-21T09:12:54Z</time></trkpt>
	<trkpt lat="51.73128667" lon="-2.073283333"><ele>178.000000</ele><time>2010-07-21T09:12:59Z</time></trkpt>
	<trkpt lat="51.731355" lon="-2.073201667"><ele>179.000000</ele><time>2010-07-21T09:13:04Z</time></trkpt>
	<trkpt lat="51.73141" lon="-2.073118333"><ele>180.000000</ele><time>2010-07-21T09:13:09Z</time></trkpt>
	<trkpt lat="51.73147" lon="-2.073025"><ele>181.000000</ele><time>2010-07-21T09:13:14Z</time></trkpt>
	<trkpt lat="51.73154" lon="-2.07295"><ele>181.000000</ele><time>2010-07-21T09:13:19Z</time></trkpt>
	<trkpt lat="51.73161167" lon="-2.072875"><ele>181.000000</ele><time>2010-07-21T09:13:24Z</time></trkpt>
	<trkpt lat="51.73168167" lon="-2.072793333"><ele>180.000000</ele><time>2010-07-21T09:13:29Z</time></trkpt>
	<trkpt lat="51.73174833" lon="-2.072711667"><ele>180.000000</ele><time>2010-07-21T09:13:34Z</time></trkpt>
	<trkpt lat="51.73181333" lon="-2.072635"><ele>180.000000</ele><time>2010-07-21T09:13:39Z</time></trkpt>
	<trkpt lat="51.73188" lon="-2.072558333"><ele>179.000000</ele><time>2010-07-21T09:13:44Z</time></trkpt>
	<trkpt lat="51.731945" lon="-2.07248"><ele>179.000000</ele><time>2010-07-21T09:13:49Z</time></trkpt>
	<trkpt lat="51.73200833" lon="-2.072391667"><ele>179.000000</ele><time>2010-07-21T09:13:54Z</time></trkpt>
	<trkpt lat="51.73206833" lon="-2.07231"><ele>179.000000</ele><time>2010-07-21T09:13:59Z</time></trkpt>
	<trkpt lat="51.73214167" lon="-2.07222"><ele>180.000000</ele><time>2010-07-21T09:14:05Z</time></trkpt>
	<trkpt lat="51.73219667" lon="-2.072131667"><ele>179.000000</ele><time>2010-07-21T09:14:10Z</time></trkpt>
	<trkpt lat="51.73225167" lon="-2.072046667"><ele>180.000000</ele><time>2010-07-21T09:14:15Z</time></trkpt>
	<trkpt lat="51.73231167" lon="-2.071965"><ele>180.000000</ele><time>2010-07-21T09:14:20Z</time></trkpt>
	<trkpt lat="51.73236667" lon="-2.07187"><ele>179.000000</ele><time>2010-07-21T09:14:25Z</time></trkpt>
	<trkpt lat="51.73242" lon="-2.071771667"><ele>179.000000</ele><time>2010-07-21T09:14:30Z</time></trkpt>
	<trkpt lat="51.73247833" lon="-2.071686667"><ele>179.000000</ele><time>2010-07-21T09:14:35Z</time></trkpt>
	<trkpt lat="51.73252167" lon="-2.071613333"><ele>179.000000</ele><time>2010-07-21T09:14:41Z</time></trkpt>
	<trkpt lat="51.73252167" lon="-2.07161"><ele>180.000000</ele><time>2010-07-21T09:14:47Z</time></trkpt>
	<trkpt lat="51.73253667" lon="-2.07159"><ele>180.000000</ele><time>2010-07-21T09:14:52Z</time></trkpt>
	<trkpt lat="51.73256833" lon="-2.071523333"><ele>181.000000</ele><time>2010-07-21T09:14:57Z</time></trkpt>
	<trkpt lat="51.73260167" lon="-2.07146"><ele>181.000000</ele><time>2010-07-21T09:15:02Z</time></trkpt>
	<trkpt lat="51.732645" lon="-2.071381667"><ele>180.000000</ele><time>2010-07-21T09:15:08Z</time></trkpt>
	<trkpt lat="51.73268167" lon="-2.071313333"><ele>179.000000</ele><time>2010-07-21T09:15:13Z</time></trkpt>
	<trkpt lat="51.732715" lon="-2.071233333"><ele>179.000000</ele><time>2010-07-21T09:15:18Z</time></trkpt>
	<trkpt lat="51.73274833" lon="-2.071156667"><ele>178.000000</ele><time>2010-07-21T09:15:23Z</time></trkpt>
	<trkpt lat="51.73278" lon="-2.071061667"><ele>179.000000</ele><time>2010-07-21T09:15:29Z</time></trkpt>
	<trkpt lat="51.732805" lon="-2.070991667"><ele>179.000000</ele><time>2010-07-21T09:15:34Z</time></trkpt>
	<trkpt lat="51.73283333" lon="-2.07095"><ele>180.000000</ele><time>2010-07-21T09:15:39Z</time></trkpt>
	<trkpt lat="51.732875" lon="-2.070968333"><ele>181.000000</ele><time>2010-07-21T09:15:45Z</time></trkpt>
	<trkpt lat="51.73292333" lon="-2.070968333"><ele>180.000000</ele><time>2010-07-21T09:15:50Z</time></trkpt>
	<trkpt lat="51.73296333" lon="-2.070945"><ele>179.000000</ele><time>2010-07-21T09:15:55Z</time></trkpt>
	<trkpt lat="51.73298667" lon="-2.070946667"><ele>179.000000</ele><time>2010-07-21T09:16:00Z</time></trkpt>
	<trkpt lat="51.73302333" lon="-2.070946667"><ele>178.000000</ele><time>2010-07-21T09:16:05Z</time></trkpt>
	<trkpt lat="51.73306833" lon="-2.070923333"><ele>176.000000</ele><time>2010-07-21T09:16:10Z</time></trkpt>
	<trkpt lat="51.73311833" lon="-2.070895"><ele>177.000000</ele><time>2010-07-21T09:16:15Z</time></trkpt>
	<trkpt lat="51.73314833" lon="-2.070875"><ele>177.000000</ele><time>2010-07-21T09:16:20Z</time></trkpt>
	<trkpt lat="51.73316667" lon="-2.07088"><ele>182.000000</ele><time>2010-07-21T09:16:25Z</time></trkpt>
	<trkpt lat="51.73317833" lon="-2.070875"><ele>183.000000</ele><time>2010-07-21T09:16:30Z</time></trkpt>
	<trkpt lat="51.73320833" lon="-2.070881667"><ele>184.000000</ele><time>2010-07-21T09:16:35Z</time></trkpt>
	<trkpt lat="51.73326333" lon="-2.07083"><ele>185.000000</ele><time>2010-07-21T09:16:40Z</time></trkpt>
	<trkpt lat="51.73331" lon="-2.070746667"><ele>184.000000</ele><time>2010-07-21T09:16:45Z</time></trkpt>
	<trkpt lat="51.73334333" lon="-2.070686667"><ele>182.000000</ele><time>2010-07-21T09:16:50Z</time></trkpt>
	<trkpt lat="51.73338333" lon="-2.070635"><ele>183.000000</ele><time>2010-07-21T09:16:55Z</time></trkpt>
	<trkpt lat="51.73344" lon="-2.070596667"><ele>183.000000</ele><time>2010-07-21T09:17:00Z</time></trkpt>
	<trkpt lat="51.73349333" lon="-2.070533333"><ele>184.000000</ele><time>2010-07-21T09:17:05Z</time></trkpt>
	<trkpt lat="51.73353833" lon="-2.07048"><ele>183.000000</ele><time>2010-07-21T09:17:10Z</time></trkpt>
	<trkpt lat="51.73358333" lon="-2.07043"><ele>182.000000</ele><time>2010-07-21T09:17:15Z</time></trkpt>
	<trkpt lat="51.73363667" lon="-2.070356667"><ele>179.000000</ele><time>2010-07-21T09:17:20Z</time></trkpt>
	<trkpt lat="51.73369667" lon="-2.0703"><ele>177.000000</ele><time>2010-07-21T09:17:25Z</time></trkpt>
	<trkpt lat="51.73373167" lon="-2.070251667"><ele>176.000000</ele><time>2010-07-21T09:17:30Z</time></trkpt>
	<trkpt lat="51.73378167" lon="-2.070218333"><ele>176.000000</ele><time>2010-07-21T09:17:35Z</time></trkpt>
	<trkpt lat="51.73382667" lon="-2.070131667"><ele>177.000000</ele><time>2010-07-21T09:17:40Z</time></trkpt>
	<trkpt lat="51.73386833" lon="-2.070058333"><ele>182.000000</ele><time>2010-07-21T09:17:45Z</time></trkpt>
	<trkpt lat="51.733885" lon="-2.070061667"><ele>186.000000</ele><time>2010-07-21T09:17:50Z</time></trkpt>
	<trkpt lat="51.73392333" lon="-2.070023333"><ele>190.000000</ele><time>2010-07-21T09:17:55Z</time></trkpt>
	<trkpt lat="51.73397667" lon="-2.069966667"><ele>191.000000</ele><time>2010-07-21T09:18:00Z</time></trkpt>
	<trkpt lat="51.73401" lon="-2.069946667"><ele>188.000000</ele><time>2010-07-21T09:18:05Z</time></trkpt>
	<trkpt lat="51.734055" lon="-2.069898333"><ele>181.000000</ele><time>2010-07-21T09:18:10Z</time></trkpt>
	<trkpt lat="51.73409167" lon="-2.069858333"><ele>177.000000</ele><time>2010-07-21T09:18:15Z</time></trkpt>
	<trkpt lat="51.734115" lon="-2.069843333"><ele>178.000000</ele><time>2010-07-21T09:18:20Z</time></trkpt>
	<trkpt lat="51.73414167" lon="-2.069811667"><ele>180.000000</ele><time>2010-07-21T09:18:25Z</time></trkpt>
	<trkpt lat="51.73418167" lon="-2.069741667"><ele>176.000000</ele><time>2010-07-21T09:18:30Z</time></trkpt>
	<trkpt lat="51.73426333" lon="-2.069651667"><ele>168.000000</ele><time>2010-07-21T09:18:36Z</time></trkpt>
	<trkpt lat="51.734335" lon="-2.069596667"><ele>163.000000</ele><time>2010-07-21T09:18:41Z</time></trkpt>
	<trkpt lat="51.73438833" lon="-2.069553333"><ele>162.000000</ele><time>2010-07-21T09:18:46Z</time></trkpt>
	<trkpt lat="51.734435" lon="-2.06952"><ele>162.000000</ele><time>2010-07-21T09:18:51Z</time></trkpt>
	<trkpt lat="51.73446" lon="-2.069516667"><ele>166.000000</ele><time>2010-07-21T09:18:56Z</time></trkpt>
	<trkpt lat="51.73450333" lon="-2.069488333"><ele>167.000000</ele><time>2010-07-21T09:19:01Z</time></trkpt>
	<trkpt lat="51.73454167" lon="-2.069465"><ele>166.000000</ele><time>2010-07-21T09:19:06Z</time></trkpt>
	<trkpt lat="51.73460333" lon="-2.069405"><ele>162.000000</ele><time>2010-07-21T09:19:11Z</time></trkpt>
	<trkpt lat="51.73463333" lon="-2.06932"><ele>164.000000</ele><time>2010-07-21T09:19:16Z</time></trkpt>
	<trkpt lat="51.734675" lon="-2.069306667"><ele>167.000000</ele><time>2010-07-21T09:19:21Z</time></trkpt>
	<trkpt lat="51.734735" lon="-2.06927"><ele>170.000000</ele><time>2010-07-21T09:19:26Z</time></trkpt>
	<trkpt lat="51.73477833" lon="-2.069255"><ele>171.000000</ele><time>2010-07-21T09:19:32Z</time></trkpt>
	<trkpt lat="51.73482833" lon="-2.069198333"><ele>168.000000</ele><time>2010-07-21T09:19:37Z</time></trkpt>
	<trkpt lat="51.73486833" lon="-2.069145"><ele>169.000000</ele><time>2010-07-21T09:19:42Z</time></trkpt>
	<trkpt lat="51.73490667" lon="-2.069095"><ele>172.000000</ele><time>2010-07-21T09:19:47Z</time></trkpt>
	<trkpt lat="51.734955" lon="-2.069048333"><ele>175.000000</ele><time>2010-07-21T09:19:52Z</time></trkpt>
	<trkpt lat="51.73498167" lon="-2.069046667"><ele>184.000000</ele><time>2010-07-21T09:19:57Z</time></trkpt>
	<trkpt lat="51.73502667" lon="-2.069051667"><ele>189.000000</ele><time>2010-07-21T09:20:03Z</time></trkpt>
	<trkpt lat="51.73508167" lon="-2.06905"><ele>189.000000</ele><time>2010-07-21T09:20:08Z</time></trkpt>
	<trkpt lat="51.735145" lon="-2.069013333"><ele>186.000000</ele><time>2010-07-21T09:20:13Z</time></trkpt>
	<trkpt lat="51.73520667" lon="-2.068946667"><ele>183.000000</ele><time>2010-07-21T09:20:18Z</time></trkpt>
	<trkpt lat="51.73527333" lon="-2.068885"><ele>179.000000</ele><time>2010-07-21T09:20:23Z</time></trkpt>
	<trkpt lat="51.73534833" lon="-2.068806667"><ele>176.000000</ele><time>2010-07-21T09:20:29Z</time></trkpt>
	<trkpt lat="51.73541167" lon="-2.068748333"><ele>174.000000</ele><time>2010-07-21T09:20:34Z</time></trkpt>
	<trkpt lat="51.73546667" lon="-2.068681667"><ele>172.000000</ele><time>2010-07-21T09:20:39Z</time></trkpt>
	<trkpt lat="51.73551667" lon="-2.068631667"><ele>171.000000</ele><time>2010-07-21T09:20:44Z</time></trkpt>
	<trkpt lat="51.73556833" lon="-2.068575"><ele>170.000000</ele><time>2010-07-21T09:20:49Z</time></trkpt>
	<trkpt lat="51.73561667" lon="-2.068525"><ele>170.000000</ele><time>2010-07-21T09:20:54Z</time></trkpt>
	<trkpt lat="51.73566167" lon="-2.068468333"><ele>170.000000</ele><time>2010-07-21T09:20:59Z</time></trkpt>
	<trkpt lat="51.735715" lon="-2.068396667"><ele>169.000000</ele><time>2010-07-21T09:21:05Z</time></trkpt>
	<trkpt lat="51.73577" lon="-2.068323333"><ele>169.000000</ele><time>2010-07-21T09:21:11Z</time></trkpt>
	<trkpt lat="51.73583167" lon="-2.068236667"><ele>169.000000</ele><time>2010-07-21T09:21:17Z</time></trkpt>
	<trkpt lat="51.73588167" lon="-2.068161667"><ele>169.000000</ele><time>2010-07-21T09:21:22Z</time></trkpt>
	<trkpt lat="51.73593167" lon="-2.068071667"><ele>168.000000</ele><time>2010-07-21T09:21:27Z</time></trkpt>
	<trkpt lat="51.73598" lon="-2.067998333"><ele>168.000000</ele><time>2010-07-21T09:21:33Z</time></trkpt>
	<trkpt lat="51.736025" lon="-2.067938333"><ele>168.000000</ele><time>2010-07-21T09:21:38Z</time></trkpt>
	<trkpt lat="51.73607333" lon="-2.067855"><ele>167.000000</ele><time>2010-07-21T09:21:43Z</time></trkpt>
	<trkpt lat="51.73612167" lon="-2.067791667"><ele>166.000000</ele><time>2010-07-21T09:21:48Z</time></trkpt>
	<trkpt lat="51.73617833" lon="-2.067726667"><ele>166.000000</ele><time>2010-07-21T09:21:54Z</time></trkpt>
	<trkpt lat="51.736225" lon="-2.06767"><ele>166.000000</ele><time>2010-07-21T09:21:59Z</time></trkpt>
	<trkpt lat="51.73627333" lon="-2.067611667"><ele>166.000000</ele><time>2010-07-21T09:22:04Z</time></trkpt>
	<trkpt lat="51.73631833" lon="-2.067558333"><ele>166.000000</ele><time>2010-07-21T09:22:09Z</time></trkpt>
	<trkpt lat="51.73636667" lon="-2.0675"><ele>165.000000</ele><time>2010-07-21T09:22:14Z</time></trkpt>
	<trkpt lat="51.736415" lon="-2.06745"><ele>165.000000</ele><time>2010-07-21T09:22:19Z</time></trkpt>
	<trkpt lat="51.736465" lon="-2.0674"><ele>165.000000</ele><time>2010-07-21T09:22:24Z</time></trkpt>
	<trkpt lat="51.736525" lon="-2.067348333"><ele>164.000000</ele><time>2010-07-21T09:22:30Z</time></trkpt>
	<trkpt lat="51.73657333" lon="-2.0673"><ele>164.000000</ele><time>2010-07-21T09:22:35Z</time></trkpt>
	<trkpt lat="51.73663167" lon="-2.067255"><ele>164.000000</ele><time>2010-07-21T09:22:41Z</time></trkpt>
	<trkpt lat="51.73669167" lon="-2.067206667"><ele>164.000000</ele><time>2010-07-21T09:22:47Z</time></trkpt>
	<trkpt lat="51.73673833" lon="-2.067153333"><ele>164.000000</ele><time>2010-07-21T09:22:52Z</time></trkpt>
	<trkpt lat="51.73678833" lon="-2.067106667"><ele>164.000000</ele><time>2010-07-21T09:22:57Z</time></trkpt>
	<trkpt lat="51.73683833" lon="-2.067053333"><ele>164.000000</ele><time>2010-07-21T09:23:02Z</time></trkpt>
	<trkpt lat="51.73688833" lon="-2.067001667"><ele>164.000000</ele><time>2010-07-21T09:23:07Z</time></trkpt>
	<trkpt lat="51.73693333" lon="-2.06695"><ele>164.000000</ele><time>2010-07-21T09:23:12Z</time></trkpt>
	<trkpt lat="51.73699" lon="-2.06688"><ele>164.000000</ele><time>2010-07-21T09:23:18Z</time></trkpt>
	<trkpt lat="51.737045" lon="-2.066823333"><ele>164.000000</ele><time>2010-07-21T09:23:24Z</time></trkpt>
	<trkpt lat="51.73710167" lon="-2.066758333"><ele>164.000000</ele><time>2010-07-21T09:23:30Z</time></trkpt>
	<trkpt lat="51.73714833" lon="-2.066711667"><ele>164.000000</ele><time>2010-07-21T09:23:35Z</time></trkpt>
	<trkpt lat="51.737195" lon="-2.066663333"><ele>165.000000</ele><time>2010-07-21T09:23:40Z</time></trkpt>
	<trkpt lat="51.73724" lon="-2.066618333"><ele>166.000000</ele><time>2010-07-21T09:23:45Z</time></trkpt>
	<trkpt lat="51.737295" lon="-2.066555"><ele>166.000000</ele><time>2010-07-21T09:23:51Z</time></trkpt>
	<trkpt lat="51.73734167" lon="-2.066506667"><ele>167.000000</ele><time>2010-07-21T09:23:56Z</time></trkpt>
	<trkpt lat="51.73738833" lon="-2.066463333"><ele>167.000000</ele><time>2010-07-21T09:24:01Z</time></trkpt>
	<trkpt lat="51.73743333" lon="-2.06641"><ele>166.000000</ele><time>2010-07-21T09:24:06Z</time></trkpt>
	<trkpt lat="51.73747833" lon="-2.066358333"><ele>166.000000</ele><time>2010-07-21T09:24:11Z</time></trkpt>
	<trkpt lat="51.73751833" lon="-2.066313333"><ele>166.000000</ele><time>2010-07-21T09:24:16Z</time></trkpt>
	<trkpt lat="51.73756667" lon="-2.066261667"><ele>167.000000</ele><time>2010-07-21T09:24:22Z</time></trkpt>
	<trkpt lat="51.73761167" lon="-2.066223333"><ele>168.000000</ele><time>2010-07-21T09:24:27Z</time></trkpt>
	<trkpt lat="51.73765667" lon="-2.066173333"><ele>168.000000</ele><time>2010-07-21T09:24:32Z</time></trkpt>
	<trkpt lat="51.73770333" lon="-2.066128333"><ele>168.000000</ele><time>2010-07-21T09:24:37Z</time></trkpt>
	<trkpt lat="51.73775" lon="-2.066073333"><ele>168.000000</ele><time>2010-07-21T09:24:42Z</time></trkpt>
	<trkpt lat="51.73779333" lon="-2.066025"><ele>169.000000</ele><time>2010-07-21T09:24:47Z</time></trkpt>
	<trkpt lat="51.73783667" lon="-2.06598"><ele>169.000000</ele><time>2010-07-21T09:24:52Z</time></trkpt>
	<trkpt lat="51.737865" lon="-2.065936667"><ele>170.000000</ele><time>2010-07-21T09:24:57Z</time></trkpt>
	<trkpt lat="51.73790167" lon="-2.065891667"><ele>170.000000</ele><time>2010-07-21T09:25:02Z</time></trkpt>
	<trkpt lat="51.73794333" lon="-2.065843333"><ele>170.000000</ele><time>2010-07-21T09:25:07Z</time></trkpt>
	<trkpt lat="51.73797833" lon="-2.065801667"><ele>169.000000</ele><time>2010-07-21T09:25:13Z</time></trkpt>
	<trkpt lat="51.73797833" lon="-2.06578"><ele>168.000000</ele><time>2010-07-21T09:25:18Z</time></trkpt>
	<trkpt lat="51.73800833" lon="-2.065755"><ele>169.000000</ele><time>2010-07-21T09:25:23Z</time></trkpt>
	<trkpt lat="51.738025" lon="-2.06577"><ele>170.000000</ele><time>2010-07-21T09:25:28Z</time></trkpt>
	<trkpt lat="51.73802667" lon="-2.065758333"><ele>171.000000</ele><time>2010-07-21T09:25:34Z</time></trkpt>
	<trkpt lat="51.73802667" lon="-2.065745"><ele>171.000000</ele><time>2010-07-21T09:25:39Z</time></trkpt>
	<trkpt lat="51.73802667" lon="-2.065743333"><ele>170.000000</ele><time>2010-07-21T09:25:45Z</time></trkpt>
	<trkpt lat="51.738025" lon="-2.065755"><ele>168.000000</ele><time>2010-07-21T09:25:50Z</time></trkpt>
	<trkpt lat="51.73803" lon="-2.065773333"><ele>169.000000</ele><time>2010-07-21T09:25:55Z</time></trkpt>
	<trkpt lat="51.73803333" lon="-2.065791667"><ele>170.000000</ele><time>2010-07-21T09:26:00Z</time></trkpt>
	<trkpt lat="51.73803167" lon="-2.065798333"><ele>171.000000</ele><time>2010-07-21T09:26:05Z</time></trkpt>
	<trkpt lat="51.73803" lon="-2.0658"><ele>171.000000</ele><time>2010-07-21T09:26:10Z</time></trkpt>
	<trkpt lat="51.73802667" lon="-2.065788333"><ele>171.000000</ele><time>2010-07-21T09:26:16Z</time></trkpt>
	<trkpt lat="51.73802667" lon="-2.065793333"><ele>171.000000</ele><time>2010-07-21T09:26:21Z</time></trkpt>
	<trkpt lat="51.73802167" lon="-2.065781667"><ele>169.000000</ele><time>2010-07-21T09:26:26Z</time></trkpt>
	<trkpt lat="51.73803333" lon="-2.065733333"><ele>169.000000</ele><time>2010-07-21T09:26:32Z</time></trkpt>
	<trkpt lat="51.73803333" lon="-2.065651667"><ele>170.000000</ele><time>2010-07-21T09:26:37Z</time></trkpt>
	<trkpt lat="51.73804833" lon="-2.065576667"><ele>170.000000</ele><time>2010-07-21T09:26:42Z</time></trkpt>
	<trkpt lat="51.73808667" lon="-2.065513333"><ele>171.000000</ele><time>2010-07-21T09:26:48Z</time></trkpt>
	<trkpt lat="51.73811" lon="-2.065493333"><ele>172.000000</ele><time>2010-07-21T09:26:53Z</time></trkpt>
	<trkpt lat="51.73812667" lon="-2.06548"><ele>172.000000</ele><time>2010-07-21T09:26:59Z</time></trkpt>
	<trkpt lat="51.73818" lon="-2.065431667"><ele>173.000000</ele><time>2010-07-21T09:27:04Z</time></trkpt>
	<trkpt lat="51.73822167" lon="-2.065375"><ele>175.000000</ele><time>2010-07-21T09:27:09Z</time></trkpt>
	<trkpt lat="51.738255" lon="-2.065321667"><ele>177.000000</ele><time>2010-07-21T09:27:14Z</time></trkpt>
	<trkpt lat="51.73828667" lon="-2.065255"><ele>178.000000</ele><time>2010-07-21T09:27:20Z</time></trkpt>
	<trkpt lat="51.73831167" lon="-2.06517"><ele>177.000000</ele><time>2010-07-21T09:27:25Z</time></trkpt>
	<trkpt lat="51.73833333" lon="-2.065103333"><ele>177.000000</ele><time>2010-07-21T09:27:30Z</time></trkpt>
	<trkpt lat="51.738345" lon="-2.065035"><ele>178.000000</ele><time>2010-07-21T09:27:35Z</time></trkpt>
	<trkpt lat="51.738355" lon="-2.064958333"><ele>178.000000</ele><time>2010-07-21T09:27:40Z</time></trkpt>
	<trkpt lat="51.73836667" lon="-2.064878333"><ele>177.000000</ele><time>2010-07-21T09:27:45Z</time></trkpt>
	<trkpt lat="51.73837167" lon="-2.064803333"><ele>176.000000</ele><time>2010-07-21T09:27:50Z</time></trkpt>
	<trkpt lat="51.73837" lon="-2.064741667"><ele>176.000000</ele><time>2010-07-21T09:27:55Z</time></trkpt>
	<trkpt lat="51.73836333" lon="-2.064655"><ele>177.000000</ele><time>2010-07-21T09:28:00Z</time></trkpt>
	<trkpt lat="51.73835667" lon="-2.064573333"><ele>177.000000</ele><time>2010-07-21T09:28:05Z</time></trkpt>
	<trkpt lat="51.73834833" lon="-2.064481667"><ele>179.000000</ele><time>2010-07-21T09:28:11Z</time></trkpt>
	<trkpt lat="51.738335" lon="-2.064411667"><ele>179.000000</ele><time>2010-07-21T09:28:16Z</time></trkpt>
	<trkpt lat="51.73832667" lon="-2.06434"><ele>180.000000</ele><time>2010-07-21T09:28:21Z</time></trkpt>
	<trkpt lat="51.73832333" lon="-2.064253333"><ele>181.000000</ele><time>2010-07-21T09:28:27Z</time></trkpt>
	<trkpt lat="51.738305" lon="-2.064171667"><ele>181.000000</ele><time>2010-07-21T09:28:33Z</time></trkpt>
	<trkpt lat="51.73829167" lon="-2.064111667"><ele>181.000000</ele><time>2010-07-21T09:28:38Z</time></trkpt>
	<trkpt lat="51.73828667" lon="-2.06407"><ele>181.000000</ele><time>2010-07-21T09:28:43Z</time></trkpt>
	<trkpt lat="51.73826667" lon="-2.064036667"><ele>181.000000</ele><time>2010-07-21T09:28:48Z</time></trkpt>
	<trkpt lat="51.73825667" lon="-2.063956667"><ele>181.000000</ele><time>2010-07-21T09:28:53Z</time></trkpt>
	<trkpt lat="51.73824167" lon="-2.063861667"><ele>181.000000</ele><time>2010-07-21T09:28:59Z</time></trkpt>
	<trkpt lat="51.73822833" lon="-2.063765"><ele>182.000000</ele><time>2010-07-21T09:29:05Z</time></trkpt>
	<trkpt lat="51.73821333" lon="-2.063661667"><ele>183.000000</ele><time>2010-07-21T09:29:11Z</time></trkpt>
	<trkpt lat="51.73819667" lon="-2.063588333"><ele>183.000000</ele><time>2010-07-21T09:29:16Z</time></trkpt>
	<trkpt lat="51.73818667" lon="-2.063513333"><ele>183.000000</ele><time>2010-07-21T09:29:21Z</time></trkpt>
	<trkpt lat="51.73817667" lon="-2.063443333"><ele>184.000000</ele><time>2010-07-21T09:29:26Z</time></trkpt>
	<trkpt lat="51.73816667" lon="-2.063371667"><ele>184.000000</ele><time>2010-07-21T09:29:31Z</time></trkpt>
	<trkpt lat="51.73815833" lon="-2.063303333"><ele>185.000000</ele><time>2010-07-21T09:29:36Z</time></trkpt>
	<trkpt lat="51.73815" lon="-2.063233333"><ele>185.000000</ele><time>2010-07-21T09:29:41Z</time></trkpt>
	<trkpt lat="51.73814" lon="-2.063158333"><ele>186.000000</ele><time>2010-07-21T09:29:47Z</time></trkpt>
	<trkpt lat="51.73813167" lon="-2.063095"><ele>186.000000</ele><time>2010-07-21T09:29:52Z</time></trkpt>
	<trkpt lat="51.73812333" lon="-2.063031667"><ele>187.000000</ele><time>2010-07-21T09:29:57Z</time></trkpt>
	<trkpt lat="51.73813167" lon="-2.062963333"><ele>187.000000</ele><time>2010-07-21T09:30:03Z</time></trkpt>
	<trkpt lat="51.73812667" lon="-2.062883333"><ele>188.000000</ele><time>2010-07-21T09:30:09Z</time></trkpt>
	<trkpt lat="51.73811333" lon="-2.062806667"><ele>187.000000</ele><time>2010-07-21T09:30:14Z</time></trkpt>
	<trkpt lat="51.73809667" lon="-2.062735"><ele>187.000000</ele><time>2010-07-21T09:30:19Z</time></trkpt>
	<trkpt lat="51.73808667" lon="-2.062658333"><ele>187.000000</ele><time>2010-07-21T09:30:24Z</time></trkpt>
	<trkpt lat="51.73807167" lon="-2.062603333"><ele>187.000000</ele><time>2010-07-21T09:30:29Z</time></trkpt>
	<trkpt lat="51.73806667" lon="-2.062523333"><ele>187.000000</ele><time>2010-07-21T09:30:35Z</time></trkpt>
	<trkpt lat="51.73805667" lon="-2.062425"><ele>188.000000</ele><time>2010-07-21T09:30:41Z</time></trkpt>
	<trkpt lat="51.73804833" lon="-2.062323333"><ele>188.000000</ele><time>2010-07-21T09:30:47Z</time></trkpt>
	<trkpt lat="51.73804" lon="-2.062226667"><ele>189.000000</ele><time>2010-07-21T09:30:53Z</time></trkpt>
	<trkpt lat="51.73803333" lon="-2.06216"><ele>189.000000</ele><time>2010-07-21T09:30:58Z</time></trkpt>
	<trkpt lat="51.73802167" lon="-2.0621"><ele>189.000000</ele><time>2010-07-21T09:31:03Z</time></trkpt>
	<trkpt lat="51.73801667" lon="-2.062023333"><ele>190.000000</ele><time>2010-07-21T09:31:08Z</time></trkpt>
	<trkpt lat="51.738015" lon="-2.061975"><ele>190.000000</ele><time>2010-07-21T09:31:13Z</time></trkpt>
	<trkpt lat="51.73801833" lon="-2.061966667"><ele>190.000000</ele><time>2010-07-21T09:31:18Z</time></trkpt>
	<trkpt lat="51.73802" lon="-2.06197"><ele>191.000000</ele><time>2010-07-21T09:31:24Z</time></trkpt>
	<trkpt lat="51.73801667" lon="-2.06196"><ele>191.000000</ele><time>2010-07-21T09:31:29Z</time></trkpt>
	<trkpt lat="51.738015" lon="-2.061963333"><ele>191.000000</ele><time>2010-07-21T09:31:34Z</time></trkpt>
	<trkpt lat="51.73801333" lon="-2.061966667"><ele>191.000000</ele><time>2010-07-21T09:31:39Z</time></trkpt>
	<trkpt lat="51.73801333" lon="-2.061973333"><ele>191.000000</ele><time>2010-07-21T09:31:44Z</time></trkpt>
	<trkpt lat="51.738015" lon="-2.061973333"><ele>191.000000</ele><time>2010-07-21T09:31:50Z</time></trkpt>
	<trkpt lat="51.73801333" lon="-2.061976667"><ele>190.000000</ele><time>2010-07-21T09:31:55Z</time></trkpt>
	<trkpt lat="51.73801167" lon="-2.061975"><ele>190.000000</ele><time>2010-07-21T09:32:00Z</time></trkpt>
	<trkpt lat="51.73800667" lon="-2.061971667"><ele>190.000000</ele><time>2010-07-21T09:32:05Z</time></trkpt>
	<trkpt lat="51.73800167" lon="-2.061973333"><ele>191.000000</ele><time>2010-07-21T09:32:10Z</time></trkpt>
	<trkpt lat="51.73800333" lon="-2.061975"><ele>191.000000</ele><time>2010-07-21T09:32:15Z</time></trkpt>
	<trkpt lat="51.73800833" lon="-2.061978333"><ele>191.000000</ele><time>2010-07-21T09:32:20Z</time></trkpt>
	<trkpt lat="51.73801333" lon="-2.061985"><ele>191.000000</ele><time>2010-07-21T09:32:25Z</time></trkpt>
	<trkpt lat="51.738015" lon="-2.062043333"><ele>192.000000</ele><time>2010-07-21T09:32:31Z</time></trkpt>
	<trkpt lat="51.73801" lon="-2.06211"><ele>193.000000</ele><time>2010-07-21T09:32:36Z</time></trkpt>
	<trkpt lat="51.73801167" lon="-2.062163333"><ele>193.000000</ele><time>2010-07-21T09:32:41Z</time></trkpt>
	<trkpt lat="51.73801333" lon="-2.062221667"><ele>194.000000</ele><time>2010-07-21T09:32:46Z</time></trkpt>
	<trkpt lat="51.73802167" lon="-2.062271667"><ele>194.000000</ele><time>2010-07-21T09:32:51Z</time></trkpt>
	<trkpt lat="51.73802" lon="-2.062301667"><ele>195.000000</ele><time>2010-07-21T09:32:56Z</time></trkpt>
	<trkpt lat="51.73802333" lon="-2.062313333"><ele>194.000000</ele><time>2010-07-21T09:33:01Z</time></trkpt>
	<trkpt lat="51.73802667" lon="-2.062401667"><ele>194.000000</ele><time>2010-07-21T09:33:06Z</time></trkpt>
	<trkpt lat="51.73803333" lon="-2.062501667"><ele>194.000000</ele><time>2010-07-21T09:33:11Z</time></trkpt>
	<trkpt lat="51.73805667" lon="-2.06262"><ele>193.000000</ele><time>2010-07-21T09:33:17Z</time></trkpt>
	<trkpt lat="51.738075" lon="-2.062723333"><ele>193.000000</ele><time>2010-07-21T09:33:23Z</time></trkpt>
	<trkpt lat="51.73808167" lon="-2.062803333"><ele>192.000000</ele><time>2010-07-21T09:33:28Z</time></trkpt>
	<trkpt lat="51.73808667" lon="-2.062896667"><ele>191.000000</ele><time>2010-07-21T09:33:34Z</time></trkpt>
	<trkpt lat="51.73808667" lon="-2.062971667"><ele>191.000000</ele><time>2010-07-21T09:33:39Z</time></trkpt>
	<trkpt lat="51.73809833" lon="-2.063048333"><ele>191.000000</ele><time>2010-07-21T09:33:44Z</time></trkpt>
	<trkpt lat="51.73811333" lon="-2.063128333"><ele>191.000000</ele><time>2010-07-21T09:33:49Z</time></trkpt>
	<trkpt lat="51.73812667" lon="-2.06323"><ele>190.000000</ele><time>2010-07-21T09:33:55Z</time></trkpt>
	<trkpt lat="51.73813667" lon="-2.063315"><ele>190.000000</ele><time>2010-07-21T09:34:00Z</time></trkpt>
	<trkpt lat="51.73814667" lon="-2.063396667"><ele>190.000000</ele><time>2010-07-21T09:34:05Z</time></trkpt>
	<trkpt lat="51.73815667" lon="-2.063483333"><ele>190.000000</ele><time>2010-07-21T09:34:10Z</time></trkpt>
	<trkpt lat="51.73816167" lon="-2.063568333"><ele>190.000000</ele><time>2010-07-21T09:34:15Z</time></trkpt>
	<trkpt lat="51.73817667" lon="-2.063668333"><ele>189.000000</ele><time>2010-07-21T09:34:21Z</time></trkpt>
	<trkpt lat="51.73819167" lon="-2.063751667"><ele>189.000000</ele><time>2010-07-21T09:34:26Z</time></trkpt>
	<trkpt lat="51.73820333" lon="-2.063833333"><ele>189.000000</ele><time>2010-07-21T09:34:31Z</time></trkpt>
	<trkpt lat="51.73822167" lon="-2.063941667"><ele>188.000000</ele><time>2010-07-21T09:34:37Z</time></trkpt>
	<trkpt lat="51.73823667" lon="-2.064023333"><ele>188.000000</ele><time>2010-07-21T09:34:42Z</time></trkpt>
	<trkpt lat="51.73825167" lon="-2.0641"><ele>188.000000</ele><time>2010-07-21T09:34:47Z</time></trkpt>
	<trkpt lat="51.738275" lon="-2.064175"><ele>186.000000</ele><time>2010-07-21T09:34:52Z</time></trkpt>
	<trkpt lat="51.738295" lon="-2.06426"><ele>187.000000</ele><time>2010-07-21T09:34:57Z</time></trkpt>
	<trkpt lat="51.738305" lon="-2.064355"><ele>187.000000</ele><time>2010-07-21T09:35:02Z</time></trkpt>
	<trkpt lat="51.738315" lon="-2.06445"><ele>186.000000</ele><time>2010-07-21T09:35:07Z</time></trkpt>
	<trkpt lat="51.73832" lon="-2.064531667"><ele>186.000000</ele><time>2010-07-21T09:35:12Z</time></trkpt>
	<trkpt lat="51.738325" lon="-2.06463"><ele>184.000000</ele><time>2010-07-21T09:35:17Z</time></trkpt>
	<trkpt lat="51.73832667" lon="-2.064718333"><ele>184.000000</ele><time>2010-07-21T09:35:22Z</time></trkpt>
	<trkpt lat="51.73832667" lon="-2.06481"><ele>181.000000</ele><time>2010-07-21T09:35:27Z</time></trkpt>
	<trkpt lat="51.73833833" lon="-2.064846667"><ele>179.000000</ele><time>2010-07-21T09:35:32Z</time></trkpt>
	<trkpt lat="51.73834" lon="-2.064885"><ele>181.000000</ele><time>2010-07-21T09:35:37Z</time></trkpt>
	<trkpt lat="51.73833167" lon="-2.064946667"><ele>181.000000</ele><time>2010-07-21T09:35:42Z</time></trkpt>
	<trkpt lat="51.73832" lon="-2.065026667"><ele>181.000000</ele><time>2010-07-21T09:35:47Z</time></trkpt>
	<trkpt lat="51.738325" lon="-2.065103333"><ele>180.000000</ele><time>2010-07-21T09:35:52Z</time></trkpt>
	<trkpt lat="51.73831167" lon="-2.065173333"><ele>179.000000</ele><time>2010-07-21T09:35:57Z</time></trkpt>
	<trkpt lat="51.73829333" lon="-2.065231667"><ele>179.000000</ele><time>2010-07-21T09:36:02Z</time></trkpt>
	<trkpt lat="51.738265" lon="-2.065316667"><ele>179.000000</ele><time>2010-07-21T09:36:07Z</time></trkpt>
	<trkpt lat="51.738235" lon="-2.065396667"><ele>176.000000</ele><time>2010-07-21T09:36:12Z</time></trkpt>
	<trkpt lat="51.73819833" lon="-2.065468333"><ele>175.000000</ele><time>2010-07-21T09:36:17Z</time></trkpt>
	<trkpt lat="51.73815667" lon="-2.065556667"><ele>175.000000</ele><time>2010-07-21T09:36:22Z</time></trkpt>
	<trkpt lat="51.73812333" lon="-2.065638333"><ele>173.000000</ele><time>2010-07-21T09:36:27Z</time></trkpt>
	<trkpt lat="51.73816" lon="-2.065653333"><ele>169.000000</ele><time>2010-07-21T09:36:32Z</time></trkpt>
	<trkpt lat="51.73820667" lon="-2.065616667"><ele>166.000000</ele><time>2010-07-21T09:36:37Z</time></trkpt>
	<trkpt lat="51.73826167" lon="-2.065591667"><ele>166.000000</ele><time>2010-07-21T09:36:43Z</time></trkpt>
	<trkpt lat="51.73829" lon="-2.065605"><ele>169.000000</ele><time>2010-07-21T09:36:48Z</time></trkpt>
	<trkpt lat="51.73830667" lon="-2.065628333"><ele>172.000000</ele><time>2010-07-21T09:36:53Z</time></trkpt>
	<trkpt lat="51.73835667" lon="-2.0656"><ele>168.000000</ele><time>2010-07-21T09:36:58Z</time></trkpt>
	<trkpt lat="51.73841667" lon="-2.065595"><ele>167.000000</ele><time>2010-07-21T09:37:03Z</time></trkpt>
	<trkpt lat="51.73845167" lon="-2.06558"><ele>169.000000</ele><time>2010-07-21T09:37:08Z</time></trkpt>
	<trkpt lat="51.73849833" lon="-2.06556"><ele>169.000000</ele><time>2010-07-21T09:37:13Z</time></trkpt>
	<trkpt lat="51.73854167" lon="-2.065568333"><ele>172.000000</ele><time>2010-07-21T09:37:18Z</time></trkpt>
	<trkpt lat="51.73858667" lon="-2.065565"><ele>168.000000</ele><time>2010-07-21T09:37:23Z</time></trkpt>
	<trkpt lat="51.73862" lon="-2.065553333"><ele>166.000000</ele><time>2010-07-21T09:37:29Z</time></trkpt>
	<trkpt lat="51.73865167" lon="-2.065576667"><ele>161.000000</ele><time>2010-07-21T09:37:34Z</time></trkpt>
	<trkpt lat="51.73867" lon="-2.065578333"><ele>158.000000</ele><time>2010-07-21T09:37:39Z</time></trkpt>
	<trkpt lat="51.73870833" lon="-2.065571667"><ele>157.000000</ele><time>2010-07-21T09:37:44Z</time></trkpt>
	<trkpt lat="51.73877667" lon="-2.06557"><ele>161.000000</ele><time>2010-07-21T09:37:50Z</time></trkpt>
	<trkpt lat="51.73884" lon="-2.065575"><ele>162.000000</ele><time>2010-07-21T09:37:55Z</time></trkpt>
	<trkpt lat="51.73891" lon="-2.065586667"><ele>159.000000</ele><time>2010-07-21T09:38:00Z</time></trkpt>
	<trkpt lat="51.73897833" lon="-2.065591667"><ele>158.000000</ele><time>2010-07-21T09:38:05Z</time></trkpt>
	<trkpt lat="51.739045" lon="-2.065588333"><ele>156.000000</ele><time>2010-07-21T09:38:10Z</time></trkpt>
	<trkpt lat="51.73910833" lon="-2.065583333"><ele>156.000000</ele><time>2010-07-21T09:38:15Z</time></trkpt>
	<trkpt lat="51.739185" lon="-2.065578333"><ele>155.000000</ele><time>2010-07-21T09:38:21Z</time></trkpt>
	<trkpt lat="51.73924667" lon="-2.065576667"><ele>155.000000</ele><time>2010-07-21T09:38:26Z</time></trkpt>
	<trkpt lat="51.73931667" lon="-2.065571667"><ele>155.000000</ele><time>2010-07-21T09:38:32Z</time></trkpt>
	<trkpt lat="51.73937167" lon="-2.065575"><ele>156.000000</ele><time>2010-07-21T09:38:37Z</time></trkpt>
	<trkpt lat="51.73942833" lon="-2.065581667"><ele>157.000000</ele><time>2010-07-21T09:38:42Z</time></trkpt>
	<trkpt lat="51.73948333" lon="-2.065588333"><ele>158.000000</ele><time>2010-07-21T09:38:47Z</time></trkpt>
	<trkpt lat="51.73954833" lon="-2.065606667"><ele>159.000000</ele><time>2010-07-21T09:38:53Z</time></trkpt>
	<trkpt lat="51.739615" lon="-2.065625"><ele>160.000000</ele><time>2010-07-21T09:38:59Z</time></trkpt>
	<trkpt lat="51.73966833" lon="-2.065636667"><ele>161.000000</ele><time>2010-07-21T09:39:04Z</time></trkpt>
	<trkpt lat="51.73972333" lon="-2.065641667"><ele>160.000000</ele><time>2010-07-21T09:39:09Z</time></trkpt>
	<trkpt lat="51.73977333" lon="-2.06565"><ele>159.000000</ele><time>2010-07-21T09:39:14Z</time></trkpt>
	<trkpt lat="51.73983833" lon="-2.065655"><ele>159.000000</ele><time>2010-07-21T09:39:20Z</time></trkpt>
	<trkpt lat="51.73989167" lon="-2.065653333"><ele>160.000000</ele><time>2010-07-21T09:39:25Z</time></trkpt>
	<trkpt lat="51.739945" lon="-2.065645"><ele>161.000000</ele><time>2010-07-21T09:39:30Z</time></trkpt>
	<trkpt lat="51.74" lon="-2.065636667"><ele>161.000000</ele><time>2010-07-21T09:39:35Z</time></trkpt>
	<trkpt lat="51.74005667" lon="-2.065621667"><ele>161.000000</ele><time>2010-07-21T09:39:40Z</time></trkpt>
	<trkpt lat="51.74011833" lon="-2.065605"><ele>159.000000</ele><time>2010-07-21T09:39:45Z</time></trkpt>
	<trkpt lat="51.74017" lon="-2.065585"><ele>159.000000</ele><time>2010-07-21T09:39:50Z</time></trkpt>
	<trkpt lat="51.740225" lon="-2.06557"><ele>159.000000</ele><time>2010-07-21T09:39:55Z</time></trkpt>
	<trkpt lat="51.740275" lon="-2.065565"><ele>159.000000</ele><time>2010-07-21T09:40:00Z</time></trkpt>
	<trkpt lat="51.74032833" lon="-2.065545"><ele>158.000000</ele><time>2010-07-21T09:40:05Z</time></trkpt>
	<trkpt lat="51.74037833" lon="-2.065516667"><ele>158.000000</ele><time>2010-07-21T09:40:10Z</time></trkpt>
	<trkpt lat="51.74042833" lon="-2.065486667"><ele>158.000000</ele><time>2010-07-21T09:40:15Z</time></trkpt>
	<trkpt lat="51.74047667" lon="-2.065455"><ele>158.000000</ele><time>2010-07-21T09:40:20Z</time></trkpt>
	<trkpt lat="51.74052333" lon="-2.065415"><ele>158.000000</ele><time>2010-07-21T09:40:25Z</time></trkpt>
	<trkpt lat="51.74056833" lon="-2.065378333"><ele>158.000000</ele><time>2010-07-21T09:40:30Z</time></trkpt>
	<trkpt lat="51.74061167" lon="-2.065336667"><ele>159.000000</ele><time>2010-07-21T09:40:35Z</time></trkpt>
	<trkpt lat="51.74065" lon="-2.065298333"><ele>160.000000</ele><time>2010-07-21T09:40:40Z</time></trkpt>
	<trkpt lat="51.74069" lon="-2.065258333"><ele>161.000000</ele><time>2010-07-21T09:40:45Z</time></trkpt>
	<trkpt lat="51.74073" lon="-2.06521"><ele>161.000000</ele><time>2010-07-21T09:40:50Z</time></trkpt>
	<trkpt lat="51.740765" lon="-2.065156667"><ele>161.000000</ele><time>2010-07-21T09:40:55Z</time></trkpt>
	<trkpt lat="51.74079833" lon="-2.065066667"><ele>161.000000</ele><time>2010-07-21T09:41:01Z</time></trkpt>
	<trkpt lat="51.7408" lon="-2.065056667"><ele>160.000000</ele><time>2010-07-21T09:41:06Z</time></trkpt>
	<trkpt lat="51.7408" lon="-2.065055"><ele>160.000000</ele><time>2010-07-21T09:41:11Z</time></trkpt>
	<trkpt lat="51.740795" lon="-2.065055"><ele>162.000000</ele><time>2010-07-21T09:41:17Z</time></trkpt>
	<trkpt lat="51.74079333" lon="-2.065053333"><ele>163.000000</ele><time>2010-07-21T09:41:22Z</time></trkpt>
	<trkpt lat="51.74079167" lon="-2.065053333"><ele>164.000000</ele><time>2010-07-21T09:41:27Z</time></trkpt>
	<trkpt lat="51.74078833" lon="-2.06505"><ele>164.000000</ele><time>2010-07-21T09:41:32Z</time></trkpt>
	<trkpt lat="51.740785" lon="-2.065046667"><ele>164.000000</ele><time>2010-07-21T09:41:37Z</time></trkpt>
	<trkpt lat="51.74077667" lon="-2.06505"><ele>163.000000</ele><time>2010-07-21T09:41:43Z</time></trkpt>
	<trkpt lat="51.74077" lon="-2.065046667"><ele>163.000000</ele><time>2010-07-21T09:41:48Z</time></trkpt>
	<trkpt lat="51.74077" lon="-2.065046667"><ele>163.000000</ele><time>2010-07-21T09:41:53Z</time></trkpt>
	<trkpt lat="51.740765" lon="-2.06504"><ele>163.000000</ele><time>2010-07-21T09:41:59Z</time></trkpt>
	<trkpt lat="51.74076667" lon="-2.065038333"><ele>163.000000</ele><time>2010-07-21T09:42:05Z</time></trkpt>
	<trkpt lat="51.740765" lon="-2.065036667"><ele>163.000000</ele><time>2010-07-21T09:42:10Z</time></trkpt>
	<trkpt lat="51.74076167" lon="-2.065031667"><ele>163.000000</ele><time>2010-07-21T09:42:15Z</time></trkpt>
	<trkpt lat="51.74075833" lon="-2.06503"><ele>164.000000</ele><time>2010-07-21T09:42:20Z</time></trkpt>
	<trkpt lat="51.74076833" lon="-2.065026667"><ele>166.000000</ele><time>2010-07-21T09:42:26Z</time></trkpt>
	<trkpt lat="51.74078833" lon="-2.064945"><ele>167.000000</ele><time>2010-07-21T09:42:31Z</time></trkpt>
	<trkpt lat="51.74081" lon="-2.06487"><ele>168.000000</ele><time>2010-07-21T09:42:36Z</time></trkpt>
	<trkpt lat="51.740825" lon="-2.064788333"><ele>168.000000</ele><time>2010-07-21T09:42:41Z</time></trkpt>
	<trkpt lat="51.740845" lon="-2.06471"><ele>168.000000</ele><time>2010-07-21T09:42:46Z</time></trkpt>
	<trkpt lat="51.74086667" lon="-2.064608333"><ele>168.000000</ele><time>2010-07-21T09:42:52Z</time></trkpt>
	<trkpt lat="51.740895" lon="-2.064501667"><ele>169.000000</ele><time>2010-07-21T09:42:58Z</time></trkpt>
	<trkpt lat="51.740915" lon="-2.06439"><ele>170.000000</ele><time>2010-07-21T09:43:03Z</time></trkpt>
	<trkpt lat="51.74095667" lon="-2.064168333"><ele>171.000000</ele><time>2010-07-21T09:43:09Z</time></trkpt>
	<trkpt lat="51.74097833" lon="-2.063961667"><ele>172.000000</ele><time>2010-07-21T09:43:14Z</time></trkpt>
	<trkpt lat="51.741005" lon="-2.063771667"><ele>174.000000</ele><time>2010-07-21T09:43:19Z</time></trkpt>
	<trkpt lat="51.74105667" lon="-2.063608333"><ele>175.000000</ele><time>2010-07-21T09:43:24Z</time></trkpt>
	<trkpt lat="51.741115" lon="-2.06344"><ele>176.000000</ele><time>2010-07-21T09:43:29Z</time></trkpt>
	<trkpt lat="51.741155" lon="-2.063331667"><ele>178.000000</ele><time>2010-07-21T09:43:34Z</time></trkpt>
	<trkpt lat="51.74123" lon="-2.063195"><ele>178.000000</ele><time>2010-07-21T09:43:39Z</time></trkpt>
	<trkpt lat="51.74128333" lon="-2.063103333"><ele>179.000000</ele><time>2010-07-21T09:43:44Z</time></trkpt>
	<trkpt lat="51.741325" lon="-2.063036667"><ele>178.000000</ele><time>2010-07-21T09:43:49Z</time></trkpt>
	<trkpt lat="51.741325" lon="-2.063038333"><ele>178.000000</ele><time>2010-07-21T09:43:54Z</time></trkpt>
	<trkpt lat="51.74136667" lon="-2.062961667"><ele>179.000000</ele><time>2010-07-21T09:43:59Z</time></trkpt>
	<trkpt lat="51.741425" lon="-2.062805"><ele>179.000000</ele><time>2010-07-21T09:44:04Z</time></trkpt>
	<trkpt lat="51.74145833" lon="-2.0627"><ele>179.000000</ele><time>2010-07-21T09:44:09Z</time></trkpt>
	<trkpt lat="51.74147" lon="-2.062678333"><ele>179.000000</ele><time>2010-07-21T09:44:14Z</time></trkpt>
	<trkpt lat="51.74147667" lon="-2.062678333"><ele>180.000000</ele><time>2010-07-21T09:44:19Z</time></trkpt>
	<trkpt lat="51.741515" lon="-2.0626"><ele>180.000000</ele><time>2010-07-21T09:44:24Z</time></trkpt>
	<trkpt lat="51.74155167" lon="-2.062515"><ele>180.000000</ele><time>2010-07-21T09:44:29Z</time></trkpt>
	<trkpt lat="51.74161667" lon="-2.062453333"><ele>179.000000</ele><time>2010-07-21T09:44:34Z</time></trkpt>
	<trkpt lat="51.74168333" lon="-2.062386667"><ele>179.000000</ele><time>2010-07-21T09:44:39Z</time></trkpt>
	<trkpt lat="51.74174833" lon="-2.06232"><ele>180.000000</ele><time>2010-07-21T09:44:44Z</time></trkpt>
	<trkpt lat="51.74182167" lon="-2.062306667"><ele>179.000000</ele><time>2010-07-21T09:44:49Z</time></trkpt>
	<trkpt lat="51.74189" lon="-2.062313333"><ele>177.000000</ele><time>2010-07-21T09:44:54Z</time></trkpt>
	<trkpt lat="51.74190167" lon="-2.062318333"><ele>177.000000</ele><time>2010-07-21T09:45:00Z</time></trkpt>
	<trkpt lat="51.7419" lon="-2.06232"><ele>177.000000</ele><time>2010-07-21T09:45:05Z</time></trkpt>
	<trkpt lat="51.74193667" lon="-2.062306667"><ele>174.000000</ele><time>2010-07-21T09:45:10Z</time></trkpt>
	<trkpt lat="51.741945" lon="-2.062291667"><ele>174.000000</ele><time>2010-07-21T09:45:16Z</time></trkpt>
	<trkpt lat="51.741945" lon="-2.062291667"><ele>174.000000</ele><time>2010-07-21T09:45:21Z</time></trkpt>
	<trkpt lat="51.74194667" lon="-2.062291667"><ele>174.000000</ele><time>2010-07-21T09:45:26Z</time></trkpt>
	<trkpt lat="51.74200167" lon="-2.062275"><ele>174.000000</ele><time>2010-07-21T09:45:31Z</time></trkpt>
	<trkpt lat="51.74205333" lon="-2.062235"><ele>173.000000</ele><time>2010-07-21T09:45:36Z</time></trkpt>
	<trkpt lat="51.74210833" lon="-2.062191667"><ele>172.000000</ele><time>2010-07-21T09:45:41Z</time></trkpt>
	<trkpt lat="51.74217667" lon="-2.062153333"><ele>171.000000</ele><time>2010-07-21T09:45:46Z</time></trkpt>
	<trkpt lat="51.74224167" lon="-2.062106667"><ele>171.000000</ele><time>2010-07-21T09:45:51Z</time></trkpt>
	<trkpt lat="51.74230667" lon="-2.062056667"><ele>171.000000</ele><time>2010-07-21T09:45:56Z</time></trkpt>
	<trkpt lat="51.74237333" lon="-2.062033333"><ele>170.000000</ele><time>2010-07-21T09:46:01Z</time></trkpt>
	<trkpt lat="51.74244333" lon="-2.062"><ele>170.000000</ele><time>2010-07-21T09:46:06Z</time></trkpt>
	<trkpt lat="51.742505" lon="-2.061961667"><ele>170.000000</ele><time>2010-07-21T09:46:11Z</time></trkpt>
	<trkpt lat="51.74255667" lon="-2.06194"><ele>169.000000</ele><time>2010-07-21T09:46:16Z</time></trkpt>
	<trkpt lat="51.74258833" lon="-2.061961667"><ele>169.000000</ele><time>2010-07-21T09:46:21Z</time></trkpt>
	<trkpt lat="51.74258" lon="-2.06195"><ele>170.000000</ele><time>2010-07-21T09:46:27Z</time></trkpt>
	<trkpt lat="51.74257667" lon="-2.061946667"><ele>169.000000</ele><time>2010-07-21T09:46:32Z</time></trkpt>
	<trkpt lat="51.74256833" lon="-2.06193"><ele>169.000000</ele><time>2010-07-21T09:46:37Z</time></trkpt>
	<trkpt lat="51.74256" lon="-2.06191"><ele>168.000000</ele><time>2010-07-21T09:46:42Z</time></trkpt>
	<trkpt lat="51.74256833" lon="-2.061883333"><ele>167.000000</ele><time>2010-07-21T09:46:47Z</time></trkpt>
	<trkpt lat="51.74259833" lon="-2.061815"><ele>166.000000</ele><time>2010-07-21T09:46:52Z</time></trkpt>
	<trkpt lat="51.74260667" lon="-2.061778333"><ele>166.000000</ele><time>2010-07-21T09:46:57Z</time></trkpt>
	<trkpt lat="51.74262667" lon="-2.061783333"><ele>166.000000</ele><time>2010-07-21T09:47:02Z</time></trkpt>
	<trkpt lat="51.74268333" lon="-2.061721667"><ele>167.000000</ele><time>2010-07-21T09:47:07Z</time></trkpt>
	<trkpt lat="51.74273167" lon="-2.061653333"><ele>167.000000</ele><time>2010-07-21T09:47:12Z</time></trkpt>
	<trkpt lat="51.742775" lon="-2.061586667"><ele>167.000000</ele><time>2010-07-21T09:47:17Z</time></trkpt>
	<trkpt lat="51.74282333" lon="-2.061516667"><ele>167.000000</ele><time>2010-07-21T09:47:22Z</time></trkpt>
	<trkpt lat="51.74286833" lon="-2.061465"><ele>167.000000</ele><time>2010-07-21T09:47:27Z</time></trkpt>
	<trkpt lat="51.74291167" lon="-2.06142"><ele>168.000000</ele><time>2010-07-21T09:47:32Z</time></trkpt>
	<trkpt lat="51.742955" lon="-2.061373333"><ele>168.000000</ele><time>2010-07-21T09:47:37Z</time></trkpt>
	<trkpt lat="51.74301" lon="-2.0613"><ele>169.000000</ele><time>2010-07-21T09:47:42Z</time></trkpt>
	<trkpt lat="51.74305667" lon="-2.061243333"><ele>169.000000</ele><time>2010-07-21T09:47:48Z</time></trkpt>
	<trkpt lat="51.74309833" lon="-2.06123"><ele>169.000000</ele><time>2010-07-21T09:47:53Z</time></trkpt>
	<trkpt lat="51.74314833" lon="-2.061196667"><ele>170.000000</ele><time>2010-07-21T09:47:59Z</time></trkpt>
	<trkpt lat="51.74317167" lon="-2.061178333"><ele>170.000000</ele><time>2010-07-21T09:48:04Z</time></trkpt>
	<trkpt lat="51.74321" lon="-2.061136667"><ele>170.000000</ele><time>2010-07-21T09:48:09Z</time></trkpt>
	<trkpt lat="51.74325" lon="-2.061083333"><ele>170.000000</ele><time>2010-07-21T09:48:14Z</time></trkpt>
	<trkpt lat="51.74329833" lon="-2.061021667"><ele>169.000000</ele><time>2010-07-21T09:48:20Z</time></trkpt>
	<trkpt lat="51.74333333" lon="-2.060993333"><ele>169.000000</ele><time>2010-07-21T09:48:25Z</time></trkpt>
	<trkpt lat="51.743375" lon="-2.060958333"><ele>169.000000</ele><time>2010-07-21T09:48:30Z</time></trkpt>
	<trkpt lat="51.74341333" lon="-2.060918333"><ele>170.000000</ele><time>2010-07-21T09:48:35Z</time></trkpt>
	<trkpt lat="51.743455" lon="-2.060883333"><ele>171.000000</ele><time>2010-07-21T09:48:40Z</time></trkpt>
	<trkpt lat="51.7435" lon="-2.060831667"><ele>170.000000</ele><time>2010-07-21T09:48:45Z</time></trkpt>
	<trkpt lat="51.743555" lon="-2.060751667"><ele>167.000000</ele><time>2010-07-21T09:48:51Z</time></trkpt>
	<trkpt lat="51.743595" lon="-2.060731667"><ele>166.000000</ele><time>2010-07-21T09:48:56Z</time></trkpt>
	<trkpt lat="51.743645" lon="-2.060715"><ele>166.000000</ele><time>2010-07-21T09:49:02Z</time></trkpt>
	<trkpt lat="51.74369" lon="-2.060716667"><ele>166.000000</ele><time>2010-07-21T09:49:07Z</time></trkpt>
	<trkpt lat="51.74373667" lon="-2.060691667"><ele>167.000000</ele><time>2010-07-21T09:49:12Z</time></trkpt>
	<trkpt lat="51.74377167" lon="-2.060728333"><ele>167.000000</ele><time>2010-07-21T09:49:17Z</time></trkpt>
	<trkpt lat="51.743805" lon="-2.060735"><ele>168.000000</ele><time>2010-07-21T09:49:22Z</time></trkpt>
	<trkpt lat="51.74375833" lon="-2.060688333"><ele>163.000000</ele><time>2010-07-21T09:49:27Z</time></trkpt>
	<trkpt lat="51.74375833" lon="-2.060705"><ele>162.000000</ele><time>2010-07-21T09:49:32Z</time></trkpt>
	<trkpt lat="51.74377833" lon="-2.060708333"><ele>163.000000</ele><time>2010-07-21T09:49:37Z</time></trkpt>
	<trkpt lat="51.74378" lon="-2.060771667"><ele>165.000000</ele><time>2010-07-21T09:49:42Z</time></trkpt>
	<trkpt lat="51.74376" lon="-2.060815"><ele>166.000000</ele><time>2010-07-21T09:49:48Z</time></trkpt>
	<trkpt lat="51.74372833" lon="-2.060893333"><ele>168.000000</ele><time>2010-07-21T09:49:54Z</time></trkpt>
	<trkpt lat="51.74370833" lon="-2.060993333"><ele>169.000000</ele><time>2010-07-21T09:50:00Z</time></trkpt>
	<trkpt lat="51.743685" lon="-2.061078333"><ele>169.000000</ele><time>2010-07-21T09:50:05Z</time></trkpt>
	<trkpt lat="51.74367333" lon="-2.061176667"><ele>169.000000</ele><time>2010-07-21T09:50:10Z</time></trkpt>
	<trkpt lat="51.74366" lon="-2.061275"><ele>169.000000</ele><time>2010-07-21T09:50:15Z</time></trkpt>
	<trkpt lat="51.74364333" lon="-2.061365"><ele>169.000000</ele><time>2010-07-21T09:50:20Z</time></trkpt>
	<trkpt lat="51.743625" lon="-2.061455"><ele>170.000000</ele><time>2010-07-21T09:50:25Z</time></trkpt>
	<trkpt lat="51.74359333" lon="-2.061538333"><ele>171.000000</ele><time>2010-07-21T09:50:31Z</time></trkpt>
	<trkpt lat="51.74358333" lon="-2.06161"><ele>171.000000</ele><time>2010-07-21T09:50:36Z</time></trkpt>
	<trkpt lat="51.743595" lon="-2.061683333"><ele>167.000000</ele><time>2010-07-21T09:50:41Z</time></trkpt>
	<trkpt lat="51.743595" lon="-2.06172"><ele>168.000000</ele><time>2010-07-21T09:50:46Z</time></trkpt>
	<trkpt lat="51.74358" lon="-2.061803333"><ele>169.000000</ele><time>2010-07-21T09:50:52Z</time></trkpt>
	<trkpt lat="51.74357833" lon="-2.061858333"><ele>169.000000</ele><time>2010-07-21T09:50:57Z</time></trkpt>
	<trkpt lat="51.74355833" lon="-2.061916667"><ele>170.000000</ele><time>2010-07-21T09:51:02Z</time></trkpt>
	<trkpt lat="51.74354167" lon="-2.062005"><ele>171.000000</ele><time>2010-07-21T09:51:07Z</time></trkpt>
	<trkpt lat="51.74351" lon="-2.06209"><ele>176.000000</ele><time>2010-07-21T09:51:12Z</time></trkpt>
	<trkpt lat="51.74349833" lon="-2.062191667"><ele>176.000000</ele><time>2010-07-21T09:51:18Z</time></trkpt>
	<trkpt lat="51.74346833" lon="-2.062248333"><ele>177.000000</ele><time>2010-07-21T09:51:23Z</time></trkpt>
	<trkpt lat="51.74345167" lon="-2.062328333"><ele>178.000000</ele><time>2010-07-21T09:51:28Z</time></trkpt>
	<trkpt lat="51.743475" lon="-2.062433333"><ele>174.000000</ele><time>2010-07-21T09:51:33Z</time></trkpt>
	<trkpt lat="51.74348167" lon="-2.06251"><ele>173.000000</ele><time>2010-07-21T09:51:38Z</time></trkpt>
	<trkpt lat="51.74348167" lon="-2.062603333"><ele>173.000000</ele><time>2010-07-21T09:51:44Z</time></trkpt>
	<trkpt lat="51.74347833" lon="-2.062696667"><ele>172.000000</ele><time>2010-07-21T09:51:49Z</time></trkpt>
	<trkpt lat="51.74346833" lon="-2.062813333"><ele>172.000000</ele><time>2010-07-21T09:51:55Z</time></trkpt>
	<trkpt lat="51.74347" lon="-2.062861667"><ele>174.000000</ele><time>2010-07-21T09:52:00Z</time></trkpt>
	<trkpt lat="51.74346667" lon="-2.062873333"><ele>174.000000</ele><time>2010-07-21T09:52:06Z</time></trkpt>
	<trkpt lat="51.743505" lon="-2.062888333"><ele>174.000000</ele><time>2010-07-21T09:52:12Z</time></trkpt>
	<trkpt lat="51.74353333" lon="-2.062898333"><ele>174.000000</ele><time>2010-07-21T09:52:17Z</time></trkpt>
	<trkpt lat="51.743545" lon="-2.062885"><ele>174.000000</ele><time>2010-07-21T09:52:22Z</time></trkpt>
	<trkpt lat="51.743545" lon="-2.062885"><ele>174.000000</ele><time>2010-07-21T09:52:27Z</time></trkpt>
	<trkpt lat="51.74354833" lon="-2.062883333"><ele>173.000000</ele><time>2010-07-21T09:52:32Z</time></trkpt>
	<trkpt lat="51.74355" lon="-2.062886667"><ele>174.000000</ele><time>2010-07-21T09:52:37Z</time></trkpt>
	<trkpt lat="51.74355667" lon="-2.062888333"><ele>174.000000</ele><time>2010-07-21T09:52:42Z</time></trkpt>
	<trkpt lat="51.74356" lon="-2.062871667"><ele>174.000000</ele><time>2010-07-21T09:52:48Z</time></trkpt>
	<trkpt lat="51.74357167" lon="-2.062873333"><ele>175.000000</ele><time>2010-07-21T09:52:53Z</time></trkpt>
	<trkpt lat="51.74358" lon="-2.062876667"><ele>176.000000</ele><time>2010-07-21T09:52:58Z</time></trkpt>
	<trkpt lat="51.74358833" lon="-2.062873333"><ele>177.000000</ele><time>2010-07-21T09:53:03Z</time></trkpt>
	<trkpt lat="51.74358833" lon="-2.062868333"><ele>174.000000</ele><time>2010-07-21T09:53:08Z</time></trkpt>
	<trkpt lat="51.74359167" lon="-2.062866667"><ele>176.000000</ele><time>2010-07-21T09:53:13Z</time></trkpt>
	<trkpt lat="51.7436" lon="-2.062866667"><ele>176.000000</ele><time>2010-07-21T09:53:18Z</time></trkpt>
	<trkpt lat="51.74359833" lon="-2.062863333"><ele>176.000000</ele><time>2010-07-21T09:53:23Z</time></trkpt>
	<trkpt lat="51.74359167" lon="-2.062861667"><ele>171.000000</ele><time>2010-07-21T09:53:28Z</time></trkpt>
	<trkpt lat="51.74358" lon="-2.062861667"><ele>167.000000</ele><time>2010-07-21T09:53:33Z</time></trkpt>
	<trkpt lat="51.74357333" lon="-2.062863333"><ele>164.000000</ele><time>2010-07-21T09:53:38Z</time></trkpt>
	<trkpt lat="51.74357" lon="-2.062875"><ele>166.000000</ele><time>2010-07-21T09:53:43Z</time></trkpt>
	<trkpt lat="51.74357333" lon="-2.062876667"><ele>168.000000</ele><time>2010-07-21T09:53:48Z</time></trkpt>
	<trkpt lat="51.743575" lon="-2.062876667"><ele>169.000000</ele><time>2010-07-21T09:53:53Z</time></trkpt>
	<trkpt lat="51.743575" lon="-2.062876667"><ele>170.000000</ele><time>2010-07-21T09:53:58Z</time></trkpt>
	<trkpt lat="51.743575" lon="-2.062876667"><ele>171.000000</ele><time>2010-07-21T09:54:04Z</time></trkpt>
	<trkpt lat="51.743575" lon="-2.062876667"><ele>172.000000</ele><time>2010-07-21T09:54:09Z</time></trkpt>
	<trkpt lat="51.74356833" lon="-2.062883333"><ele>173.000000</ele><time>2010-07-21T09:54:15Z</time></trkpt>
	<trkpt lat="51.74356333" lon="-2.062885"><ele>173.000000</ele><time>2010-07-21T09:54:20Z</time></trkpt>
	<trkpt lat="51.74356" lon="-2.062885"><ele>174.000000</ele><time>2010-07-21T09:54:25Z</time></trkpt>
	<trkpt lat="51.74355833" lon="-2.062885"><ele>174.000000</ele><time>2010-07-21T09:54:31Z</time></trkpt>
	<trkpt lat="51.74356" lon="-2.062883333"><ele>175.000000</ele><time>2010-07-21T09:54:37Z</time></trkpt>
	<trkpt lat="51.74356" lon="-2.062883333"><ele>175.000000</ele><time>2010-07-21T09:54:42Z</time></trkpt>
	<trkpt lat="51.74356167" lon="-2.06289"><ele>175.000000</ele><time>2010-07-21T09:54:47Z</time></trkpt>
	<trkpt lat="51.74356167" lon="-2.062886667"><ele>175.000000</ele><time>2010-07-21T09:54:52Z</time></trkpt>
	<trkpt lat="51.74355667" lon="-2.062885"><ele>174.000000</ele><time>2010-07-21T09:54:57Z</time></trkpt>
	<trkpt lat="51.74355" lon="-2.062885"><ele>174.000000</ele><time>2010-07-21T09:55:02Z</time></trkpt>
	<trkpt lat="51.743545" lon="-2.062885"><ele>173.000000</ele><time>2010-07-21T09:55:08Z</time></trkpt>
	<trkpt lat="51.743525" lon="-2.06288"><ele>171.000000</ele><time>2010-07-21T09:55:13Z</time></trkpt>
	<trkpt lat="51.74353" lon="-2.06288"><ele>173.000000</ele><time>2010-07-21T09:55:18Z</time></trkpt>
	<trkpt lat="51.74353833" lon="-2.06288"><ele>173.000000</ele><time>2010-07-21T09:55:24Z</time></trkpt>
	<trkpt lat="51.74354333" lon="-2.062876667"><ele>174.000000</ele><time>2010-07-21T09:55:30Z</time></trkpt>
	<trkpt lat="51.743545" lon="-2.062876667"><ele>174.000000</ele><time>2010-07-21T09:55:35Z</time></trkpt>
	<trkpt lat="51.74354833" lon="-2.062875"><ele>175.000000</ele><time>2010-07-21T09:55:40Z</time></trkpt>
	<trkpt lat="51.74355" lon="-2.062873333"><ele>176.000000</ele><time>2010-07-21T09:55:45Z</time></trkpt>
	<trkpt lat="51.74355" lon="-2.062871667"><ele>176.000000</ele><time>2010-07-21T09:55:50Z</time></trkpt>
	<trkpt lat="51.74354833" lon="-2.06287"><ele>176.000000</ele><time>2010-07-21T09:55:55Z</time></trkpt>
	<trkpt lat="51.74354833" lon="-2.062868333"><ele>177.000000</ele><time>2010-07-21T09:56:00Z</time></trkpt>
	<trkpt lat="51.74354833" lon="-2.062868333"><ele>177.000000</ele><time>2010-07-21T09:56:05Z</time></trkpt>
	<trkpt lat="51.74354833" lon="-2.062866667"><ele>177.000000</ele><time>2010-07-21T09:56:10Z</time></trkpt>
	<trkpt lat="51.74354833" lon="-2.062866667"><ele>177.000000</ele><time>2010-07-21T09:56:15Z</time></trkpt>
	<trkpt lat="51.74354833" lon="-2.062866667"><ele>177.000000</ele><time>2010-07-21T09:56:20Z</time></trkpt>
	<trkpt lat="51.74355" lon="-2.062868333"><ele>177.000000</ele><time>2010-07-21T09:56:25Z</time></trkpt>
	<trkpt lat="51.74355" lon="-2.062866667"><ele>177.000000</ele><time>2010-07-21T09:56:30Z</time></trkpt>
	<trkpt lat="51.74355" lon="-2.062868333"><ele>177.000000</ele><time>2010-07-21T09:56:35Z</time></trkpt>
	<trkpt lat="51.74355" lon="-2.06287"><ele>176.000000</ele><time>2010-07-21T09:56:40Z</time></trkpt>
	<trkpt lat="51.74355" lon="-2.062868333"><ele>176.000000</ele><time>2010-07-21T09:56:45Z</time></trkpt>
	<trkpt lat="51.74354833" lon="-2.062868333"><ele>176.000000</ele><time>2010-07-21T09:56:51Z</time></trkpt>
	<trkpt lat="51.74355" lon="-2.062868333"><ele>178.000000</ele><time>2010-07-21T09:56:57Z</time></trkpt>
	<trkpt lat="51.74355" lon="-2.062866667"><ele>178.000000</ele><time>2010-07-21T09:57:02Z</time></trkpt>
	<trkpt lat="51.74355" lon="-2.062866667"><ele>179.000000</ele><time>2010-07-21T09:57:07Z</time></trkpt>
	<trkpt lat="51.74355" lon="-2.062863333"><ele>180.000000</ele><time>2010-07-21T09:57:13Z</time></trkpt>
	<trkpt lat="51.74354833" lon="-2.062863333"><ele>181.000000</ele><time>2010-07-21T09:57:18Z</time></trkpt>
	<trkpt lat="51.74354667" lon="-2.062863333"><ele>179.000000</ele><time>2010-07-21T09:57:24Z</time></trkpt>
	<trkpt lat="51.74354667" lon="-2.062863333"><ele>179.000000</ele><time>2010-07-21T09:57:29Z</time></trkpt>
	<trkpt lat="51.74354667" lon="-2.062863333"><ele>178.000000</ele><time>2010-07-21T09:57:34Z</time></trkpt>
	<trkpt lat="51.74354667" lon="-2.062863333"><ele>178.000000</ele><time>2010-07-21T09:57:39Z</time></trkpt>
	<trkpt lat="51.74354667" lon="-2.062863333"><ele>177.000000</ele><time>2010-07-21T09:57:44Z</time></trkpt>
	<trkpt lat="51.74354667" lon="-2.062863333"><ele>177.000000</ele><time>2010-07-21T09:57:49Z</time></trkpt>
	<trkpt lat="51.743545" lon="-2.062861667"><ele>177.000000</ele><time>2010-07-21T09:57:54Z</time></trkpt>
	<trkpt lat="51.743545" lon="-2.062861667"><ele>177.000000</ele><time>2010-07-21T09:57:59Z</time></trkpt>
	<trkpt lat="51.743545" lon="-2.06286"><ele>177.000000</ele><time>2010-07-21T09:58:04Z</time></trkpt>
	<trkpt lat="51.743545" lon="-2.06286"><ele>177.000000</ele><time>2010-07-21T09:58:09Z</time></trkpt>
	<trkpt lat="51.743545" lon="-2.062858333"><ele>177.000000</ele><time>2010-07-21T09:58:15Z</time></trkpt>
	<trkpt lat="51.74354667" lon="-2.062858333"><ele>175.000000</ele><time>2010-07-21T09:58:20Z</time></trkpt>
	<trkpt lat="51.74354167" lon="-2.062863333"><ele>177.000000</ele><time>2010-07-21T09:58:25Z</time></trkpt>
	<trkpt lat="51.743535" lon="-2.062873333"><ele>179.000000</ele><time>2010-07-21T09:58:30Z</time></trkpt>
	<trkpt lat="51.743535" lon="-2.062876667"><ele>181.000000</ele><time>2010-07-21T09:58:35Z</time></trkpt>
	<trkpt lat="51.74354167" lon="-2.06287"><ele>182.000000</ele><time>2010-07-21T09:58:40Z</time></trkpt>
	<trkpt lat="51.743535" lon="-2.062863333"><ele>181.000000</ele><time>2010-07-21T09:58:45Z</time></trkpt>
	<trkpt lat="51.74356167" lon="-2.062863333"><ele>184.000000</ele><time>2010-07-21T09:58:51Z</time></trkpt>
	<trkpt lat="51.743565" lon="-2.062851667"><ele>183.000000</ele><time>2010-07-21T09:58:56Z</time></trkpt>
	<trkpt lat="51.74355667" lon="-2.062826667"><ele>177.000000</ele><time>2010-07-21T09:59:01Z</time></trkpt>
	<trkpt lat="51.743545" lon="-2.062831667"><ele>175.000000</ele><time>2010-07-21T09:59:06Z</time></trkpt>
	<trkpt lat="51.74354667" lon="-2.062836667"><ele>176.000000</ele><time>2010-07-21T09:59:11Z</time></trkpt>
	<trkpt lat="51.74354833" lon="-2.062843333"><ele>177.000000</ele><time>2010-07-21T09:59:16Z</time></trkpt>
	<trkpt lat="51.743535" lon="-2.062848333"><ele>176.000000</ele><time>2010-07-21T09:59:22Z</time></trkpt>
	<trkpt lat="51.74352667" lon="-2.062856667"><ele>176.000000</ele><time>2010-07-21T09:59:27Z</time></trkpt>
	<trkpt lat="51.74352833" lon="-2.062856667"><ele>176.000000</ele><time>2010-07-21T09:59:33Z</time></trkpt>
	<trkpt lat="51.74352" lon="-2.062875"><ele>178.000000</ele><time>2010-07-21T09:59:38Z</time></trkpt>
	<trkpt lat="51.74352" lon="-2.062903333"><ele>183.000000</ele><time>2010-07-21T09:59:43Z</time></trkpt>
	<trkpt lat="51.74352833" lon="-2.062918333"><ele>186.000000</ele><time>2010-07-21T09:59:49Z</time></trkpt>
	<trkpt lat="51.74353167" lon="-2.062923333"><ele>187.000000</ele><time>2010-07-21T09:59:54Z</time></trkpt>
	<trkpt lat="51.74349833" lon="-2.062905"><ele>180.000000</ele><time>2010-07-21T10:00:00Z</time></trkpt>
	<trkpt lat="51.743505" lon="-2.06289"><ele>179.000000</ele><time>2010-07-21T10:00:05Z</time></trkpt>
	<trkpt lat="51.743515" lon="-2.062875"><ele>176.000000</ele><time>2010-07-21T10:00:10Z</time></trkpt>
	<trkpt lat="51.74352667" lon="-2.062875"><ele>178.000000</ele><time>2010-07-21T10:00:15Z</time></trkpt>
	<trkpt lat="51.743535" lon="-2.062876667"><ele>179.000000</ele><time>2010-07-21T10:00:20Z</time></trkpt>
	<trkpt lat="51.743545" lon="-2.06288"><ele>180.000000</ele><time>2010-07-21T10:00:26Z</time></trkpt>
	<trkpt lat="51.743545" lon="-2.06288"><ele>180.000000</ele><time>2010-07-21T10:00:31Z</time></trkpt>
	<trkpt lat="51.74353833" lon="-2.062891667"><ele>181.000000</ele><time>2010-07-21T10:00:36Z</time></trkpt>
	<trkpt lat="51.74356167" lon="-2.062898333"><ele>185.000000</ele><time>2010-07-21T10:00:41Z</time></trkpt>
	<trkpt lat="51.74357667" lon="-2.062898333"><ele>187.000000</ele><time>2010-07-21T10:00:46Z</time></trkpt>
	<trkpt lat="51.74357833" lon="-2.0629"><ele>187.000000</ele><time>2010-07-21T10:00:51Z</time></trkpt>
	<trkpt lat="51.74358833" lon="-2.062896667"><ele>188.000000</ele><time>2010-07-21T10:00:56Z</time></trkpt>
	<trkpt lat="51.743585" lon="-2.06289"><ele>187.000000</ele><time>2010-07-21T10:01:01Z</time></trkpt>
	<trkpt lat="51.74357667" lon="-2.062891667"><ele>186.000000</ele><time>2010-07-21T10:01:06Z</time></trkpt>
	<trkpt lat="51.74357667" lon="-2.062903333"><ele>188.000000</ele><time>2010-07-21T10:01:11Z</time></trkpt>
	<trkpt lat="51.74357667" lon="-2.062918333"><ele>191.000000</ele><time>2010-07-21T10:01:16Z</time></trkpt>
	<trkpt lat="51.74358" lon="-2.062918333"><ele>192.000000</ele><time>2010-07-21T10:01:22Z</time></trkpt>
	<trkpt lat="51.74358333" lon="-2.062908333"><ele>190.000000</ele><time>2010-07-21T10:01:27Z</time></trkpt>
	<trkpt lat="51.74358333" lon="-2.062901667"><ele>188.000000</ele><time>2010-07-21T10:01:32Z</time></trkpt>
	<trkpt lat="51.74358333" lon="-2.062895"><ele>186.000000</ele><time>2010-07-21T10:01:38Z</time></trkpt>
	<trkpt lat="51.74358" lon="-2.062891667"><ele>185.000000</ele><time>2010-07-21T10:01:43Z</time></trkpt>
	<trkpt lat="51.74358" lon="-2.062888333"><ele>184.000000</ele><time>2010-07-21T10:01:49Z</time></trkpt>
	<trkpt lat="51.74357667" lon="-2.062885"><ele>184.000000</ele><time>2010-07-21T10:01:55Z</time></trkpt>
	<trkpt lat="51.743575" lon="-2.062883333"><ele>183.000000</ele><time>2010-07-21T10:02:00Z</time></trkpt>
	<trkpt lat="51.74357333" lon="-2.062881667"><ele>183.000000</ele><time>2010-07-21T10:02:05Z</time></trkpt>
	<trkpt lat="51.74357" lon="-2.062883333"><ele>182.000000</ele><time>2010-07-21T10:02:10Z</time></trkpt>
	<trkpt lat="51.74357833" lon="-2.062886667"><ele>184.000000</ele><time>2010-07-21T10:02:15Z</time></trkpt>
	<trkpt lat="51.74358833" lon="-2.062891667"><ele>185.000000</ele><time>2010-07-21T10:02:21Z</time></trkpt>
	<trkpt lat="51.74359167" lon="-2.062896667"><ele>186.000000</ele><time>2010-07-21T10:02:26Z</time></trkpt>
	<trkpt lat="51.74359333" lon="-2.062898333"><ele>186.000000</ele><time>2010-07-21T10:02:31Z</time></trkpt>
	<trkpt lat="51.743595" lon="-2.0629"><ele>187.000000</ele><time>2010-07-21T10:02:36Z</time></trkpt>
	<trkpt lat="51.743595" lon="-2.062903333"><ele>187.000000</ele><time>2010-07-21T10:02:41Z</time></trkpt>
	<trkpt lat="51.743595" lon="-2.062905"><ele>188.000000</ele><time>2010-07-21T10:02:46Z</time></trkpt>
	<trkpt lat="51.74359333" lon="-2.062906667"><ele>188.000000</ele><time>2010-07-21T10:02:51Z</time></trkpt>
	<trkpt lat="51.7436" lon="-2.062908333"><ele>188.000000</ele><time>2010-07-21T10:02:56Z</time></trkpt>
	<trkpt lat="51.743595" lon="-2.062908333"><ele>188.000000</ele><time>2010-07-21T10:03:01Z</time></trkpt>
	<trkpt lat="51.743595" lon="-2.062906667"><ele>188.000000</ele><time>2010-07-21T10:03:06Z</time></trkpt>
	<trkpt lat="51.74359167" lon="-2.062908333"><ele>187.000000</ele><time>2010-07-21T10:03:11Z</time></trkpt>
	<trkpt lat="51.74359" lon="-2.06291"><ele>187.000000</ele><time>2010-07-21T10:03:16Z</time></trkpt>
	<trkpt lat="51.74358833" lon="-2.062911667"><ele>188.000000</ele><time>2010-07-21T10:03:21Z</time></trkpt>
	<trkpt lat="51.74358833" lon="-2.06291"><ele>188.000000</ele><time>2010-07-21T10:03:26Z</time></trkpt>
	<trkpt lat="51.74358833" lon="-2.06291"><ele>188.000000</ele><time>2010-07-21T10:03:31Z</time></trkpt>
	<trkpt lat="51.74358833" lon="-2.06291"><ele>188.000000</ele><time>2010-07-21T10:03:37Z</time></trkpt>
	<trkpt lat="51.74358833" lon="-2.062908333"><ele>188.000000</ele><time>2010-07-21T10:03:42Z</time></trkpt>
	<trkpt lat="51.74359" lon="-2.062906667"><ele>189.000000</ele><time>2010-07-21T10:03:47Z</time></trkpt>
	<trkpt lat="51.74358833" lon="-2.062906667"><ele>189.000000</ele><time>2010-07-21T10:03:52Z</time></trkpt>
	<trkpt lat="51.74361333" lon="-2.062918333"><ele>193.000000</ele><time>2010-07-21T10:03:57Z</time></trkpt>
	<trkpt lat="51.74362" lon="-2.06292"><ele>195.000000</ele><time>2010-07-21T10:04:02Z</time></trkpt>
	<trkpt lat="51.74361667" lon="-2.062923333"><ele>195.000000</ele><time>2010-07-21T10:04:07Z</time></trkpt>
	<trkpt lat="51.74360333" lon="-2.062928333"><ele>194.000000</ele><time>2010-07-21T10:04:12Z</time></trkpt>
	<trkpt lat="51.74360167" lon="-2.062931667"><ele>194.000000</ele><time>2010-07-21T10:04:17Z</time></trkpt>
	<trkpt lat="51.74360667" lon="-2.062936667"><ele>195.000000</ele><time>2010-07-21T10:04:23Z</time></trkpt>
	<trkpt lat="51.74361" lon="-2.062941667"><ele>197.000000</ele><time>2010-07-21T10:04:28Z</time></trkpt>
	<trkpt lat="51.743615" lon="-2.062943333"><ele>198.000000</ele><time>2010-07-21T10:04:33Z</time></trkpt>
	<trkpt lat="51.74364667" lon="-2.062941667"><ele>202.000000</ele><time>2010-07-21T10:04:38Z</time></trkpt>
	<trkpt lat="51.74364667" lon="-2.062926667"><ele>199.000000</ele><time>2010-07-21T10:04:43Z</time></trkpt>
	<trkpt lat="51.74362833" lon="-2.062908333"><ele>195.000000</ele><time>2010-07-21T10:04:48Z</time></trkpt>
	<trkpt lat="51.743625" lon="-2.0629"><ele>193.000000</ele><time>2010-07-21T10:04:53Z</time></trkpt>
	<trkpt lat="51.74359167" lon="-2.062903333"><ele>189.000000</ele><time>2010-07-21T10:04:58Z</time></trkpt>
	<trkpt lat="51.74357" lon="-2.06291"><ele>186.000000</ele><time>2010-07-21T10:05:04Z</time></trkpt>
	<trkpt lat="51.74357167" lon="-2.062903333"><ele>185.000000</ele><time>2010-07-21T10:05:09Z</time></trkpt>
	<trkpt lat="51.743565" lon="-2.062913333"><ele>186.000000</ele><time>2010-07-21T10:05:15Z</time></trkpt>
	<trkpt lat="51.74357333" lon="-2.0629"><ele>184.000000</ele><time>2010-07-21T10:05:20Z</time></trkpt>
	<trkpt lat="51.74357833" lon="-2.06288"><ele>183.000000</ele><time>2010-07-21T10:05:25Z</time></trkpt>
	<trkpt lat="51.74359" lon="-2.062861667"><ele>183.000000</ele><time>2010-07-21T10:05:30Z</time></trkpt>
	<trkpt lat="51.74357833" lon="-2.062841667"><ele>181.000000</ele><time>2010-07-21T10:05:35Z</time></trkpt>
	<trkpt lat="51.74358833" lon="-2.062826667"><ele>180.000000</ele><time>2010-07-21T10:05:41Z</time></trkpt>
	<trkpt lat="51.74358" lon="-2.062816667"><ele>178.000000</ele><time>2010-07-21T10:05:46Z</time></trkpt>
	<trkpt lat="51.743575" lon="-2.062836667"><ele>180.000000</ele><time>2010-07-21T10:05:51Z</time></trkpt>
	<trkpt lat="51.74356167" lon="-2.062861667"><ele>181.000000</ele><time>2010-07-21T10:05:56Z</time></trkpt>
	<trkpt lat="51.74354833" lon="-2.062873333"><ele>181.000000</ele><time>2010-07-21T10:06:02Z</time></trkpt>
	<trkpt lat="51.74354333" lon="-2.06288"><ele>183.000000</ele><time>2010-07-21T10:06:07Z</time></trkpt>
	<trkpt lat="51.74354333" lon="-2.062883333"><ele>183.000000</ele><time>2010-07-21T10:06:12Z</time></trkpt>
	<trkpt lat="51.74355" lon="-2.062883333"><ele>183.000000</ele><time>2010-07-21T10:06:17Z</time></trkpt>
	<trkpt lat="51.74355333" lon="-2.062885"><ele>183.000000</ele><time>2010-07-21T10:06:23Z</time></trkpt>
	<trkpt lat="51.74355" lon="-2.062886667"><ele>183.000000</ele><time>2010-07-21T10:06:28Z</time></trkpt>
	<trkpt lat="51.743545" lon="-2.0629"><ele>183.000000</ele><time>2010-07-21T10:06:33Z</time></trkpt>
	<trkpt lat="51.74355667" lon="-2.062913333"><ele>186.000000</ele><time>2010-07-21T10:06:38Z</time></trkpt>
	<trkpt lat="51.74357167" lon="-2.062918333"><ele>188.000000</ele><time>2010-07-21T10:06:43Z</time></trkpt>
	<trkpt lat="51.74357167" lon="-2.062918333"><ele>189.000000</ele><time>2010-07-21T10:06:48Z</time></trkpt>
	<trkpt lat="51.74357" lon="-2.062915"><ele>188.000000</ele><time>2010-07-21T10:06:53Z</time></trkpt>
	<trkpt lat="51.74357" lon="-2.062911667"><ele>187.000000</ele><time>2010-07-21T10:06:58Z</time></trkpt>
	<trkpt lat="51.74356833" lon="-2.062906667"><ele>186.000000</ele><time>2010-07-21T10:07:03Z</time></trkpt>
	<trkpt lat="51.743565" lon="-2.062903333"><ele>185.000000</ele><time>2010-07-21T10:07:08Z</time></trkpt>
	<trkpt lat="51.74357333" lon="-2.06289"><ele>186.000000</ele><time>2010-07-21T10:07:14Z</time></trkpt>
	<trkpt lat="51.74356333" lon="-2.062888333"><ele>184.000000</ele><time>2010-07-21T10:07:19Z</time></trkpt>
	<trkpt lat="51.74356167" lon="-2.062891667"><ele>184.000000</ele><time>2010-07-21T10:07:24Z</time></trkpt>
	<trkpt lat="51.74356833" lon="-2.062891667"><ele>184.000000</ele><time>2010-07-21T10:07:29Z</time></trkpt>
	<trkpt lat="51.743565" lon="-2.062891667"><ele>184.000000</ele><time>2010-07-21T10:07:34Z</time></trkpt>
	<trkpt lat="51.743565" lon="-2.062891667"><ele>185.000000</ele><time>2010-07-21T10:07:39Z</time></trkpt>
	<trkpt lat="51.743565" lon="-2.062891667"><ele>185.000000</ele><time>2010-07-21T10:07:44Z</time></trkpt>
	<trkpt lat="51.743565" lon="-2.062891667"><ele>184.000000</ele><time>2010-07-21T10:07:49Z</time></trkpt>
	<trkpt lat="51.743565" lon="-2.06289"><ele>184.000000</ele><time>2010-07-21T10:07:55Z</time></trkpt>
	<trkpt lat="51.74356167" lon="-2.062886667"><ele>183.000000</ele><time>2010-07-21T10:08:01Z</time></trkpt>
	<trkpt lat="51.74356167" lon="-2.062881667"><ele>183.000000</ele><time>2010-07-21T10:08:06Z</time></trkpt>
	<trkpt lat="51.74356333" lon="-2.06288"><ele>183.000000</ele><time>2010-07-21T10:08:11Z</time></trkpt>
	<trkpt lat="51.74356333" lon="-2.062876667"><ele>183.000000</ele><time>2010-07-21T10:08:16Z</time></trkpt>
	<trkpt lat="51.743565" lon="-2.062876667"><ele>182.000000</ele><time>2010-07-21T10:08:21Z</time></trkpt>
	<trkpt lat="51.74357833" lon="-2.062868333"><ele>183.000000</ele><time>2010-07-21T10:08:26Z</time></trkpt>
	<trkpt lat="51.74359333" lon="-2.062861667"><ele>184.000000</ele><time>2010-07-21T10:08:31Z</time></trkpt>
	<trkpt lat="51.74358833" lon="-2.062861667"><ele>183.000000</ele><time>2010-07-21T10:08:36Z</time></trkpt>
	<trkpt lat="51.74358" lon="-2.062861667"><ele>182.000000</ele><time>2010-07-21T10:08:41Z</time></trkpt>
	<trkpt lat="51.74357833" lon="-2.062863333"><ele>182.000000</ele><time>2010-07-21T10:08:46Z</time></trkpt>
	<trkpt lat="51.74358333" lon="-2.062863333"><ele>181.000000</ele><time>2010-07-21T10:08:51Z</time></trkpt>
	<trkpt lat="51.74359333" lon="-2.062858333"><ele>181.000000</ele><time>2010-07-21T10:08:56Z</time></trkpt>
	<trkpt lat="51.743605" lon="-2.062861667"><ele>178.000000</ele><time>2010-07-21T10:09:01Z</time></trkpt>
	<trkpt lat="51.74360833" lon="-2.062861667"><ele>177.000000</ele><time>2010-07-21T10:09:06Z</time></trkpt>
	<trkpt lat="51.74360833" lon="-2.062861667"><ele>176.000000</ele><time>2010-07-21T10:09:11Z</time></trkpt>
	<trkpt lat="51.74360833" lon="-2.062863333"><ele>176.000000</ele><time>2010-07-21T10:09:16Z</time></trkpt>
	<trkpt lat="51.74360667" lon="-2.062866667"><ele>175.000000</ele><time>2010-07-21T10:09:21Z</time></trkpt>
	<trkpt lat="51.74359333" lon="-2.062868333"><ele>176.000000</ele><time>2010-07-21T10:09:26Z</time></trkpt>
	<trkpt lat="51.74359" lon="-2.062868333"><ele>175.000000</ele><time>2010-07-21T10:09:31Z</time></trkpt>
	<trkpt lat="51.743585" lon="-2.062868333"><ele>176.000000</ele><time>2010-07-21T10:09:36Z</time></trkpt>
	<trkpt lat="51.74358" lon="-2.06287"><ele>176.000000</ele><time>2010-07-21T10:09:41Z</time></trkpt>
	<trkpt lat="51.743575" lon="-2.06287"><ele>176.000000</ele><time>2010-07-21T10:09:46Z</time></trkpt>
	<trkpt lat="51.74357" lon="-2.062875"><ele>175.000000</ele><time>2010-07-21T10:09:51Z</time></trkpt>
	<trkpt lat="51.74355833" lon="-2.062885"><ele>175.000000</ele><time>2010-07-21T10:09:56Z</time></trkpt>
	<trkpt lat="51.74356167" lon="-2.062895"><ele>174.000000</ele><time>2010-07-21T10:10:01Z</time></trkpt>
	<trkpt lat="51.74355833" lon="-2.0629"><ele>174.000000</ele><time>2010-07-21T10:10:06Z</time></trkpt>
	<trkpt lat="51.74355667" lon="-2.0629"><ele>174.000000</ele><time>2010-07-21T10:10:11Z</time></trkpt>
	<trkpt lat="51.74355667" lon="-2.0629"><ele>173.000000</ele><time>2010-07-21T10:10:16Z</time></trkpt>
	<trkpt lat="51.74354833" lon="-2.062891667"><ele>175.000000</ele><time>2010-07-21T10:10:21Z</time></trkpt>
	<trkpt lat="51.743495" lon="-2.062973333"><ele>175.000000</ele><time>2010-07-21T10:10:27Z</time></trkpt>
	<trkpt lat="51.74346667" lon="-2.063045"><ele>174.000000</ele><time>2010-07-21T10:10:32Z</time></trkpt>
	<trkpt lat="51.74343333" lon="-2.063113333"><ele>175.000000</ele><time>2010-07-21T10:10:37Z</time></trkpt>
	<trkpt lat="51.743415" lon="-2.063181667"><ele>175.000000</ele><time>2010-07-21T10:10:42Z</time></trkpt>
	<trkpt lat="51.74339667" lon="-2.063253333"><ele>176.000000</ele><time>2010-07-21T10:10:47Z</time></trkpt>
	<trkpt lat="51.74339" lon="-2.06336"><ele>174.000000</ele><time>2010-07-21T10:10:52Z</time></trkpt>
	<trkpt lat="51.74338" lon="-2.063403333"><ele>174.000000</ele><time>2010-07-21T10:10:57Z</time></trkpt>
	<trkpt lat="51.743385" lon="-2.063433333"><ele>172.000000</ele><time>2010-07-21T10:11:02Z</time></trkpt>
	<trkpt lat="51.74338" lon="-2.063451667"><ele>173.000000</ele><time>2010-07-21T10:11:07Z</time></trkpt>
	<trkpt lat="51.74340667" lon="-2.063553333"><ele>174.000000</ele><time>2010-07-21T10:11:12Z</time></trkpt>
	<trkpt lat="51.743405" lon="-2.063661667"><ele>174.000000</ele><time>2010-07-21T10:11:17Z</time></trkpt>
	<trkpt lat="51.74340333" lon="-2.063781667"><ele>174.000000</ele><time>2010-07-21T10:11:22Z</time></trkpt>
	<trkpt lat="51.74338167" lon="-2.063875"><ele>177.000000</ele><time>2010-07-21T10:11:27Z</time></trkpt>
	<trkpt lat="51.743385" lon="-2.064013333"><ele>175.000000</ele><time>2010-07-21T10:11:32Z</time></trkpt>
	<trkpt lat="51.743365" lon="-2.064143333"><ele>174.000000</ele><time>2010-07-21T10:11:37Z</time></trkpt>
	<trkpt lat="51.743365" lon="-2.064283333"><ele>173.000000</ele><time>2010-07-21T10:11:42Z</time></trkpt>
	<trkpt lat="51.74335167" lon="-2.064416667"><ele>172.000000</ele><time>2010-07-21T10:11:47Z</time></trkpt>
	<trkpt lat="51.74333167" lon="-2.064546667"><ele>172.000000</ele><time>2010-07-21T10:11:52Z</time></trkpt>
	<trkpt lat="51.74330833" lon="-2.064671667"><ele>171.000000</ele><time>2010-07-21T10:11:57Z</time></trkpt>
	<trkpt lat="51.74327333" lon="-2.064775"><ele>172.000000</ele><time>2010-07-21T10:12:02Z</time></trkpt>
	<trkpt lat="51.743235" lon="-2.064865"><ele>172.000000</ele><time>2010-07-21T10:12:07Z</time></trkpt>
	<trkpt lat="51.743205" lon="-2.064978333"><ele>171.000000</ele><time>2010-07-21T10:12:12Z</time></trkpt>
	<trkpt lat="51.74318333" lon="-2.0651"><ele>170.000000</ele><time>2010-07-21T10:12:17Z</time></trkpt>
	<trkpt lat="51.74315167" lon="-2.06521"><ele>169.000000</ele><time>2010-07-21T10:12:22Z</time></trkpt>
	<trkpt lat="51.74311" lon="-2.065311667"><ele>169.000000</ele><time>2010-07-21T10:12:27Z</time></trkpt>
	<trkpt lat="51.743065" lon="-2.065408333"><ele>170.000000</ele><time>2010-07-21T10:12:32Z</time></trkpt>
	<trkpt lat="51.74302833" lon="-2.065523333"><ele>170.000000</ele><time>2010-07-21T10:12:37Z</time></trkpt>
	<trkpt lat="51.74299333" lon="-2.065635"><ele>169.000000</ele><time>2010-07-21T10:12:42Z</time></trkpt>
	<trkpt lat="51.74293833" lon="-2.065745"><ele>171.000000</ele><time>2010-07-21T10:12:48Z</time></trkpt>
	<trkpt lat="51.742895" lon="-2.065833333"><ele>172.000000</ele><time>2010-07-21T10:12:53Z</time></trkpt>
	<trkpt lat="51.74285333" lon="-2.065906667"><ele>173.000000</ele><time>2010-07-21T10:12:58Z</time></trkpt>
	<trkpt lat="51.742835" lon="-2.066021667"><ele>170.000000</ele><time>2010-07-21T10:13:03Z</time></trkpt>
	<trkpt lat="51.74280333" lon="-2.066088333"><ele>169.000000</ele><time>2010-07-21T10:13:08Z</time></trkpt>
	<trkpt lat="51.74280667" lon="-2.066108333"><ele>169.000000</ele><time>2010-07-21T10:13:13Z</time></trkpt>
	<trkpt lat="51.74278167" lon="-2.066183333"><ele>169.000000</ele><time>2010-07-21T10:13:18Z</time></trkpt>
	<trkpt lat="51.74276167" lon="-2.066258333"><ele>168.000000</ele><time>2010-07-21T10:13:23Z</time></trkpt>
	<trkpt lat="51.74273667" lon="-2.066336667"><ele>167.000000</ele><time>2010-07-21T10:13:28Z</time></trkpt>
	<trkpt lat="51.74270333" lon="-2.066401667"><ele>167.000000</ele><time>2010-07-21T10:13:33Z</time></trkpt>
	<trkpt lat="51.74267667" lon="-2.066473333"><ele>167.000000</ele><time>2010-07-21T10:13:38Z</time></trkpt>
	<trkpt lat="51.742655" lon="-2.066561667"><ele>167.000000</ele><time>2010-07-21T10:13:43Z</time></trkpt>
	<trkpt lat="51.74264333" lon="-2.066653333"><ele>167.000000</ele><time>2010-07-21T10:13:48Z</time></trkpt>
	<trkpt lat="51.74264667" lon="-2.066735"><ele>166.000000</ele><time>2010-07-21T10:13:53Z</time></trkpt>
	<trkpt lat="51.74266667" lon="-2.066841667"><ele>164.000000</ele><time>2010-07-21T10:13:58Z</time></trkpt>
	<trkpt lat="51.74268" lon="-2.066941667"><ele>163.000000</ele><time>2010-07-21T10:14:03Z</time></trkpt>
	<trkpt lat="51.74269333" lon="-2.067026667"><ele>162.000000</ele><time>2010-07-21T10:14:08Z</time></trkpt>
	<trkpt lat="51.74270833" lon="-2.067108333"><ele>161.000000</ele><time>2010-07-21T10:14:13Z</time></trkpt>
	<trkpt lat="51.74271833" lon="-2.067183333"><ele>160.000000</ele><time>2010-07-21T10:14:18Z</time></trkpt>
	<trkpt lat="51.74271833" lon="-2.067246667"><ele>160.000000</ele><time>2010-07-21T10:14:23Z</time></trkpt>
	<trkpt lat="51.74273" lon="-2.067315"><ele>158.000000</ele><time>2010-07-21T10:14:28Z</time></trkpt>
	<trkpt lat="51.742745" lon="-2.067391667"><ele>157.000000</ele><time>2010-07-21T10:14:33Z</time></trkpt>
	<trkpt lat="51.74275833" lon="-2.067471667"><ele>155.000000</ele><time>2010-07-21T10:14:38Z</time></trkpt>
	<trkpt lat="51.74274833" lon="-2.067551667"><ele>156.000000</ele><time>2010-07-21T10:14:43Z</time></trkpt>
	<trkpt lat="51.74274833" lon="-2.067621667"><ele>155.000000</ele><time>2010-07-21T10:14:48Z</time></trkpt>
	<trkpt lat="51.74275333" lon="-2.067686667"><ele>155.000000</ele><time>2010-07-21T10:14:53Z</time></trkpt>
	<trkpt lat="51.74276667" lon="-2.067756667"><ele>153.000000</ele><time>2010-07-21T10:14:58Z</time></trkpt>
	<trkpt lat="51.742785" lon="-2.067836667"><ele>152.000000</ele><time>2010-07-21T10:15:03Z</time></trkpt>
	<trkpt lat="51.742785" lon="-2.0679"><ele>152.000000</ele><time>2010-07-21T10:15:08Z</time></trkpt>
	<trkpt lat="51.74278833" lon="-2.067956667"><ele>151.000000</ele><time>2010-07-21T10:15:13Z</time></trkpt>
	<trkpt lat="51.742775" lon="-2.068021667"><ele>153.000000</ele><time>2010-07-21T10:15:19Z</time></trkpt>
	<trkpt lat="51.74277" lon="-2.06808"><ele>153.000000</ele><time>2010-07-21T10:15:24Z</time></trkpt>
	<trkpt lat="51.74278167" lon="-2.068145"><ele>151.000000</ele><time>2010-07-21T10:15:29Z</time></trkpt>
	<trkpt lat="51.74277833" lon="-2.068221667"><ele>149.000000</ele><time>2010-07-21T10:15:35Z</time></trkpt>
	<trkpt lat="51.74278333" lon="-2.06829"><ele>146.000000</ele><time>2010-07-21T10:15:40Z</time></trkpt>
	<trkpt lat="51.742785" lon="-2.068361667"><ele>145.000000</ele><time>2010-07-21T10:15:45Z</time></trkpt>
	<trkpt lat="51.74277833" lon="-2.068423333"><ele>143.000000</ele><time>2010-07-21T10:15:50Z</time></trkpt>
	<trkpt lat="51.74277667" lon="-2.06849"><ele>143.000000</ele><time>2010-07-21T10:15:55Z</time></trkpt>
	<trkpt lat="51.742775" lon="-2.068556667"><ele>141.000000</ele><time>2010-07-21T10:16:00Z</time></trkpt>
	<trkpt lat="51.74276667" lon="-2.068623333"><ele>140.000000</ele><time>2010-07-21T10:16:05Z</time></trkpt>
	<trkpt lat="51.74276167" lon="-2.068685"><ele>139.000000</ele><time>2010-07-21T10:16:10Z</time></trkpt>
	<trkpt lat="51.74275667" lon="-2.068748333"><ele>138.000000</ele><time>2010-07-21T10:16:15Z</time></trkpt>
	<trkpt lat="51.74274833" lon="-2.068813333"><ele>138.000000</ele><time>2010-07-21T10:16:20Z</time></trkpt>
	<trkpt lat="51.74274833" lon="-2.06887"><ele>137.000000</ele><time>2010-07-21T10:16:25Z</time></trkpt>
	<trkpt lat="51.74274833" lon="-2.068898333"><ele>137.000000</ele><time>2010-07-21T10:16:30Z</time></trkpt>
	<trkpt lat="51.74274667" lon="-2.068933333"><ele>138.000000</ele><time>2010-07-21T10:16:35Z</time></trkpt>
	<trkpt lat="51.74274333" lon="-2.068955"><ele>139.000000</ele><time>2010-07-21T10:16:40Z</time></trkpt>
	<trkpt lat="51.742755" lon="-2.069001667"><ele>139.000000</ele><time>2010-07-21T10:16:45Z</time></trkpt>
	<trkpt lat="51.74276333" lon="-2.069051667"><ele>138.000000</ele><time>2010-07-21T10:16:50Z</time></trkpt>
	<trkpt lat="51.74277833" lon="-2.069105"><ele>138.000000</ele><time>2010-07-21T10:16:55Z</time></trkpt>
	<trkpt lat="51.74277833" lon="-2.069136667"><ele>138.000000</ele><time>2010-07-21T10:17:00Z</time></trkpt>
	<trkpt lat="51.742775" lon="-2.06914"><ele>141.000000</ele><time>2010-07-21T10:17:05Z</time></trkpt>
	<trkpt lat="51.74277" lon="-2.06916"><ele>141.000000</ele><time>2010-07-21T10:17:10Z</time></trkpt>
	<trkpt lat="51.74276833" lon="-2.069175"><ele>142.000000</ele><time>2010-07-21T10:17:16Z</time></trkpt>
	<trkpt lat="51.742755" lon="-2.069196667"><ele>141.000000</ele><time>2010-07-21T10:17:21Z</time></trkpt>
	<trkpt lat="51.742755" lon="-2.069241667"><ele>141.000000</ele><time>2010-07-21T10:17:26Z</time></trkpt>
	<trkpt lat="51.74277667" lon="-2.069283333"><ele>138.000000</ele><time>2010-07-21T10:17:31Z</time></trkpt>
	<trkpt lat="51.742785" lon="-2.069286667"><ele>136.000000</ele><time>2010-07-21T10:17:36Z</time></trkpt>
	<trkpt lat="51.74280333" lon="-2.06928"><ele>136.000000</ele><time>2010-07-21T10:17:41Z</time></trkpt>
	<trkpt lat="51.74281667" lon="-2.069265"><ele>137.000000</ele><time>2010-07-21T10:17:46Z</time></trkpt>
	<trkpt lat="51.74283167" lon="-2.069261667"><ele>136.000000</ele><time>2010-07-21T10:17:51Z</time></trkpt>
	<trkpt lat="51.74284167" lon="-2.069255"><ele>136.000000</ele><time>2010-07-21T10:17:56Z</time></trkpt>
	<trkpt lat="51.74285167" lon="-2.069255"><ele>137.000000</ele><time>2010-07-21T10:18:01Z</time></trkpt>
	<trkpt lat="51.74286333" lon="-2.069236667"><ele>136.000000</ele><time>2010-07-21T10:18:06Z</time></trkpt>
	<trkpt lat="51.74286833" lon="-2.069221667"><ele>137.000000</ele><time>2010-07-21T10:18:11Z</time></trkpt>
	<trkpt lat="51.742865" lon="-2.069213333"><ele>137.000000</ele><time>2010-07-21T10:18:16Z</time></trkpt>
	<trkpt lat="51.74286" lon="-2.069213333"><ele>138.000000</ele><time>2010-07-21T10:18:21Z</time></trkpt>
	<trkpt lat="51.74287167" lon="-2.069201667"><ele>140.000000</ele><time>2010-07-21T10:18:26Z</time></trkpt>
	<trkpt lat="51.74287833" lon="-2.069188333"><ele>141.000000</ele><time>2010-07-21T10:18:32Z</time></trkpt>
	<trkpt lat="51.74288" lon="-2.069186667"><ele>140.000000</ele><time>2010-07-21T10:18:37Z</time></trkpt>
	<trkpt lat="51.742875" lon="-2.069186667"><ele>139.000000</ele><time>2010-07-21T10:18:43Z</time></trkpt>
	<trkpt lat="51.742865" lon="-2.06918"><ele>142.000000</ele><time>2010-07-21T10:18:48Z</time></trkpt>
	<trkpt lat="51.74286833" lon="-2.069196667"><ele>142.000000</ele><time>2010-07-21T10:18:53Z</time></trkpt>
	<trkpt lat="51.74289667" lon="-2.06924"><ele>138.000000</ele><time>2010-07-21T10:18:58Z</time></trkpt>
	<trkpt lat="51.742935" lon="-2.069293333"><ele>134.000000</ele><time>2010-07-21T10:19:03Z</time></trkpt>
	<trkpt lat="51.74294833" lon="-2.069331667"><ele>133.000000</ele><time>2010-07-21T10:19:08Z</time></trkpt>
	<trkpt lat="51.74297" lon="-2.069355"><ele>134.000000</ele><time>2010-07-21T10:19:13Z</time></trkpt>
	<trkpt lat="51.74298667" lon="-2.069355"><ele>137.000000</ele><time>2010-07-21T10:19:18Z</time></trkpt>
	<trkpt lat="51.74300667" lon="-2.069363333"><ele>139.000000</ele><time>2010-07-21T10:19:23Z</time></trkpt>
	<trkpt lat="51.74301833" lon="-2.069381667"><ele>138.000000</ele><time>2010-07-21T10:19:28Z</time></trkpt>
	<trkpt lat="51.74300167" lon="-2.069381667"><ele>143.000000</ele><time>2010-07-21T10:19:33Z</time></trkpt>
	<trkpt lat="51.74301" lon="-2.069383333"><ele>145.000000</ele><time>2010-07-21T10:19:38Z</time></trkpt>
	<trkpt lat="51.74303333" lon="-2.069383333"><ele>144.000000</ele><time>2010-07-21T10:19:43Z</time></trkpt>
	<trkpt lat="51.74306333" lon="-2.069361667"><ele>141.000000</ele><time>2010-07-21T10:19:48Z</time></trkpt>
	<trkpt lat="51.74311167" lon="-2.069378333"><ele>136.000000</ele><time>2010-07-21T10:19:53Z</time></trkpt>
	<trkpt lat="51.743145" lon="-2.069388333"><ele>136.000000</ele><time>2010-07-21T10:19:58Z</time></trkpt>
	<trkpt lat="51.74315667" lon="-2.06938"><ele>139.000000</ele><time>2010-07-21T10:20:03Z</time></trkpt>
	<trkpt lat="51.74322333" lon="-2.069375"><ele>137.000000</ele><time>2010-07-21T10:20:08Z</time></trkpt>
	<trkpt lat="51.7433" lon="-2.069366667"><ele>135.000000</ele><time>2010-07-21T10:20:13Z</time></trkpt>
	<trkpt lat="51.74332167" lon="-2.069363333"><ele>137.000000</ele><time>2010-07-21T10:20:19Z</time></trkpt>
	<trkpt lat="51.74331" lon="-2.069366667"><ele>143.000000</ele><time>2010-07-21T10:20:24Z</time></trkpt>
	<trkpt lat="51.74331333" lon="-2.06935"><ele>151.000000</ele><time>2010-07-21T10:20:29Z</time></trkpt>
	<trkpt lat="51.743385" lon="-2.06942"><ele>150.000000</ele><time>2010-07-21T10:20:34Z</time></trkpt>
	<trkpt lat="51.74343333" lon="-2.06948"><ele>147.000000</ele><time>2010-07-21T10:20:39Z</time></trkpt>
	<trkpt lat="51.74348" lon="-2.06953"><ele>144.000000</ele><time>2010-07-21T10:20:44Z</time></trkpt>
	<trkpt lat="51.74353167" lon="-2.069591667"><ele>143.000000</ele><time>2010-07-21T10:20:49Z</time></trkpt>
	<trkpt lat="51.74358" lon="-2.069625"><ele>143.000000</ele><time>2010-07-21T10:20:54Z</time></trkpt>
	<trkpt lat="51.74364833" lon="-2.069678333"><ele>141.000000</ele><time>2010-07-21T10:21:00Z</time></trkpt>
	<trkpt lat="51.743715" lon="-2.069733333"><ele>139.000000</ele><time>2010-07-21T10:21:06Z</time></trkpt>
	<trkpt lat="51.74377833" lon="-2.069778333"><ele>136.000000</ele><time>2010-07-21T10:21:11Z</time></trkpt>
	<trkpt lat="51.74385" lon="-2.069811667"><ele>134.000000</ele><time>2010-07-21T10:21:17Z</time></trkpt>
	<trkpt lat="51.74389167" lon="-2.069806667"><ele>135.000000</ele><time>2010-07-21T10:21:22Z</time></trkpt>
	<trkpt lat="51.743925" lon="-2.069783333"><ele>137.000000</ele><time>2010-07-21T10:21:27Z</time></trkpt>
	<trkpt lat="51.743935" lon="-2.069751667"><ele>141.000000</ele><time>2010-07-21T10:21:32Z</time></trkpt>
	<trkpt lat="51.74393833" lon="-2.069798333"><ele>137.000000</ele><time>2010-07-21T10:21:37Z</time></trkpt>
	<trkpt lat="51.74397" lon="-2.069835"><ele>137.000000</ele><time>2010-07-21T10:21:42Z</time></trkpt>
	<trkpt lat="51.74401167" lon="-2.069883333"><ele>139.000000</ele><time>2010-07-21T10:21:47Z</time></trkpt>
	<trkpt lat="51.74405667" lon="-2.069901667"><ele>139.000000</ele><time>2010-07-21T10:21:52Z</time></trkpt>
	<trkpt lat="51.74409167" lon="-2.069858333"><ele>142.000000</ele><time>2010-07-21T10:21:57Z</time></trkpt>
	<trkpt lat="51.74413" lon="-2.069853333"><ele>143.000000</ele><time>2010-07-21T10:22:02Z</time></trkpt>
	<trkpt lat="51.74414667" lon="-2.069853333"><ele>143.000000</ele><time>2010-07-21T10:22:07Z</time></trkpt>
	<trkpt lat="51.74416" lon="-2.069865"><ele>145.000000</ele><time>2010-07-21T10:22:12Z</time></trkpt>
	<trkpt lat="51.74420167" lon="-2.069888333"><ele>146.000000</ele><time>2010-07-21T10:22:17Z</time></trkpt>
	<trkpt lat="51.74421" lon="-2.069905"><ele>146.000000</ele><time>2010-07-21T10:22:22Z</time></trkpt>
	<trkpt lat="51.74422833" lon="-2.069893333"><ele>148.000000</ele><time>2010-07-21T10:22:27Z</time></trkpt>
	<trkpt lat="51.74425167" lon="-2.069905"><ele>149.000000</ele><time>2010-07-21T10:22:32Z</time></trkpt>
	<trkpt lat="51.744275" lon="-2.069933333"><ele>148.000000</ele><time>2010-07-21T10:22:37Z</time></trkpt>
	<trkpt lat="51.74430333" lon="-2.069955"><ele>148.000000</ele><time>2010-07-21T10:22:42Z</time></trkpt>
	<trkpt lat="51.74432833" lon="-2.069973333"><ele>148.000000</ele><time>2010-07-21T10:22:47Z</time></trkpt>
	<trkpt lat="51.74436167" lon="-2.069996667"><ele>147.000000</ele><time>2010-07-21T10:22:52Z</time></trkpt>
	<trkpt lat="51.74439667" lon="-2.07002"><ele>146.000000</ele><time>2010-07-21T10:22:57Z</time></trkpt>
	<trkpt lat="51.74442667" lon="-2.07004"><ele>145.000000</ele><time>2010-07-21T10:23:02Z</time></trkpt>
	<trkpt lat="51.74445333" lon="-2.070058333"><ele>146.000000</ele><time>2010-07-21T10:23:07Z</time></trkpt>
	<trkpt lat="51.74447833" lon="-2.070073333"><ele>146.000000</ele><time>2010-07-21T10:23:12Z</time></trkpt>
	<trkpt lat="51.744495" lon="-2.070075"><ele>147.000000</ele><time>2010-07-21T10:23:17Z</time></trkpt>
	<trkpt lat="51.74451167" lon="-2.070076667"><ele>149.000000</ele><time>2010-07-21T10:23:22Z</time></trkpt>
	<trkpt lat="51.74455667" lon="-2.070111667"><ele>148.000000</ele><time>2010-07-21T10:23:27Z</time></trkpt>
	<trkpt lat="51.74460333" lon="-2.070155"><ele>146.000000</ele><time>2010-07-21T10:23:33Z</time></trkpt>
	<trkpt lat="51.74464333" lon="-2.070191667"><ele>146.000000</ele><time>2010-07-21T10:23:38Z</time></trkpt>
	<trkpt lat="51.74467333" lon="-2.070228333"><ele>146.000000</ele><time>2010-07-21T10:23:43Z</time></trkpt>
	<trkpt lat="51.74470167" lon="-2.070248333"><ele>148.000000</ele><time>2010-07-21T10:23:48Z</time></trkpt>
	<trkpt lat="51.74474" lon="-2.070265"><ele>148.000000</ele><time>2010-07-21T10:23:53Z</time></trkpt>
	<trkpt lat="51.744775" lon="-2.070288333"><ele>149.000000</ele><time>2010-07-21T10:23:58Z</time></trkpt>
	<trkpt lat="51.744805" lon="-2.07031"><ele>149.000000</ele><time>2010-07-21T10:24:03Z</time></trkpt>
	<trkpt lat="51.744835" lon="-2.070325"><ele>152.000000</ele><time>2010-07-21T10:24:08Z</time></trkpt>
	<trkpt lat="51.74486167" lon="-2.070331667"><ele>155.000000</ele><time>2010-07-21T10:24:13Z</time></trkpt>
	<trkpt lat="51.74488667" lon="-2.070348333"><ele>156.000000</ele><time>2010-07-21T10:24:18Z</time></trkpt>
	<trkpt lat="51.74490667" lon="-2.070361667"><ele>157.000000</ele><time>2010-07-21T10:24:23Z</time></trkpt>
	<trkpt lat="51.744945" lon="-2.070388333"><ele>158.000000</ele><time>2010-07-21T10:24:28Z</time></trkpt>
	<trkpt lat="51.74497333" lon="-2.070408333"><ele>159.000000</ele><time>2010-07-21T10:24:33Z</time></trkpt>
	<trkpt lat="51.74499" lon="-2.070478333"><ele>156.000000</ele><time>2010-07-21T10:24:38Z</time></trkpt>
	<trkpt lat="51.745015" lon="-2.070486667"><ele>158.000000</ele><time>2010-07-21T10:24:43Z</time></trkpt>
	<trkpt lat="51.74503667" lon="-2.070505"><ele>160.000000</ele><time>2010-07-21T10:24:48Z</time></trkpt>
	<trkpt lat="51.74505667" lon="-2.070525"><ele>163.000000</ele><time>2010-07-21T10:24:53Z</time></trkpt>
	<trkpt lat="51.74507167" lon="-2.070565"><ele>165.000000</ele><time>2010-07-21T10:24:58Z</time></trkpt>
	<trkpt lat="51.74509333" lon="-2.070591667"><ele>164.000000</ele><time>2010-07-21T10:25:03Z</time></trkpt>
	<trkpt lat="51.74512333" lon="-2.070625"><ele>163.000000</ele><time>2010-07-21T10:25:08Z</time></trkpt>
	<trkpt lat="51.74513833" lon="-2.070631667"><ele>165.000000</ele><time>2010-07-21T10:25:13Z</time></trkpt>
	<trkpt lat="51.74516667" lon="-2.070651667"><ele>164.000000</ele><time>2010-07-21T10:25:18Z</time></trkpt>
	<trkpt lat="51.74519667" lon="-2.07073"><ele>157.000000</ele><time>2010-07-21T10:25:23Z</time></trkpt>
	<trkpt lat="51.74521167" lon="-2.070751667"><ele>156.000000</ele><time>2010-07-21T10:25:28Z</time></trkpt>
	<trkpt lat="51.74521167" lon="-2.070763333"><ele>156.000000</ele><time>2010-07-21T10:25:33Z</time></trkpt>
	<trkpt lat="51.74521667" lon="-2.070765"><ele>158.000000</ele><time>2010-07-21T10:25:38Z</time></trkpt>
	<trkpt lat="51.745215" lon="-2.070751667"><ele>160.000000</ele><time>2010-07-21T10:25:43Z</time></trkpt>
	<trkpt lat="51.74521" lon="-2.070723333"><ele>163.000000</ele><time>2010-07-21T10:25:48Z</time></trkpt>
	<trkpt lat="51.74522" lon="-2.070706667"><ele>166.000000</ele><time>2010-07-21T10:25:53Z</time></trkpt>
	<trkpt lat="51.74522" lon="-2.070696667"><ele>168.000000</ele><time>2010-07-21T10:25:58Z</time></trkpt>
	<trkpt lat="51.74523167" lon="-2.070701667"><ele>171.000000</ele><time>2010-07-21T10:26:03Z</time></trkpt>
	<trkpt lat="51.74524333" lon="-2.070735"><ele>172.000000</ele><time>2010-07-21T10:26:08Z</time></trkpt>
	<trkpt lat="51.74526" lon="-2.070766667"><ele>174.000000</ele><time>2010-07-21T10:26:13Z</time></trkpt>
	<trkpt lat="51.74528333" lon="-2.070818333"><ele>175.000000</ele><time>2010-07-21T10:26:18Z</time></trkpt>
	<trkpt lat="51.74531167" lon="-2.070865"><ele>175.000000</ele><time>2010-07-21T10:26:23Z</time></trkpt>
	<trkpt lat="51.74536333" lon="-2.070973333"><ele>171.000000</ele><time>2010-07-21T10:26:28Z</time></trkpt>
	<trkpt lat="51.74539167" lon="-2.071041667"><ele>170.000000</ele><time>2010-07-21T10:26:33Z</time></trkpt>
	<trkpt lat="51.74542167" lon="-2.07111"><ele>171.000000</ele><time>2010-07-21T10:26:38Z</time></trkpt>
	<trkpt lat="51.74545667" lon="-2.071161667"><ele>172.000000</ele><time>2010-07-21T10:26:43Z</time></trkpt>
	<trkpt lat="51.74545667" lon="-2.071236667"><ele>170.000000</ele><time>2010-07-21T10:26:48Z</time></trkpt>
	<trkpt lat="51.74546" lon="-2.071263333"><ele>168.000000</ele><time>2010-07-21T10:26:53Z</time></trkpt>
	<trkpt lat="51.745475" lon="-2.071261667"><ele>172.000000</ele><time>2010-07-21T10:26:58Z</time></trkpt>
	<trkpt lat="51.74550167" lon="-2.0713"><ele>172.000000</ele><time>2010-07-21T10:27:03Z</time></trkpt>
	<trkpt lat="51.74550333" lon="-2.071331667"><ele>174.000000</ele><time>2010-07-21T10:27:08Z</time></trkpt>
	<trkpt lat="51.745535" lon="-2.071401667"><ele>173.000000</ele><time>2010-07-21T10:27:13Z</time></trkpt>
	<trkpt lat="51.74554333" lon="-2.071461667"><ele>172.000000</ele><time>2010-07-21T10:27:18Z</time></trkpt>
	<trkpt lat="51.74549667" lon="-2.071515"><ele>166.000000</ele><time>2010-07-21T10:27:23Z</time></trkpt>
	<trkpt lat="51.74549" lon="-2.071593333"><ele>165.000000</ele><time>2010-07-21T10:27:28Z</time></trkpt>
	<trkpt lat="51.74549333" lon="-2.071648333"><ele>165.000000</ele><time>2010-07-21T10:27:33Z</time></trkpt>
	<trkpt lat="51.74551833" lon="-2.071673333"><ele>166.000000</ele><time>2010-07-21T10:27:38Z</time></trkpt>
	<trkpt lat="51.745525" lon="-2.071708333"><ele>169.000000</ele><time>2010-07-21T10:27:43Z</time></trkpt>
	<trkpt lat="51.74552333" lon="-2.071748333"><ele>169.000000</ele><time>2010-07-21T10:27:48Z</time></trkpt>
	<trkpt lat="51.74551833" lon="-2.071766667"><ele>167.000000</ele><time>2010-07-21T10:27:53Z</time></trkpt>
	<trkpt lat="51.74553167" lon="-2.07182"><ele>165.000000</ele><time>2010-07-21T10:27:58Z</time></trkpt>
	<trkpt lat="51.74553333" lon="-2.071858333"><ele>166.000000</ele><time>2010-07-21T10:28:03Z</time></trkpt>
	<trkpt lat="51.74551333" lon="-2.0719"><ele>167.000000</ele><time>2010-07-21T10:28:09Z</time></trkpt>
	<trkpt lat="51.745495" lon="-2.071921667"><ele>169.000000</ele><time>2010-07-21T10:28:14Z</time></trkpt>
	<trkpt lat="51.74552333" lon="-2.071923333"><ele>173.000000</ele><time>2010-07-21T10:28:19Z</time></trkpt>
	<trkpt lat="51.74551" lon="-2.07198"><ele>171.000000</ele><time>2010-07-21T10:28:24Z</time></trkpt>
	<trkpt lat="51.74551167" lon="-2.072023333"><ele>173.000000</ele><time>2010-07-21T10:28:29Z</time></trkpt>
	<trkpt lat="51.745495" lon="-2.072123333"><ele>170.000000</ele><time>2010-07-21T10:28:35Z</time></trkpt>
	<trkpt lat="51.745495" lon="-2.072216667"><ele>166.000000</ele><time>2010-07-21T10:28:40Z</time></trkpt>
	<trkpt lat="51.74547333" lon="-2.072243333"><ele>167.000000</ele><time>2010-07-21T10:28:45Z</time></trkpt>
	<trkpt lat="51.74549833" lon="-2.072311667"><ele>168.000000</ele><time>2010-07-21T10:28:50Z</time></trkpt>
	<trkpt lat="51.74554333" lon="-2.072338333"><ele>172.000000</ele><time>2010-07-21T10:28:55Z</time></trkpt>
	<trkpt lat="51.74553667" lon="-2.072376667"><ele>174.000000</ele><time>2010-07-21T10:29:00Z</time></trkpt>
	<trkpt lat="51.74552833" lon="-2.072411667"><ele>177.000000</ele><time>2010-07-21T10:29:05Z</time></trkpt>
	<trkpt lat="51.74553833" lon="-2.07245"><ele>180.000000</ele><time>2010-07-21T10:29:10Z</time></trkpt>
	<trkpt lat="51.74550667" lon="-2.072486667"><ele>183.000000</ele><time>2010-07-21T10:29:15Z</time></trkpt>
	<trkpt lat="51.74543" lon="-2.07252"><ele>180.000000</ele><time>2010-07-21T10:29:20Z</time></trkpt>
	<trkpt lat="51.74537167" lon="-2.07256"><ele>177.000000</ele><time>2010-07-21T10:29:25Z</time></trkpt>
	<trkpt lat="51.74532833" lon="-2.072593333"><ele>175.000000</ele><time>2010-07-21T10:29:30Z</time></trkpt>
	<trkpt lat="51.74531" lon="-2.072626667"><ele>175.000000</ele><time>2010-07-21T10:29:35Z</time></trkpt>
	<trkpt lat="51.74528" lon="-2.072635"><ele>181.000000</ele><time>2010-07-21T10:29:40Z</time></trkpt>
	<trkpt lat="51.745275" lon="-2.072668333"><ele>186.000000</ele><time>2010-07-21T10:29:45Z</time></trkpt>
	<trkpt lat="51.74524167" lon="-2.07268"><ele>192.000000</ele><time>2010-07-21T10:29:50Z</time></trkpt>
	<trkpt lat="51.74523333" lon="-2.072705"><ele>196.000000</ele><time>2010-07-21T10:29:55Z</time></trkpt>
	<trkpt lat="51.74516833" lon="-2.072751667"><ele>196.000000</ele><time>2010-07-21T10:30:00Z</time></trkpt>
	<trkpt lat="51.74510667" lon="-2.072803333"><ele>197.000000</ele><time>2010-07-21T10:30:05Z</time></trkpt>
	<trkpt lat="51.74506667" lon="-2.072826667"><ele>197.000000</ele><time>2010-07-21T10:30:10Z</time></trkpt>
	<trkpt lat="51.745015" lon="-2.07284"><ele>199.000000</ele><time>2010-07-21T10:30:15Z</time></trkpt>
	<trkpt lat="51.74499667" lon="-2.07284"><ele>202.000000</ele><time>2010-07-21T10:30:20Z</time></trkpt>
	<trkpt lat="51.74497667" lon="-2.072843333"><ele>204.000000</ele><time>2010-07-21T10:30:25Z</time></trkpt>
	<trkpt lat="51.74494667" lon="-2.072851667"><ele>204.000000</ele><time>2010-07-21T10:30:30Z</time></trkpt>
	<trkpt lat="51.74490667" lon="-2.072855"><ele>204.000000</ele><time>2010-07-21T10:30:35Z</time></trkpt>
	<trkpt lat="51.74486" lon="-2.072851667"><ele>204.000000</ele><time>2010-07-21T10:30:40Z</time></trkpt>
	<trkpt lat="51.74482333" lon="-2.07287"><ele>202.000000</ele><time>2010-07-21T10:30:45Z</time></trkpt>
	<trkpt lat="51.74480167" lon="-2.072906667"><ele>200.000000</ele><time>2010-07-21T10:30:50Z</time></trkpt>
	<trkpt lat="51.74476333" lon="-2.072928333"><ele>200.000000</ele><time>2010-07-21T10:30:55Z</time></trkpt>
	<trkpt lat="51.74471167" lon="-2.072936667"><ele>201.000000</ele><time>2010-07-21T10:31:00Z</time></trkpt>
	<trkpt lat="51.744665" lon="-2.072945"><ele>203.000000</ele><time>2010-07-21T10:31:05Z</time></trkpt>
	<trkpt lat="51.74463667" lon="-2.072986667"><ele>203.000000</ele><time>2010-07-21T10:31:10Z</time></trkpt>
	<trkpt lat="51.74461667" lon="-2.073061667"><ele>198.000000</ele><time>2010-07-21T10:31:15Z</time></trkpt>
	<trkpt lat="51.74461833" lon="-2.07315"><ele>193.000000</ele><time>2010-07-21T10:31:20Z</time></trkpt>
	<trkpt lat="51.74461333" lon="-2.073203333"><ele>193.000000</ele><time>2010-07-21T10:31:25Z</time></trkpt>
	<trkpt lat="51.74459167" lon="-2.073241667"><ele>195.000000</ele><time>2010-07-21T10:31:30Z</time></trkpt>
	<trkpt lat="51.74457667" lon="-2.073271667"><ele>196.000000</ele><time>2010-07-21T10:31:35Z</time></trkpt>
	<trkpt lat="51.74455333" lon="-2.073291667"><ele>199.000000</ele><time>2010-07-21T10:31:40Z</time></trkpt>
	<trkpt lat="51.744535" lon="-2.073318333"><ele>201.000000</ele><time>2010-07-21T10:31:45Z</time></trkpt>
	<trkpt lat="51.744535" lon="-2.073348333"><ele>200.000000</ele><time>2010-07-21T10:31:50Z</time></trkpt>
	<trkpt lat="51.74451667" lon="-2.073401667"><ele>200.000000</ele><time>2010-07-21T10:31:55Z</time></trkpt>
	<trkpt lat="51.74448333" lon="-2.073448333"><ele>200.000000</ele><time>2010-07-21T10:32:00Z</time></trkpt>
	<trkpt lat="51.74445667" lon="-2.07348"><ele>202.000000</ele><time>2010-07-21T10:32:05Z</time></trkpt>
	<trkpt lat="51.74442667" lon="-2.073518333"><ele>202.000000</ele><time>2010-07-21T10:32:10Z</time></trkpt>
	<trkpt lat="51.74440833" lon="-2.073555"><ele>202.000000</ele><time>2010-07-21T10:32:15Z</time></trkpt>
	<trkpt lat="51.74440167" lon="-2.073586667"><ele>204.000000</ele><time>2010-07-21T10:32:20Z</time></trkpt>
	<trkpt lat="51.74439333" lon="-2.073621667"><ele>205.000000</ele><time>2010-07-21T10:32:25Z</time></trkpt>
	<trkpt lat="51.74438" lon="-2.0737"><ele>203.000000</ele><time>2010-07-21T10:32:30Z</time></trkpt>
	<trkpt lat="51.74436667" lon="-2.073748333"><ele>202.000000</ele><time>2010-07-21T10:32:35Z</time></trkpt>
	<trkpt lat="51.744375" lon="-2.073778333"><ele>202.000000</ele><time>2010-07-21T10:32:40Z</time></trkpt>
	<trkpt lat="51.74437667" lon="-2.073793333"><ele>201.000000</ele><time>2010-07-21T10:32:45Z</time></trkpt>
	<trkpt lat="51.74437667" lon="-2.073811667"><ele>200.000000</ele><time>2010-07-21T10:32:50Z</time></trkpt>
	<trkpt lat="51.74438167" lon="-2.073826667"><ele>199.000000</ele><time>2010-07-21T10:32:55Z</time></trkpt>
	<trkpt lat="51.74438667" lon="-2.073833333"><ele>200.000000</ele><time>2010-07-21T10:33:00Z</time></trkpt>
	<trkpt lat="51.74438" lon="-2.073833333"><ele>199.000000</ele><time>2010-07-21T10:33:05Z</time></trkpt>
	<trkpt lat="51.74438167" lon="-2.073831667"><ele>199.000000</ele><time>2010-07-21T10:33:10Z</time></trkpt>
	<trkpt lat="51.74437667" lon="-2.07383"><ele>198.000000</ele><time>2010-07-21T10:33:15Z</time></trkpt>
	<trkpt lat="51.744375" lon="-2.07383"><ele>197.000000</ele><time>2010-07-21T10:33:20Z</time></trkpt>
	<trkpt lat="51.74437333" lon="-2.073831667"><ele>197.000000</ele><time>2010-07-21T10:33:25Z</time></trkpt>
	<trkpt lat="51.74437333" lon="-2.073846667"><ele>196.000000</ele><time>2010-07-21T10:33:30Z</time></trkpt>
	<trkpt lat="51.744375" lon="-2.073855"><ele>196.000000</ele><time>2010-07-21T10:33:35Z</time></trkpt>
	<trkpt lat="51.744375" lon="-2.073856667"><ele>196.000000</ele><time>2010-07-21T10:33:40Z</time></trkpt>
	<trkpt lat="51.74437333" lon="-2.073858333"><ele>196.000000</ele><time>2010-07-21T10:33:45Z</time></trkpt>
	<trkpt lat="51.74436667" lon="-2.07386"><ele>196.000000</ele><time>2010-07-21T10:33:50Z</time></trkpt>
	<trkpt lat="51.74436667" lon="-2.073861667"><ele>196.000000</ele><time>2010-07-21T10:33:55Z</time></trkpt>
	<trkpt lat="51.74436667" lon="-2.073863333"><ele>196.000000</ele><time>2010-07-21T10:34:00Z</time></trkpt>
	<trkpt lat="51.74436667" lon="-2.073868333"><ele>195.000000</ele><time>2010-07-21T10:34:05Z</time></trkpt>
	<trkpt lat="51.74436667" lon="-2.073873333"><ele>195.000000</ele><time>2010-07-21T10:34:10Z</time></trkpt>
	<trkpt lat="51.74437" lon="-2.073875"><ele>195.000000</ele><time>2010-07-21T10:34:15Z</time></trkpt>
	<trkpt lat="51.74437" lon="-2.073878333"><ele>195.000000</ele><time>2010-07-21T10:34:20Z</time></trkpt>
	<trkpt lat="51.744365" lon="-2.073885"><ele>194.000000</ele><time>2010-07-21T10:34:25Z</time></trkpt>
	<trkpt lat="51.74437167" lon="-2.073915"><ele>194.000000</ele><time>2010-07-21T10:34:30Z</time></trkpt>
	<trkpt lat="51.74438" lon="-2.07395"><ele>195.000000</ele><time>2010-07-21T10:34:35Z</time></trkpt>
	<trkpt lat="51.74441" lon="-2.073993333"><ele>194.000000</ele><time>2010-07-21T10:34:40Z</time></trkpt>
	<trkpt lat="51.744435" lon="-2.074053333"><ele>195.000000</ele><time>2010-07-21T10:34:45Z</time></trkpt>
	<trkpt lat="51.744455" lon="-2.074116667"><ele>195.000000</ele><time>2010-07-21T10:34:50Z</time></trkpt>
	<trkpt lat="51.74446" lon="-2.07419"><ele>196.000000</ele><time>2010-07-21T10:34:55Z</time></trkpt>
	<trkpt lat="51.74446167" lon="-2.074263333"><ele>196.000000</ele><time>2010-07-21T10:35:00Z</time></trkpt>
	<trkpt lat="51.74446167" lon="-2.074335"><ele>196.000000</ele><time>2010-07-21T10:35:05Z</time></trkpt>
	<trkpt lat="51.74445667" lon="-2.074406667"><ele>196.000000</ele><time>2010-07-21T10:35:10Z</time></trkpt>
	<trkpt lat="51.74445" lon="-2.074478333"><ele>197.000000</ele><time>2010-07-21T10:35:15Z</time></trkpt>
	<trkpt lat="51.74444167" lon="-2.07455"><ele>197.000000</ele><time>2010-07-21T10:35:20Z</time></trkpt>
	<trkpt lat="51.744435" lon="-2.074623333"><ele>197.000000</ele><time>2010-07-21T10:35:25Z</time></trkpt>
	<trkpt lat="51.74442333" lon="-2.074696667"><ele>198.000000</ele><time>2010-07-21T10:35:30Z</time></trkpt>
	<trkpt lat="51.74441167" lon="-2.074768333"><ele>198.000000</ele><time>2010-07-21T10:35:35Z</time></trkpt>
	<trkpt lat="51.74440167" lon="-2.074841667"><ele>198.000000</ele><time>2010-07-21T10:35:40Z</time></trkpt>
	<trkpt lat="51.74439333" lon="-2.074918333"><ele>198.000000</ele><time>2010-07-21T10:35:45Z</time></trkpt>
	<trkpt lat="51.74438167" lon="-2.074991667"><ele>199.000000</ele><time>2010-07-21T10:35:50Z</time></trkpt>
	<trkpt lat="51.74437167" lon="-2.075063333"><ele>199.000000</ele><time>2010-07-21T10:35:55Z</time></trkpt>
	<trkpt lat="51.74436167" lon="-2.075133333"><ele>200.000000</ele><time>2010-07-21T10:36:00Z</time></trkpt>
	<trkpt lat="51.74435167" lon="-2.075211667"><ele>200.000000</ele><time>2010-07-21T10:36:05Z</time></trkpt>
	<trkpt lat="51.74434" lon="-2.075285"><ele>201.000000</ele><time>2010-07-21T10:36:10Z</time></trkpt>
	<trkpt lat="51.74433" lon="-2.075356667"><ele>201.000000</ele><time>2010-07-21T10:36:15Z</time></trkpt>
	<trkpt lat="51.74431833" lon="-2.075425"><ele>202.000000</ele><time>2010-07-21T10:36:20Z</time></trkpt>
	<trkpt lat="51.74430667" lon="-2.075498333"><ele>203.000000</ele><time>2010-07-21T10:36:25Z</time></trkpt>
	<trkpt lat="51.74430167" lon="-2.075571667"><ele>203.000000</ele><time>2010-07-21T10:36:30Z</time></trkpt>
	<trkpt lat="51.74429" lon="-2.075641667"><ele>204.000000</ele><time>2010-07-21T10:36:35Z</time></trkpt>
	<trkpt lat="51.74428" lon="-2.075711667"><ele>204.000000</ele><time>2010-07-21T10:36:40Z</time></trkpt>
	<trkpt lat="51.74427167" lon="-2.07578"><ele>204.000000</ele><time>2010-07-21T10:36:45Z</time></trkpt>
	<trkpt lat="51.74426" lon="-2.075843333"><ele>205.000000</ele><time>2010-07-21T10:36:50Z</time></trkpt>
	<trkpt lat="51.74425" lon="-2.075911667"><ele>205.000000</ele><time>2010-07-21T10:36:55Z</time></trkpt>
	<trkpt lat="51.74423667" lon="-2.075976667"><ele>206.000000</ele><time>2010-07-21T10:37:00Z</time></trkpt>
	<trkpt lat="51.74422833" lon="-2.07604"><ele>205.000000</ele><time>2010-07-21T10:37:05Z</time></trkpt>
	<trkpt lat="51.74422" lon="-2.076103333"><ele>206.000000</ele><time>2010-07-21T10:37:10Z</time></trkpt>
	<trkpt lat="51.74420667" lon="-2.076173333"><ele>206.000000</ele><time>2010-07-21T10:37:15Z</time></trkpt>
	<trkpt lat="51.7442" lon="-2.076246667"><ele>207.000000</ele><time>2010-07-21T10:37:20Z</time></trkpt>
	<trkpt lat="51.74419" lon="-2.076318333"><ele>207.000000</ele><time>2010-07-21T10:37:25Z</time></trkpt>
	<trkpt lat="51.74418" lon="-2.07639"><ele>208.000000</ele><time>2010-07-21T10:37:30Z</time></trkpt>
	<trkpt lat="51.74417167" lon="-2.076458333"><ele>208.000000</ele><time>2010-07-21T10:37:35Z</time></trkpt>
	<trkpt lat="51.74416" lon="-2.07653"><ele>209.000000</ele><time>2010-07-21T10:37:40Z</time></trkpt>
	<trkpt lat="51.74415333" lon="-2.076603333"><ele>209.000000</ele><time>2010-07-21T10:37:45Z</time></trkpt>
	<trkpt lat="51.74413833" lon="-2.076668333"><ele>210.000000</ele><time>2010-07-21T10:37:50Z</time></trkpt>
	<trkpt lat="51.744125" lon="-2.076738333"><ele>210.000000</ele><time>2010-07-21T10:37:55Z</time></trkpt>
	<trkpt lat="51.74411667" lon="-2.07681"><ele>210.000000</ele><time>2010-07-21T10:38:00Z</time></trkpt>
	<trkpt lat="51.74410333" lon="-2.076885"><ele>211.000000</ele><time>2010-07-21T10:38:05Z</time></trkpt>
	<trkpt lat="51.74409333" lon="-2.076963333"><ele>211.000000</ele><time>2010-07-21T10:38:10Z</time></trkpt>
	<trkpt lat="51.74408167" lon="-2.077041667"><ele>212.000000</ele><time>2010-07-21T10:38:15Z</time></trkpt>
	<trkpt lat="51.74407333" lon="-2.077118333"><ele>212.000000</ele><time>2010-07-21T10:38:20Z</time></trkpt>
	<trkpt lat="51.74406" lon="-2.077195"><ele>212.000000</ele><time>2010-07-21T10:38:25Z</time></trkpt>
	<trkpt lat="51.74405167" lon="-2.07727"><ele>213.000000</ele><time>2010-07-21T10:38:30Z</time></trkpt>
	<trkpt lat="51.74404333" lon="-2.077345"><ele>213.000000</ele><time>2010-07-21T10:38:35Z</time></trkpt>
	<trkpt lat="51.74403" lon="-2.077421667"><ele>213.000000</ele><time>2010-07-21T10:38:40Z</time></trkpt>
	<trkpt lat="51.74402" lon="-2.077493333"><ele>213.000000</ele><time>2010-07-21T10:38:45Z</time></trkpt>
	<trkpt lat="51.74400667" lon="-2.077566667"><ele>214.000000</ele><time>2010-07-21T10:38:50Z</time></trkpt>
	<trkpt lat="51.743995" lon="-2.077635"><ele>214.000000</ele><time>2010-07-21T10:38:55Z</time></trkpt>
	<trkpt lat="51.74398333" lon="-2.077693333"><ele>214.000000</ele><time>2010-07-21T10:39:00Z</time></trkpt>
	<trkpt lat="51.74397" lon="-2.077753333"><ele>215.000000</ele><time>2010-07-21T10:39:05Z</time></trkpt>
	<trkpt lat="51.74396833" lon="-2.077771667"><ele>215.000000</ele><time>2010-07-21T10:39:10Z</time></trkpt>
	<trkpt lat="51.743965" lon="-2.07777"><ele>215.000000</ele><time>2010-07-21T10:39:15Z</time></trkpt>
	<trkpt lat="51.74395167" lon="-2.077866667"><ele>215.000000</ele><time>2010-07-21T10:39:21Z</time></trkpt>
	<trkpt lat="51.74394667" lon="-2.077953333"><ele>215.000000</ele><time>2010-07-21T10:39:26Z</time></trkpt>
	<trkpt lat="51.74393833" lon="-2.078035"><ele>215.000000</ele><time>2010-07-21T10:39:31Z</time></trkpt>
	<trkpt lat="51.74392833" lon="-2.078115"><ele>215.000000</ele><time>2010-07-21T10:39:36Z</time></trkpt>
	<trkpt lat="51.74392333" lon="-2.078191667"><ele>216.000000</ele><time>2010-07-21T10:39:41Z</time></trkpt>
	<trkpt lat="51.743925" lon="-2.078191667"><ele>216.000000</ele><time>2010-07-21T10:39:46Z</time></trkpt>
	<trkpt lat="51.743915" lon="-2.078245"><ele>216.000000</ele><time>2010-07-21T10:39:51Z</time></trkpt>
	<trkpt lat="51.74390167" lon="-2.07833"><ele>216.000000</ele><time>2010-07-21T10:39:56Z</time></trkpt>
	<trkpt lat="51.74389" lon="-2.078415"><ele>216.000000</ele><time>2010-07-21T10:40:01Z</time></trkpt>
	<trkpt lat="51.74388" lon="-2.078491667"><ele>217.000000</ele><time>2010-07-21T10:40:06Z</time></trkpt>
	<trkpt lat="51.743865" lon="-2.07857"><ele>216.000000</ele><time>2010-07-21T10:40:11Z</time></trkpt>
	<trkpt lat="51.74386833" lon="-2.078566667"><ele>216.000000</ele><time>2010-07-21T10:40:16Z</time></trkpt>
	<trkpt lat="51.74387" lon="-2.078563333"><ele>217.000000</ele><time>2010-07-21T10:40:21Z</time></trkpt>
	<trkpt lat="51.74387167" lon="-2.078556667"><ele>218.000000</ele><time>2010-07-21T10:40:26Z</time></trkpt>
	<trkpt lat="51.743875" lon="-2.078556667"><ele>218.000000</ele><time>2010-07-21T10:40:31Z</time></trkpt>
	<trkpt lat="51.74387333" lon="-2.078558333"><ele>218.000000</ele><time>2010-07-21T10:40:36Z</time></trkpt>
	<trkpt lat="51.74387833" lon="-2.078553333"><ele>219.000000</ele><time>2010-07-21T10:40:41Z</time></trkpt>
	<trkpt lat="51.743885" lon="-2.078548333"><ele>220.000000</ele><time>2010-07-21T10:40:46Z</time></trkpt>
	<trkpt lat="51.74389333" lon="-2.078543333"><ele>222.000000</ele><time>2010-07-21T10:40:51Z</time></trkpt>
	<trkpt lat="51.7439" lon="-2.078536667"><ele>223.000000</ele><time>2010-07-21T10:40:56Z</time></trkpt>
	<trkpt lat="51.74390833" lon="-2.07853"><ele>224.000000</ele><time>2010-07-21T10:41:01Z</time></trkpt>
	<trkpt lat="51.74391667" lon="-2.078525"><ele>225.000000</ele><time>2010-07-21T10:41:06Z</time></trkpt>
	<trkpt lat="51.74392833" lon="-2.078516667"><ele>226.000000</ele><time>2010-07-21T10:41:11Z</time></trkpt>
	<trkpt lat="51.74391667" lon="-2.078563333"><ele>225.000000</ele><time>2010-07-21T10:41:16Z</time></trkpt>
	<trkpt lat="51.74388667" lon="-2.078688333"><ele>223.000000</ele><time>2010-07-21T10:41:21Z</time></trkpt>
	<trkpt lat="51.74386833" lon="-2.0788"><ele>222.000000</ele><time>2010-07-21T10:41:26Z</time></trkpt>
	<trkpt lat="51.74384833" lon="-2.078908333"><ele>221.000000</ele><time>2010-07-21T10:41:31Z</time></trkpt>
	<trkpt lat="51.74382833" lon="-2.079018333"><ele>220.000000</ele><time>2010-07-21T10:41:36Z</time></trkpt>
	<trkpt lat="51.743805" lon="-2.079136667"><ele>220.000000</ele><time>2010-07-21T10:41:41Z</time></trkpt>
	<trkpt lat="51.743775" lon="-2.079261667"><ele>219.000000</ele><time>2010-07-21T10:41:46Z</time></trkpt>
	<trkpt lat="51.74374167" lon="-2.079381667"><ele>219.000000</ele><time>2010-07-21T10:41:51Z</time></trkpt>
	<trkpt lat="51.74371" lon="-2.079501667"><ele>219.000000</ele><time>2010-07-21T10:41:56Z</time></trkpt>
	<trkpt lat="51.74367333" lon="-2.079615"><ele>219.000000</ele><time>2010-07-21T10:42:01Z</time></trkpt>
	<trkpt lat="51.74363833" lon="-2.079728333"><ele>219.000000</ele><time>2010-07-21T10:42:06Z</time></trkpt>
	<trkpt lat="51.74361333" lon="-2.079835"><ele>218.000000</ele><time>2010-07-21T10:42:11Z</time></trkpt>
	<trkpt lat="51.7436" lon="-2.07989"><ele>218.000000</ele><time>2010-07-21T10:42:16Z</time></trkpt>
	<trkpt lat="51.743595" lon="-2.079891667"><ele>218.000000</ele><time>2010-07-21T10:42:21Z</time></trkpt>
	<trkpt lat="51.74359333" lon="-2.079891667"><ele>219.000000</ele><time>2010-07-21T10:42:26Z</time></trkpt>
	<trkpt lat="51.74359333" lon="-2.07989"><ele>219.000000</ele><time>2010-07-21T10:42:31Z</time></trkpt>
	<trkpt lat="51.74359833" lon="-2.079893333"><ele>221.000000</ele><time>2010-07-21T10:42:36Z</time></trkpt>
	<trkpt lat="51.743595" lon="-2.079915"><ele>221.000000</ele><time>2010-07-21T10:42:41Z</time></trkpt>
	<trkpt lat="51.74357" lon="-2.079943333"><ele>221.000000</ele><time>2010-07-21T10:42:46Z</time></trkpt>
	<trkpt lat="51.74351667" lon="-2.079968333"><ele>219.000000</ele><time>2010-07-21T10:42:51Z</time></trkpt>
	<trkpt lat="51.74349333" lon="-2.079981667"><ele>218.000000</ele><time>2010-07-21T10:42:56Z</time></trkpt>
	<trkpt lat="51.74349" lon="-2.079996667"><ele>217.000000</ele><time>2010-07-21T10:43:01Z</time></trkpt>
	<trkpt lat="51.74348667" lon="-2.079998333"><ele>217.000000</ele><time>2010-07-21T10:43:06Z</time></trkpt>
	<trkpt lat="51.743485" lon="-2.08"><ele>216.000000</ele><time>2010-07-21T10:43:11Z</time></trkpt>
	<trkpt lat="51.74349" lon="-2.079995"><ele>217.000000</ele><time>2010-07-21T10:43:16Z</time></trkpt>
	<trkpt lat="51.74346833" lon="-2.08"><ele>216.000000</ele><time>2010-07-21T10:43:21Z</time></trkpt>
	<trkpt lat="51.74342167" lon="-2.080021667"><ele>217.000000</ele><time>2010-07-21T10:43:26Z</time></trkpt>
	<trkpt lat="51.74337" lon="-2.080031667"><ele>218.000000</ele><time>2010-07-21T10:43:31Z</time></trkpt>
	<trkpt lat="51.74331667" lon="-2.080043333"><ele>218.000000</ele><time>2010-07-21T10:43:36Z</time></trkpt>
	<trkpt lat="51.743265" lon="-2.080058333"><ele>218.000000</ele><time>2010-07-21T10:43:41Z</time></trkpt>
	<trkpt lat="51.74321333" lon="-2.080065"><ele>219.000000</ele><time>2010-07-21T10:43:46Z</time></trkpt>
	<trkpt lat="51.74316167" lon="-2.080078333"><ele>219.000000</ele><time>2010-07-21T10:43:51Z</time></trkpt>
	<trkpt lat="51.74311333" lon="-2.080081667"><ele>219.000000</ele><time>2010-07-21T10:43:56Z</time></trkpt>
	<trkpt lat="51.74305667" lon="-2.080086667"><ele>219.000000</ele><time>2010-07-21T10:44:01Z</time></trkpt>
	<trkpt lat="51.742995" lon="-2.080093333"><ele>218.000000</ele><time>2010-07-21T10:44:06Z</time></trkpt>
	<trkpt lat="51.74294167" lon="-2.080095"><ele>217.000000</ele><time>2010-07-21T10:44:11Z</time></trkpt>
	<trkpt lat="51.74288667" lon="-2.080091667"><ele>217.000000</ele><time>2010-07-21T10:44:16Z</time></trkpt>
	<trkpt lat="51.74282667" lon="-2.08009"><ele>216.000000</ele><time>2010-07-21T10:44:21Z</time></trkpt>
	<trkpt lat="51.74276833" lon="-2.080085"><ele>215.000000</ele><time>2010-07-21T10:44:26Z</time></trkpt>
	<trkpt lat="51.74271167" lon="-2.080081667"><ele>214.000000</ele><time>2010-07-21T10:44:31Z</time></trkpt>
	<trkpt lat="51.742655" lon="-2.080075"><ele>214.000000</ele><time>2010-07-21T10:44:36Z</time></trkpt>
	<trkpt lat="51.74260167" lon="-2.08007"><ele>214.000000</ele><time>2010-07-21T10:44:41Z</time></trkpt>
	<trkpt lat="51.742545" lon="-2.080061667"><ele>214.000000</ele><time>2010-07-21T10:44:46Z</time></trkpt>
	<trkpt lat="51.74249167" lon="-2.080055"><ele>214.000000</ele><time>2010-07-21T10:44:51Z</time></trkpt>
	<trkpt lat="51.74244167" lon="-2.08005"><ele>213.000000</ele><time>2010-07-21T10:44:56Z</time></trkpt>
	<trkpt lat="51.74238833" lon="-2.080043333"><ele>213.000000</ele><time>2010-07-21T10:45:01Z</time></trkpt>
	<trkpt lat="51.74234167" lon="-2.080031667"><ele>214.000000</ele><time>2010-07-21T10:45:06Z</time></trkpt>
	<trkpt lat="51.74229333" lon="-2.080021667"><ele>214.000000</ele><time>2010-07-21T10:45:11Z</time></trkpt>
	<trkpt lat="51.74223833" lon="-2.080015"><ele>213.000000</ele><time>2010-07-21T10:45:16Z</time></trkpt>
	<trkpt lat="51.74218" lon="-2.08001"><ele>213.000000</ele><time>2010-07-21T10:45:21Z</time></trkpt>
	<trkpt lat="51.74212333" lon="-2.080008333"><ele>213.000000</ele><time>2010-07-21T10:45:26Z</time></trkpt>
	<trkpt lat="51.74207167" lon="-2.08"><ele>213.000000</ele><time>2010-07-21T10:45:31Z</time></trkpt>
	<trkpt lat="51.74201667" lon="-2.079991667"><ele>213.000000</ele><time>2010-07-21T10:45:36Z</time></trkpt>
	<trkpt lat="51.74196167" lon="-2.079978333"><ele>213.000000</ele><time>2010-07-21T10:45:41Z</time></trkpt>
	<trkpt lat="51.74190833" lon="-2.079978333"><ele>213.000000</ele><time>2010-07-21T10:45:46Z</time></trkpt>
	<trkpt lat="51.741855" lon="-2.079971667"><ele>212.000000</ele><time>2010-07-21T10:45:51Z</time></trkpt>
	<trkpt lat="51.7418" lon="-2.07997"><ele>212.000000</ele><time>2010-07-21T10:45:56Z</time></trkpt>
	<trkpt lat="51.74176167" lon="-2.07995"><ele>212.000000</ele><time>2010-07-21T10:46:01Z</time></trkpt>
	<trkpt lat="51.74172167" lon="-2.07991"><ele>213.000000</ele><time>2010-07-21T10:46:06Z</time></trkpt>
	<trkpt lat="51.74168333" lon="-2.079895"><ele>213.000000</ele><time>2010-07-21T10:46:11Z</time></trkpt>
	<trkpt lat="51.741655" lon="-2.079898333"><ele>214.000000</ele><time>2010-07-21T10:46:16Z</time></trkpt>
	<trkpt lat="51.74161" lon="-2.07993"><ele>214.000000</ele><time>2010-07-21T10:46:21Z</time></trkpt>
	<trkpt lat="51.74155667" lon="-2.079941667"><ele>214.000000</ele><time>2010-07-21T10:46:26Z</time></trkpt>
	<trkpt lat="51.74152" lon="-2.079938333"><ele>214.000000</ele><time>2010-07-21T10:46:31Z</time></trkpt>
	<trkpt lat="51.74147167" lon="-2.079935"><ele>214.000000</ele><time>2010-07-21T10:46:36Z</time></trkpt>
	<trkpt lat="51.74145667" lon="-2.079935"><ele>214.000000</ele><time>2010-07-21T10:46:41Z</time></trkpt>
	<trkpt lat="51.741455" lon="-2.079935"><ele>214.000000</ele><time>2010-07-21T10:46:46Z</time></trkpt>
	<trkpt lat="51.74145167" lon="-2.079935"><ele>214.000000</ele><time>2010-07-21T10:46:51Z</time></trkpt>
	<trkpt lat="51.74144833" lon="-2.07993"><ele>213.000000</ele><time>2010-07-21T10:46:56Z</time></trkpt>
	<trkpt lat="51.741445" lon="-2.079918333"><ele>213.000000</ele><time>2010-07-21T10:47:01Z</time></trkpt>
	<trkpt lat="51.741445" lon="-2.079921667"><ele>212.000000</ele><time>2010-07-21T10:47:06Z</time></trkpt>
	<trkpt lat="51.74144167" lon="-2.079921667"><ele>212.000000</ele><time>2010-07-21T10:47:11Z</time></trkpt>
	<trkpt lat="51.74143667" lon="-2.079921667"><ele>211.000000</ele><time>2010-07-21T10:47:16Z</time></trkpt>
	<trkpt lat="51.74143667" lon="-2.079921667"><ele>211.000000</ele><time>2010-07-21T10:47:21Z</time></trkpt>
	<trkpt lat="51.741435" lon="-2.079921667"><ele>211.000000</ele><time>2010-07-21T10:47:26Z</time></trkpt>
	<trkpt lat="51.74143167" lon="-2.079925"><ele>211.000000</ele><time>2010-07-21T10:47:31Z</time></trkpt>
	<trkpt lat="51.7414" lon="-2.079948333"><ele>211.000000</ele><time>2010-07-21T10:47:36Z</time></trkpt>
	<trkpt lat="51.74133167" lon="-2.079938333"><ele>209.000000</ele><time>2010-07-21T10:47:41Z</time></trkpt>
	<trkpt lat="51.74125667" lon="-2.079933333"><ele>208.000000</ele><time>2010-07-21T10:47:46Z</time></trkpt>
	<trkpt lat="51.74118" lon="-2.079943333"><ele>207.000000</ele><time>2010-07-21T10:47:51Z</time></trkpt>
	<trkpt lat="51.74111333" lon="-2.079925"><ele>206.000000</ele><time>2010-07-21T10:47:56Z</time></trkpt>
	<trkpt lat="51.741045" lon="-2.079936667"><ele>206.000000</ele><time>2010-07-21T10:48:01Z</time></trkpt>
	<trkpt lat="51.74097667" lon="-2.079933333"><ele>205.000000</ele><time>2010-07-21T10:48:06Z</time></trkpt>
	<trkpt lat="51.740905" lon="-2.079926667"><ele>205.000000</ele><time>2010-07-21T10:48:11Z</time></trkpt>
	<trkpt lat="51.74084833" lon="-2.079933333"><ele>205.000000</ele><time>2010-07-21T10:48:16Z</time></trkpt>
	<trkpt lat="51.74078833" lon="-2.07994"><ele>205.000000</ele><time>2010-07-21T10:48:21Z</time></trkpt>
	<trkpt lat="51.74073" lon="-2.079923333"><ele>204.000000</ele><time>2010-07-21T10:48:26Z</time></trkpt>
	<trkpt lat="51.74067333" lon="-2.079925"><ele>204.000000</ele><time>2010-07-21T10:48:31Z</time></trkpt>
	<trkpt lat="51.74061333" lon="-2.079933333"><ele>204.000000</ele><time>2010-07-21T10:48:36Z</time></trkpt>
	<trkpt lat="51.74055333" lon="-2.079923333"><ele>203.000000</ele><time>2010-07-21T10:48:41Z</time></trkpt>
	<trkpt lat="51.74049333" lon="-2.079913333"><ele>201.000000</ele><time>2010-07-21T10:48:46Z</time></trkpt>
	<trkpt lat="51.74043333" lon="-2.07991"><ele>200.000000</ele><time>2010-07-21T10:48:51Z</time></trkpt>
	<trkpt lat="51.740375" lon="-2.079911667"><ele>199.000000</ele><time>2010-07-21T10:48:56Z</time></trkpt>
	<trkpt lat="51.74031667" lon="-2.079911667"><ele>198.000000</ele><time>2010-07-21T10:49:01Z</time></trkpt>
	<trkpt lat="51.74026" lon="-2.079915"><ele>198.000000</ele><time>2010-07-21T10:49:06Z</time></trkpt>
	<trkpt lat="51.74019833" lon="-2.079913333"><ele>198.000000</ele><time>2010-07-21T10:49:11Z</time></trkpt>
	<trkpt lat="51.74013833" lon="-2.079908333"><ele>198.000000</ele><time>2010-07-21T10:49:16Z</time></trkpt>
	<trkpt lat="51.74007333" lon="-2.0799"><ele>197.000000</ele><time>2010-07-21T10:49:21Z</time></trkpt>
	<trkpt lat="51.74001" lon="-2.079896667"><ele>197.000000</ele><time>2010-07-21T10:49:26Z</time></trkpt>
	<trkpt lat="51.73994833" lon="-2.079886667"><ele>196.000000</ele><time>2010-07-21T10:49:31Z</time></trkpt>
	<trkpt lat="51.739885" lon="-2.079875"><ele>195.000000</ele><time>2010-07-21T10:49:36Z</time></trkpt>
	<trkpt lat="51.73982167" lon="-2.079871667"><ele>195.000000</ele><time>2010-07-21T10:49:41Z</time></trkpt>
	<trkpt lat="51.73975833" lon="-2.079861667"><ele>194.000000</ele><time>2010-07-21T10:49:46Z</time></trkpt>
	<trkpt lat="51.73969667" lon="-2.079848333"><ele>194.000000</ele><time>2010-07-21T10:49:51Z</time></trkpt>
	<trkpt lat="51.73963667" lon="-2.07984"><ele>194.000000</ele><time>2010-07-21T10:49:56Z</time></trkpt>
	<trkpt lat="51.73957667" lon="-2.079836667"><ele>194.000000</ele><time>2010-07-21T10:50:01Z</time></trkpt>
	<trkpt lat="51.73951833" lon="-2.079823333"><ele>194.000000</ele><time>2010-07-21T10:50:06Z</time></trkpt>
	<trkpt lat="51.73946167" lon="-2.079811667"><ele>194.000000</ele><time>2010-07-21T10:50:11Z</time></trkpt>
	<trkpt lat="51.73941167" lon="-2.079796667"><ele>195.000000</ele><time>2010-07-21T10:50:16Z</time></trkpt>
	<trkpt lat="51.73937167" lon="-2.079776667"><ele>197.000000</ele><time>2010-07-21T10:50:21Z</time></trkpt>
	<trkpt lat="51.739345" lon="-2.079738333"><ele>198.000000</ele><time>2010-07-21T10:50:26Z</time></trkpt>
	<trkpt lat="51.73932667" lon="-2.079726667"><ele>199.000000</ele><time>2010-07-21T10:50:31Z</time></trkpt>
	<trkpt lat="51.73931167" lon="-2.079708333"><ele>198.000000</ele><time>2010-07-21T10:50:36Z</time></trkpt>
	<trkpt lat="51.73929333" lon="-2.079696667"><ele>199.000000</ele><time>2010-07-21T10:50:41Z</time></trkpt>
	<trkpt lat="51.73928833" lon="-2.079703333"><ele>200.000000</ele><time>2010-07-21T10:50:46Z</time></trkpt>
	<trkpt lat="51.73927833" lon="-2.079728333"><ele>200.000000</ele><time>2010-07-21T10:50:51Z</time></trkpt>
	<trkpt lat="51.73927833" lon="-2.079731667"><ele>199.000000</ele><time>2010-07-21T10:50:56Z</time></trkpt>
	<trkpt lat="51.73928167" lon="-2.079748333"><ele>198.000000</ele><time>2010-07-21T10:51:01Z</time></trkpt>
	<trkpt lat="51.73927833" lon="-2.079741667"><ele>198.000000</ele><time>2010-07-21T10:51:06Z</time></trkpt>
	<trkpt lat="51.73927833" lon="-2.079751667"><ele>197.000000</ele><time>2010-07-21T10:51:11Z</time></trkpt>
	<trkpt lat="51.73927833" lon="-2.079743333"><ele>197.000000</ele><time>2010-07-21T10:51:16Z</time></trkpt>
	<trkpt lat="51.73927833" lon="-2.079743333"><ele>197.000000</ele><time>2010-07-21T10:51:21Z</time></trkpt>
	<trkpt lat="51.739275" lon="-2.079748333"><ele>197.000000</ele><time>2010-07-21T10:51:26Z</time></trkpt>
	<trkpt lat="51.73927333" lon="-2.079751667"><ele>198.000000</ele><time>2010-07-21T10:51:31Z</time></trkpt>
	<trkpt lat="51.73927" lon="-2.079758333"><ele>198.000000</ele><time>2010-07-21T10:51:36Z</time></trkpt>
	<trkpt lat="51.73927" lon="-2.079758333"><ele>198.000000</ele><time>2010-07-21T10:51:41Z</time></trkpt>
	<trkpt lat="51.73927333" lon="-2.079748333"><ele>198.000000</ele><time>2010-07-21T10:51:46Z</time></trkpt>
	<trkpt lat="51.739275" lon="-2.079746667"><ele>198.000000</ele><time>2010-07-21T10:51:51Z</time></trkpt>
	<trkpt lat="51.73927667" lon="-2.079743333"><ele>199.000000</ele><time>2010-07-21T10:51:56Z</time></trkpt>
	<trkpt lat="51.73927167" lon="-2.079695"><ele>198.000000</ele><time>2010-07-21T10:52:01Z</time></trkpt>
	<trkpt lat="51.73926" lon="-2.07967"><ele>198.000000</ele><time>2010-07-21T10:52:06Z</time></trkpt>
	<trkpt lat="51.73926167" lon="-2.07967"><ele>198.000000</ele><time>2010-07-21T10:52:11Z</time></trkpt>
	<trkpt lat="51.73925833" lon="-2.079658333"><ele>198.000000</ele><time>2010-07-21T10:52:16Z</time></trkpt>
	<trkpt lat="51.73926" lon="-2.079653333"><ele>198.000000</ele><time>2010-07-21T10:52:21Z</time></trkpt>
	<trkpt lat="51.739255" lon="-2.079656667"><ele>198.000000</ele><time>2010-07-21T10:52:26Z</time></trkpt>
	<trkpt lat="51.73925667" lon="-2.079653333"><ele>197.000000</ele><time>2010-07-21T10:52:31Z</time></trkpt>
	<trkpt lat="51.73925333" lon="-2.079655"><ele>197.000000</ele><time>2010-07-21T10:52:36Z</time></trkpt>
	<trkpt lat="51.73925167" lon="-2.079655"><ele>196.000000</ele><time>2010-07-21T10:52:41Z</time></trkpt>
	<trkpt lat="51.73925333" lon="-2.079656667"><ele>196.000000</ele><time>2010-07-21T10:52:46Z</time></trkpt>
	<trkpt lat="51.73925333" lon="-2.079658333"><ele>197.000000</ele><time>2010-07-21T10:52:51Z</time></trkpt>
	<trkpt lat="51.73925333" lon="-2.079658333"><ele>197.000000</ele><time>2010-07-21T10:52:56Z</time></trkpt>
	<trkpt lat="51.73924833" lon="-2.07964"><ele>197.000000</ele><time>2010-07-21T10:53:01Z</time></trkpt>
	<trkpt lat="51.73924333" lon="-2.079623333"><ele>197.000000</ele><time>2010-07-21T10:53:06Z</time></trkpt>
	<trkpt lat="51.73923667" lon="-2.07961"><ele>197.000000</ele><time>2010-07-21T10:53:11Z</time></trkpt>
	<trkpt lat="51.73923667" lon="-2.079608333"><ele>197.000000</ele><time>2010-07-21T10:53:16Z</time></trkpt>
	<trkpt lat="51.73925333" lon="-2.079585"><ele>198.000000</ele><time>2010-07-21T10:53:21Z</time></trkpt>
	<trkpt lat="51.73924" lon="-2.079565"><ele>198.000000</ele><time>2010-07-21T10:53:26Z</time></trkpt>
	<trkpt lat="51.73923333" lon="-2.079533333"><ele>198.000000</ele><time>2010-07-21T10:53:31Z</time></trkpt>
	<trkpt lat="51.73922833" lon="-2.079536667"><ele>197.000000</ele><time>2010-07-21T10:53:36Z</time></trkpt>
	<trkpt lat="51.73922667" lon="-2.07954"><ele>196.000000</ele><time>2010-07-21T10:53:41Z</time></trkpt>
	<trkpt lat="51.73923167" lon="-2.079553333"><ele>196.000000</ele><time>2010-07-21T10:53:46Z</time></trkpt>
	<trkpt lat="51.73922667" lon="-2.079565"><ele>196.000000</ele><time>2010-07-21T10:53:51Z</time></trkpt>
	<trkpt lat="51.73922667" lon="-2.079561667"><ele>196.000000</ele><time>2010-07-21T10:53:56Z</time></trkpt>
	<trkpt lat="51.73921833" lon="-2.079556667"><ele>196.000000</ele><time>2010-07-21T10:54:01Z</time></trkpt>
	<trkpt lat="51.73915167" lon="-2.079535"><ele>197.000000</ele><time>2010-07-21T10:54:06Z</time></trkpt>
	<trkpt lat="51.73908333" lon="-2.079515"><ele>197.000000</ele><time>2010-07-21T10:54:11Z</time></trkpt>
	<trkpt lat="51.73902" lon="-2.079491667"><ele>197.000000</ele><time>2010-07-21T10:54:16Z</time></trkpt>
	<trkpt lat="51.73895667" lon="-2.079471667"><ele>198.000000</ele><time>2010-07-21T10:54:21Z</time></trkpt>
	<trkpt lat="51.73889167" lon="-2.07945"><ele>198.000000</ele><time>2010-07-21T10:54:26Z</time></trkpt>
	<trkpt lat="51.738825" lon="-2.079423333"><ele>197.000000</ele><time>2010-07-21T10:54:31Z</time></trkpt>
	<trkpt lat="51.738765" lon="-2.079386667"><ele>197.000000</ele><time>2010-07-21T10:54:36Z</time></trkpt>
	<trkpt lat="51.73870167" lon="-2.079338333"><ele>196.000000</ele><time>2010-07-21T10:54:41Z</time></trkpt>
	<trkpt lat="51.73864" lon="-2.079295"><ele>195.000000</ele><time>2010-07-21T10:54:46Z</time></trkpt>
	<trkpt lat="51.73857833" lon="-2.07925"><ele>195.000000</ele><time>2010-07-21T10:54:51Z</time></trkpt>
	<trkpt lat="51.73851667" lon="-2.079211667"><ele>194.000000</ele><time>2010-07-21T10:54:56Z</time></trkpt>
	<trkpt lat="51.73846" lon="-2.079171667"><ele>195.000000</ele><time>2010-07-21T10:55:01Z</time></trkpt>
	<trkpt lat="51.73840167" lon="-2.079135"><ele>195.000000</ele><time>2010-07-21T10:55:06Z</time></trkpt>
	<trkpt lat="51.73835" lon="-2.079106667"><ele>196.000000</ele><time>2010-07-21T10:55:11Z</time></trkpt>
	<trkpt lat="51.73829667" lon="-2.079076667"><ele>196.000000</ele><time>2010-07-21T10:55:16Z</time></trkpt>
	<trkpt lat="51.73824833" lon="-2.079048333"><ele>197.000000</ele><time>2010-07-21T10:55:21Z</time></trkpt>
	<trkpt lat="51.7382" lon="-2.079018333"><ele>197.000000</ele><time>2010-07-21T10:55:26Z</time></trkpt>
	<trkpt lat="51.73815167" lon="-2.078986667"><ele>197.000000</ele><time>2010-07-21T10:55:31Z</time></trkpt>
	<trkpt lat="51.7381" lon="-2.078963333"><ele>198.000000</ele><time>2010-07-21T10:55:36Z</time></trkpt>
	<trkpt lat="51.738045" lon="-2.078943333"><ele>198.000000</ele><time>2010-07-21T10:55:41Z</time></trkpt>
	<trkpt lat="51.73799167" lon="-2.078908333"><ele>198.000000</ele><time>2010-07-21T10:55:46Z</time></trkpt>
	<trkpt lat="51.73795" lon="-2.078865"><ele>197.000000</ele><time>2010-07-21T10:55:51Z</time></trkpt>
	<trkpt lat="51.73790333" lon="-2.078828333"><ele>196.000000</ele><time>2010-07-21T10:55:56Z</time></trkpt>
	<trkpt lat="51.73785333" lon="-2.078793333"><ele>196.000000</ele><time>2010-07-21T10:56:01Z</time></trkpt>
	<trkpt lat="51.737805" lon="-2.078758333"><ele>196.000000</ele><time>2010-07-21T10:56:06Z</time></trkpt>
	<trkpt lat="51.73775667" lon="-2.078723333"><ele>195.000000</ele><time>2010-07-21T10:56:11Z</time></trkpt>
	<trkpt lat="51.73771" lon="-2.078686667"><ele>195.000000</ele><time>2010-07-21T10:56:16Z</time></trkpt>
	<trkpt lat="51.73766" lon="-2.078653333"><ele>195.000000</ele><time>2010-07-21T10:56:21Z</time></trkpt>
	<trkpt lat="51.73761" lon="-2.078623333"><ele>195.000000</ele><time>2010-07-21T10:56:26Z</time></trkpt>
	<trkpt lat="51.73756167" lon="-2.078593333"><ele>195.000000</ele><time>2010-07-21T10:56:31Z</time></trkpt>
	<trkpt lat="51.73751" lon="-2.078555"><ele>196.000000</ele><time>2010-07-21T10:56:36Z</time></trkpt>
	<trkpt lat="51.73746" lon="-2.078533333"><ele>196.000000</ele><time>2010-07-21T10:56:41Z</time></trkpt>
	<trkpt lat="51.73743833" lon="-2.07852"><ele>196.000000</ele><time>2010-07-21T10:56:46Z</time></trkpt>
	<trkpt lat="51.737395" lon="-2.078478333"><ele>196.000000</ele><time>2010-07-21T10:56:51Z</time></trkpt>
	<trkpt lat="51.73733833" lon="-2.078445"><ele>196.000000</ele><time>2010-07-21T10:56:56Z</time></trkpt>
	<trkpt lat="51.73728833" lon="-2.078416667"><ele>196.000000</ele><time>2010-07-21T10:57:01Z</time></trkpt>
	<trkpt lat="51.73723667" lon="-2.078388333"><ele>197.000000</ele><time>2010-07-21T10:57:06Z</time></trkpt>
	<trkpt lat="51.737195" lon="-2.078348333"><ele>198.000000</ele><time>2010-07-21T10:57:11Z</time></trkpt>
	<trkpt lat="51.73714333" lon="-2.078301667"><ele>197.000000</ele><time>2010-07-21T10:57:16Z</time></trkpt>
	<trkpt lat="51.73709333" lon="-2.078255"><ele>197.000000</ele><time>2010-07-21T10:57:21Z</time></trkpt>
	<trkpt lat="51.73704167" lon="-2.078208333"><ele>196.000000</ele><time>2010-07-21T10:57:26Z</time></trkpt>
	<trkpt lat="51.73699167" lon="-2.078155"><ele>195.000000</ele><time>2010-07-21T10:57:31Z</time></trkpt>
	<trkpt lat="51.73694333" lon="-2.078103333"><ele>194.000000</ele><time>2010-07-21T10:57:36Z</time></trkpt>
	<trkpt lat="51.73690167" lon="-2.078048333"><ele>194.000000</ele><time>2010-07-21T10:57:41Z</time></trkpt>
	<trkpt lat="51.73685333" lon="-2.078003333"><ele>194.000000</ele><time>2010-07-21T10:57:46Z</time></trkpt>
	<trkpt lat="51.73680667" lon="-2.07795"><ele>194.000000</ele><time>2010-07-21T10:57:51Z</time></trkpt>
	<trkpt lat="51.73675333" lon="-2.077915"><ele>194.000000</ele><time>2010-07-21T10:57:56Z</time></trkpt>
	<trkpt lat="51.73669833" lon="-2.077881667"><ele>195.000000</ele><time>2010-07-21T10:58:01Z</time></trkpt>
	<trkpt lat="51.73664333" lon="-2.077848333"><ele>195.000000</ele><time>2010-07-21T10:58:06Z</time></trkpt>
	<trkpt lat="51.73658667" lon="-2.077815"><ele>196.000000</ele><time>2010-07-21T10:58:11Z</time></trkpt>
	<trkpt lat="51.73653333" lon="-2.077788333"><ele>196.000000</ele><time>2010-07-21T10:58:16Z</time></trkpt>
	<trkpt lat="51.73647833" lon="-2.077748333"><ele>196.000000</ele><time>2010-07-21T10:58:21Z</time></trkpt>
	<trkpt lat="51.73642333" lon="-2.077708333"><ele>196.000000</ele><time>2010-07-21T10:58:26Z</time></trkpt>
	<trkpt lat="51.73636833" lon="-2.077671667"><ele>197.000000</ele><time>2010-07-21T10:58:31Z</time></trkpt>
	<trkpt lat="51.736315" lon="-2.07764"><ele>197.000000</ele><time>2010-07-21T10:58:36Z</time></trkpt>
	<trkpt lat="51.73626333" lon="-2.077603333"><ele>197.000000</ele><time>2010-07-21T10:58:41Z</time></trkpt>
	<trkpt lat="51.73621167" lon="-2.077571667"><ele>197.000000</ele><time>2010-07-21T10:58:46Z</time></trkpt>
	<trkpt lat="51.73616167" lon="-2.07754"><ele>197.000000</ele><time>2010-07-21T10:58:51Z</time></trkpt>
	<trkpt lat="51.73611833" lon="-2.077506667"><ele>197.000000</ele><time>2010-07-21T10:58:56Z</time></trkpt>
	<trkpt lat="51.73607333" lon="-2.077475"><ele>197.000000</ele><time>2010-07-21T10:59:01Z</time></trkpt>
	<trkpt lat="51.73603" lon="-2.077445"><ele>195.000000</ele><time>2010-07-21T10:59:06Z</time></trkpt>
	<trkpt lat="51.736025" lon="-2.077416667"><ele>195.000000</ele><time>2010-07-21T10:59:11Z</time></trkpt>
	<trkpt lat="51.73601333" lon="-2.077383333"><ele>196.000000</ele><time>2010-07-21T10:59:16Z</time></trkpt>
	<trkpt lat="51.736" lon="-2.07736"><ele>194.000000</ele><time>2010-07-21T10:59:21Z</time></trkpt>
	<trkpt lat="51.73596667" lon="-2.07735"><ele>190.000000</ele><time>2010-07-21T10:59:26Z</time></trkpt>
	<trkpt lat="51.73596667" lon="-2.077351667"><ele>190.000000</ele><time>2010-07-21T10:59:31Z</time></trkpt>
	<trkpt lat="51.73594833" lon="-2.07736"><ele>190.000000</ele><time>2010-07-21T10:59:36Z</time></trkpt>
	<trkpt lat="51.73594833" lon="-2.077338333"><ele>189.000000</ele><time>2010-07-21T10:59:41Z</time></trkpt>
	<trkpt lat="51.73593" lon="-2.077311667"><ele>191.000000</ele><time>2010-07-21T10:59:46Z</time></trkpt>
	<trkpt lat="51.73591" lon="-2.077301667"><ele>187.000000</ele><time>2010-07-21T10:59:51Z</time></trkpt>
	<trkpt lat="51.73589333" lon="-2.07727"><ele>186.000000</ele><time>2010-07-21T10:59:56Z</time></trkpt>
	<trkpt lat="51.73586167" lon="-2.077255"><ele>185.000000</ele><time>2010-07-21T11:00:01Z</time></trkpt>
	<trkpt lat="51.735835" lon="-2.077231667"><ele>187.000000</ele><time>2010-07-21T11:00:06Z</time></trkpt>
	<trkpt lat="51.73582167" lon="-2.077216667"><ele>189.000000</ele><time>2010-07-21T11:00:11Z</time></trkpt>
	<trkpt lat="51.73580833" lon="-2.07721"><ele>189.000000</ele><time>2010-07-21T11:00:16Z</time></trkpt>
	<trkpt lat="51.73578833" lon="-2.077231667"><ele>189.000000</ele><time>2010-07-21T11:00:21Z</time></trkpt>
	<trkpt lat="51.73575" lon="-2.077253333"><ele>189.000000</ele><time>2010-07-21T11:00:26Z</time></trkpt>
	<trkpt lat="51.73571167" lon="-2.077246667"><ele>190.000000</ele><time>2010-07-21T11:00:31Z</time></trkpt>
	<trkpt lat="51.73568833" lon="-2.077263333"><ele>189.000000</ele><time>2010-07-21T11:00:36Z</time></trkpt>
	<trkpt lat="51.73567167" lon="-2.077285"><ele>190.000000</ele><time>2010-07-21T11:00:41Z</time></trkpt>
	<trkpt lat="51.73562833" lon="-2.077286667"><ele>192.000000</ele><time>2010-07-21T11:00:46Z</time></trkpt>
	<trkpt lat="51.7356" lon="-2.077316667"><ele>194.000000</ele><time>2010-07-21T11:00:51Z</time></trkpt>
	<trkpt lat="51.73556167" lon="-2.077336667"><ele>195.000000</ele><time>2010-07-21T11:00:56Z</time></trkpt>
	<trkpt lat="51.73553167" lon="-2.07736"><ele>191.000000</ele><time>2010-07-21T11:01:01Z</time></trkpt>
	<trkpt lat="51.73550167" lon="-2.077391667"><ele>190.000000</ele><time>2010-07-21T11:01:06Z</time></trkpt>
	<trkpt lat="51.735435" lon="-2.077438333"><ele>187.000000</ele><time>2010-07-21T11:01:11Z</time></trkpt>
	<trkpt lat="51.73537333" lon="-2.077465"><ele>186.000000</ele><time>2010-07-21T11:01:16Z</time></trkpt>
	<trkpt lat="51.73533333" lon="-2.077503333"><ele>185.000000</ele><time>2010-07-21T11:01:21Z</time></trkpt>
	<trkpt lat="51.735295" lon="-2.077528333"><ele>187.000000</ele><time>2010-07-21T11:01:26Z</time></trkpt>
	<trkpt lat="51.73526833" lon="-2.077546667"><ele>188.000000</ele><time>2010-07-21T11:01:31Z</time></trkpt>
	<trkpt lat="51.73524333" lon="-2.077558333"><ele>188.000000</ele><time>2010-07-21T11:01:36Z</time></trkpt>
	<trkpt lat="51.735195" lon="-2.077555"><ele>187.000000</ele><time>2010-07-21T11:01:41Z</time></trkpt>
	<trkpt lat="51.73515667" lon="-2.077538333"><ele>188.000000</ele><time>2010-07-21T11:01:46Z</time></trkpt>
	<trkpt lat="51.73512333" lon="-2.0775"><ele>188.000000</ele><time>2010-07-21T11:01:51Z</time></trkpt>
	<trkpt lat="51.73508" lon="-2.077496667"><ele>188.000000</ele><time>2010-07-21T11:01:56Z</time></trkpt>
	<trkpt lat="51.735035" lon="-2.077508333"><ele>187.000000</ele><time>2010-07-21T11:02:01Z</time></trkpt>
	<trkpt lat="51.73498667" lon="-2.077503333"><ele>189.000000</ele><time>2010-07-21T11:02:06Z</time></trkpt>
	<trkpt lat="51.73493167" lon="-2.077498333"><ele>192.000000</ele><time>2010-07-21T11:02:11Z</time></trkpt>
	<trkpt lat="51.73488667" lon="-2.077506667"><ele>191.000000</ele><time>2010-07-21T11:02:16Z</time></trkpt>
	<trkpt lat="51.73484667" lon="-2.077475"><ele>194.000000</ele><time>2010-07-21T11:02:21Z</time></trkpt>
	<trkpt lat="51.734795" lon="-2.077485"><ele>193.000000</ele><time>2010-07-21T11:02:26Z</time></trkpt>
	<trkpt lat="51.73472" lon="-2.077495"><ele>188.000000</ele><time>2010-07-21T11:02:31Z</time></trkpt>
	<trkpt lat="51.73468" lon="-2.077516667"><ele>185.000000</ele><time>2010-07-21T11:02:36Z</time></trkpt>
	<trkpt lat="51.73465" lon="-2.077521667"><ele>182.000000</ele><time>2010-07-21T11:02:41Z</time></trkpt>
	<trkpt lat="51.734625" lon="-2.077531667"><ele>181.000000</ele><time>2010-07-21T11:02:46Z</time></trkpt>
	<trkpt lat="51.73461833" lon="-2.077523333"><ele>179.000000</ele><time>2010-07-21T11:02:51Z</time></trkpt>
	<trkpt lat="51.73460667" lon="-2.077498333"><ele>175.000000</ele><time>2010-07-21T11:02:56Z</time></trkpt>
	<trkpt lat="51.73456" lon="-2.077455"><ele>171.000000</ele><time>2010-07-21T11:03:01Z</time></trkpt>
	<trkpt lat="51.73454333" lon="-2.077403333"><ele>167.000000</ele><time>2010-07-21T11:03:06Z</time></trkpt>
	<trkpt lat="51.73452667" lon="-2.07736"><ele>165.000000</ele><time>2010-07-21T11:03:11Z</time></trkpt>
	<trkpt lat="51.73451667" lon="-2.077338333"><ele>164.000000</ele><time>2010-07-21T11:03:16Z</time></trkpt>
	<trkpt lat="51.73449" lon="-2.077281667"><ele>165.000000</ele><time>2010-07-21T11:03:21Z</time></trkpt>
	<trkpt lat="51.73444833" lon="-2.077206667"><ele>167.000000</ele><time>2010-07-21T11:03:26Z</time></trkpt>
	<trkpt lat="51.73442667" lon="-2.077151667"><ele>169.000000</ele><time>2010-07-21T11:03:31Z</time></trkpt>
	<trkpt lat="51.734425" lon="-2.0771"><ele>169.000000</ele><time>2010-07-21T11:03:36Z</time></trkpt>
	<trkpt lat="51.734415" lon="-2.07705"><ele>167.000000</ele><time>2010-07-21T11:03:41Z</time></trkpt>
	<trkpt lat="51.734395" lon="-2.077003333"><ele>165.000000</ele><time>2010-07-21T11:03:46Z</time></trkpt>
	<trkpt lat="51.73437333" lon="-2.07696"><ele>161.000000</ele><time>2010-07-21T11:03:51Z</time></trkpt>
	<trkpt lat="51.734385" lon="-2.076895"><ele>161.000000</ele><time>2010-07-21T11:03:56Z</time></trkpt>
	<trkpt lat="51.73438167" lon="-2.076858333"><ele>161.000000</ele><time>2010-07-21T11:04:02Z</time></trkpt>
	<trkpt lat="51.73437333" lon="-2.076818333"><ele>161.000000</ele><time>2010-07-21T11:04:07Z</time></trkpt>
	<trkpt lat="51.73438" lon="-2.07677"><ele>164.000000</ele><time>2010-07-21T11:04:12Z</time></trkpt>
	<trkpt lat="51.73438167" lon="-2.076736667"><ele>164.000000</ele><time>2010-07-21T11:04:17Z</time></trkpt>
	<trkpt lat="51.73434" lon="-2.076716667"><ele>162.000000</ele><time>2010-07-21T11:04:22Z</time></trkpt>
	<trkpt lat="51.73432333" lon="-2.07668"><ele>162.000000</ele><time>2010-07-21T11:04:27Z</time></trkpt>
	<trkpt lat="51.734315" lon="-2.07665"><ele>162.000000</ele><time>2010-07-21T11:04:32Z</time></trkpt>
	<trkpt lat="51.73431" lon="-2.07659"><ele>158.000000</ele><time>2010-07-21T11:04:37Z</time></trkpt>
	<trkpt lat="51.73429333" lon="-2.076573333"><ele>156.000000</ele><time>2010-07-21T11:04:42Z</time></trkpt>
	<trkpt lat="51.73425667" lon="-2.076533333"><ele>151.000000</ele><time>2010-07-21T11:04:47Z</time></trkpt>
	<trkpt lat="51.73420333" lon="-2.076518333"><ele>150.000000</ele><time>2010-07-21T11:04:52Z</time></trkpt>
	<trkpt lat="51.73416333" lon="-2.07651"><ele>149.000000</ele><time>2010-07-21T11:04:57Z</time></trkpt>
	<trkpt lat="51.73413833" lon="-2.076505"><ele>147.000000</ele><time>2010-07-21T11:05:02Z</time></trkpt>
	<trkpt lat="51.734055" lon="-2.076518333"><ele>146.000000</ele><time>2010-07-21T11:05:07Z</time></trkpt>
	<trkpt lat="51.73402833" lon="-2.076551667"><ele>142.000000</ele><time>2010-07-21T11:05:12Z</time></trkpt>
	<trkpt lat="51.734015" lon="-2.076566667"><ele>141.000000</ele><time>2010-07-21T11:05:17Z</time></trkpt>
	<trkpt lat="51.73397" lon="-2.076598333"><ele>142.000000</ele><time>2010-07-21T11:05:22Z</time></trkpt>
	<trkpt lat="51.73393833" lon="-2.076613333"><ele>143.000000</ele><time>2010-07-21T11:05:27Z</time></trkpt>
	<trkpt lat="51.73390333" lon="-2.076626667"><ele>144.000000</ele><time>2010-07-21T11:05:32Z</time></trkpt>
	<trkpt lat="51.733875" lon="-2.076656667"><ele>146.000000</ele><time>2010-07-21T11:05:37Z</time></trkpt>
	<trkpt lat="51.73385167" lon="-2.076661667"><ele>148.000000</ele><time>2010-07-21T11:05:42Z</time></trkpt>
	<trkpt lat="51.73381167" lon="-2.076661667"><ele>150.000000</ele><time>2010-07-21T11:05:47Z</time></trkpt>
	<trkpt lat="51.73378333" lon="-2.076665"><ele>152.000000</ele><time>2010-07-21T11:05:52Z</time></trkpt>
	<trkpt lat="51.73376667" lon="-2.076678333"><ele>151.000000</ele><time>2010-07-21T11:05:57Z</time></trkpt>
	<trkpt lat="51.73375" lon="-2.076708333"><ele>152.000000</ele><time>2010-07-21T11:06:02Z</time></trkpt>
	<trkpt lat="51.73372833" lon="-2.076726667"><ele>151.000000</ele><time>2010-07-21T11:06:07Z</time></trkpt>
	<trkpt lat="51.7337" lon="-2.076756667"><ele>150.000000</ele><time>2010-07-21T11:06:12Z</time></trkpt>
	<trkpt lat="51.73369167" lon="-2.076775"><ele>150.000000</ele><time>2010-07-21T11:06:17Z</time></trkpt>
	<trkpt lat="51.73367" lon="-2.076813333"><ele>152.000000</ele><time>2010-07-21T11:06:22Z</time></trkpt>
	<trkpt lat="51.73364667" lon="-2.076846667"><ele>150.000000</ele><time>2010-07-21T11:06:27Z</time></trkpt>
	<trkpt lat="51.73361333" lon="-2.076903333"><ele>146.000000</ele><time>2010-07-21T11:06:32Z</time></trkpt>
	<trkpt lat="51.73356833" lon="-2.076941667"><ele>143.000000</ele><time>2010-07-21T11:06:37Z</time></trkpt>
	<trkpt lat="51.733535" lon="-2.076968333"><ele>142.000000</ele><time>2010-07-21T11:06:42Z</time></trkpt>
	<trkpt lat="51.73349167" lon="-2.077021667"><ele>141.000000</ele><time>2010-07-21T11:06:47Z</time></trkpt>
	<trkpt lat="51.73345667" lon="-2.077068333"><ele>143.000000</ele><time>2010-07-21T11:06:52Z</time></trkpt>
	<trkpt lat="51.73340833" lon="-2.077116667"><ele>140.000000</ele><time>2010-07-21T11:06:57Z</time></trkpt>
	<trkpt lat="51.733365" lon="-2.077163333"><ele>137.000000</ele><time>2010-07-21T11:07:02Z</time></trkpt>
	<trkpt lat="51.73332833" lon="-2.07723"><ele>132.000000</ele><time>2010-07-21T11:07:07Z</time></trkpt>
	<trkpt lat="51.73329333" lon="-2.077285"><ele>130.000000</ele><time>2010-07-21T11:07:12Z</time></trkpt>
	<trkpt lat="51.733265" lon="-2.077328333"><ele>131.000000</ele><time>2010-07-21T11:07:17Z</time></trkpt>
	<trkpt lat="51.73325167" lon="-2.077353333"><ele>138.000000</ele><time>2010-07-21T11:07:22Z</time></trkpt>
	<trkpt lat="51.73320833" lon="-2.077403333"><ele>143.000000</ele><time>2010-07-21T11:07:27Z</time></trkpt>
	<trkpt lat="51.733175" lon="-2.077453333"><ele>147.000000</ele><time>2010-07-21T11:07:32Z</time></trkpt>
	<trkpt lat="51.73318167" lon="-2.077518333"><ele>148.000000</ele><time>2010-07-21T11:07:37Z</time></trkpt>
	<trkpt lat="51.73314" lon="-2.07758"><ele>142.000000</ele><time>2010-07-21T11:07:42Z</time></trkpt>
	<trkpt lat="51.7331" lon="-2.07765"><ele>141.000000</ele><time>2010-07-21T11:07:47Z</time></trkpt>
	<trkpt lat="51.73305" lon="-2.077706667"><ele>141.000000</ele><time>2010-07-21T11:07:52Z</time></trkpt>
	<trkpt lat="51.73299667" lon="-2.077735"><ele>145.000000</ele><time>2010-07-21T11:07:57Z</time></trkpt>
	<trkpt lat="51.73295333" lon="-2.077786667"><ele>144.000000</ele><time>2010-07-21T11:08:02Z</time></trkpt>
	<trkpt lat="51.73292333" lon="-2.077813333"><ele>144.000000</ele><time>2010-07-21T11:08:07Z</time></trkpt>
	<trkpt lat="51.73287833" lon="-2.07786"><ele>142.000000</ele><time>2010-07-21T11:08:12Z</time></trkpt>
	<trkpt lat="51.73282667" lon="-2.077916667"><ele>141.000000</ele><time>2010-07-21T11:08:17Z</time></trkpt>
	<trkpt lat="51.732765" lon="-2.077973333"><ele>140.000000</ele><time>2010-07-21T11:08:22Z</time></trkpt>
	<trkpt lat="51.73272167" lon="-2.077976667"><ele>140.000000</ele><time>2010-07-21T11:08:27Z</time></trkpt>
	<trkpt lat="51.73269333" lon="-2.077976667"><ele>141.000000</ele><time>2010-07-21T11:08:32Z</time></trkpt>
	<trkpt lat="51.732655" lon="-2.07797"><ele>144.000000</ele><time>2010-07-21T11:08:37Z</time></trkpt>
	<trkpt lat="51.732615" lon="-2.077966667"><ele>144.000000</ele><time>2010-07-21T11:08:42Z</time></trkpt>
	<trkpt lat="51.732565" lon="-2.077978333"><ele>141.000000</ele><time>2010-07-21T11:08:47Z</time></trkpt>
	<trkpt lat="51.73251" lon="-2.077988333"><ele>138.000000</ele><time>2010-07-21T11:08:52Z</time></trkpt>
	<trkpt lat="51.73245" lon="-2.07801"><ele>137.000000</ele><time>2010-07-21T11:08:57Z</time></trkpt>
	<trkpt lat="51.73242167" lon="-2.078006667"><ele>140.000000</ele><time>2010-07-21T11:09:02Z</time></trkpt>
	<trkpt lat="51.73239" lon="-2.078051667"><ele>137.000000</ele><time>2010-07-21T11:09:07Z</time></trkpt>
	<trkpt lat="51.73236167" lon="-2.078095"><ele>134.000000</ele><time>2010-07-21T11:09:12Z</time></trkpt>
	<trkpt lat="51.73234" lon="-2.078116667"><ele>134.000000</ele><time>2010-07-21T11:09:17Z</time></trkpt>
	<trkpt lat="51.73233" lon="-2.078121667"><ele>133.000000</ele><time>2010-07-21T11:09:22Z</time></trkpt>
	<trkpt lat="51.732325" lon="-2.078111667"><ele>136.000000</ele><time>2010-07-21T11:09:27Z</time></trkpt>
	<trkpt lat="51.73231" lon="-2.078095"><ele>141.000000</ele><time>2010-07-21T11:09:32Z</time></trkpt>
	<trkpt lat="51.73227833" lon="-2.078105"><ele>140.000000</ele><time>2010-07-21T11:09:37Z</time></trkpt>
	<trkpt lat="51.73224" lon="-2.078101667"><ele>134.000000</ele><time>2010-07-21T11:09:42Z</time></trkpt>
	<trkpt lat="51.73226167" lon="-2.078086667"><ele>139.000000</ele><time>2010-07-21T11:09:47Z</time></trkpt>
	<trkpt lat="51.73227833" lon="-2.078093333"><ele>140.000000</ele><time>2010-07-21T11:09:52Z</time></trkpt>
	<trkpt lat="51.73228667" lon="-2.078101667"><ele>141.000000</ele><time>2010-07-21T11:09:57Z</time></trkpt>
	<trkpt lat="51.73229167" lon="-2.078103333"><ele>141.000000</ele><time>2010-07-21T11:10:02Z</time></trkpt>
	<trkpt lat="51.73228167" lon="-2.078121667"><ele>138.000000</ele><time>2010-07-21T11:10:07Z</time></trkpt>
	<trkpt lat="51.732275" lon="-2.07814"><ele>134.000000</ele><time>2010-07-21T11:10:12Z</time></trkpt>
	<trkpt lat="51.73227667" lon="-2.07816"><ele>131.000000</ele><time>2010-07-21T11:10:17Z</time></trkpt>
	<trkpt lat="51.73227167" lon="-2.07818"><ele>125.000000</ele><time>2010-07-21T11:10:22Z</time></trkpt>
	<trkpt lat="51.732275" lon="-2.07821"><ele>118.000000</ele><time>2010-07-21T11:10:27Z</time></trkpt>
	<trkpt lat="51.732275" lon="-2.078211667"><ele>116.000000</ele><time>2010-07-21T11:10:32Z</time></trkpt>
	<trkpt lat="51.73224167" lon="-2.078231667"><ele>112.000000</ele><time>2010-07-21T11:10:37Z</time></trkpt>
	<trkpt lat="51.73223667" lon="-2.078245"><ele>115.000000</ele><time>2010-07-21T11:10:42Z</time></trkpt>
	<trkpt lat="51.73221167" lon="-2.07825"><ele>115.000000</ele><time>2010-07-21T11:10:47Z</time></trkpt>
	<trkpt lat="51.73221167" lon="-2.07826"><ele>116.000000</ele><time>2010-07-21T11:10:52Z</time></trkpt>
	<trkpt lat="51.73217667" lon="-2.07826"><ele>117.000000</ele><time>2010-07-21T11:10:57Z</time></trkpt>
	<trkpt lat="51.73215167" lon="-2.078281667"><ele>117.000000</ele><time>2010-07-21T11:11:02Z</time></trkpt>
	<trkpt lat="51.73215167" lon="-2.078316667"><ele>119.000000</ele><time>2010-07-21T11:11:07Z</time></trkpt>
	<trkpt lat="51.73212" lon="-2.078328333"><ele>120.000000</ele><time>2010-07-21T11:11:12Z</time></trkpt>
	<trkpt lat="51.73209667" lon="-2.078363333"><ele>121.000000</ele><time>2010-07-21T11:11:17Z</time></trkpt>
	<trkpt lat="51.732075" lon="-2.078391667"><ele>121.000000</ele><time>2010-07-21T11:11:22Z</time></trkpt>
	<trkpt lat="51.73204667" lon="-2.078413333"><ele>118.000000</ele><time>2010-07-21T11:11:27Z</time></trkpt>
	<trkpt lat="51.73202333" lon="-2.078436667"><ele>116.000000</ele><time>2010-07-21T11:11:32Z</time></trkpt>
	<trkpt lat="51.73199" lon="-2.07846"><ele>117.000000</ele><time>2010-07-21T11:11:37Z</time></trkpt>
	<trkpt lat="51.73198667" lon="-2.078476667"><ele>118.000000</ele><time>2010-07-21T11:11:42Z</time></trkpt>
	<trkpt lat="51.73197167" lon="-2.078501667"><ele>121.000000</ele><time>2010-07-21T11:11:47Z</time></trkpt>
	<trkpt lat="51.73195333" lon="-2.078521667"><ele>122.000000</ele><time>2010-07-21T11:11:52Z</time></trkpt>
	<trkpt lat="51.73191667" lon="-2.078515"><ele>126.000000</ele><time>2010-07-21T11:11:57Z</time></trkpt>
	<trkpt lat="51.731895" lon="-2.078486667"><ele>128.000000</ele><time>2010-07-21T11:12:02Z</time></trkpt>
	<trkpt lat="51.73187" lon="-2.078468333"><ele>129.000000</ele><time>2010-07-21T11:12:07Z</time></trkpt>
	<trkpt lat="51.73183667" lon="-2.078448333"><ele>128.000000</ele><time>2010-07-21T11:12:12Z</time></trkpt>
	<trkpt lat="51.73180333" lon="-2.07842"><ele>128.000000</ele><time>2010-07-21T11:12:17Z</time></trkpt>
	<trkpt lat="51.73177167" lon="-2.078385"><ele>128.000000</ele><time>2010-07-21T11:12:22Z</time></trkpt>
	<trkpt lat="51.73174" lon="-2.078356667"><ele>129.000000</ele><time>2010-07-21T11:12:27Z</time></trkpt>
	<trkpt lat="51.73172" lon="-2.07833"><ele>129.000000</ele><time>2010-07-21T11:12:32Z</time></trkpt>
	<trkpt lat="51.73169833" lon="-2.078285"><ele>128.000000</ele><time>2010-07-21T11:12:37Z</time></trkpt>
	<trkpt lat="51.73167833" lon="-2.078243333"><ele>127.000000</ele><time>2010-07-21T11:12:42Z</time></trkpt>
	<trkpt lat="51.73165333" lon="-2.07821"><ele>128.000000</ele><time>2010-07-21T11:12:47Z</time></trkpt>
	<trkpt lat="51.73163333" lon="-2.078178333"><ele>128.000000</ele><time>2010-07-21T11:12:52Z</time></trkpt>
	<trkpt lat="51.73161333" lon="-2.07814"><ele>128.000000</ele><time>2010-07-21T11:12:57Z</time></trkpt>
	<trkpt lat="51.731595" lon="-2.078106667"><ele>128.000000</ele><time>2010-07-21T11:13:02Z</time></trkpt>
	<trkpt lat="51.73158" lon="-2.078075"><ele>129.000000</ele><time>2010-07-21T11:13:07Z</time></trkpt>
	<trkpt lat="51.73156667" lon="-2.078041667"><ele>129.000000</ele><time>2010-07-21T11:13:12Z</time></trkpt>
	<trkpt lat="51.73156" lon="-2.078016667"><ele>129.000000</ele><time>2010-07-21T11:13:17Z</time></trkpt>
	<trkpt lat="51.731545" lon="-2.077988333"><ele>129.000000</ele><time>2010-07-21T11:13:22Z</time></trkpt>
	<trkpt lat="51.73154" lon="-2.077951667"><ele>129.000000</ele><time>2010-07-21T11:13:27Z</time></trkpt>
	<trkpt lat="51.73152667" lon="-2.077908333"><ele>129.000000</ele><time>2010-07-21T11:13:32Z</time></trkpt>
	<trkpt lat="51.73151833" lon="-2.077866667"><ele>130.000000</ele><time>2010-07-21T11:13:37Z</time></trkpt>
	<trkpt lat="51.73150667" lon="-2.077826667"><ele>130.000000</ele><time>2010-07-21T11:13:42Z</time></trkpt>
	<trkpt lat="51.73149833" lon="-2.077781667"><ele>130.000000</ele><time>2010-07-21T11:13:47Z</time></trkpt>
	<trkpt lat="51.73149167" lon="-2.077753333"><ele>130.000000</ele><time>2010-07-21T11:13:52Z</time></trkpt>
	<trkpt lat="51.731485" lon="-2.077758333"><ele>129.000000</ele><time>2010-07-21T11:13:57Z</time></trkpt>
	<trkpt lat="51.73148833" lon="-2.077763333"><ele>130.000000</ele><time>2010-07-21T11:14:02Z</time></trkpt>
	<trkpt lat="51.73147" lon="-2.07776"><ele>133.000000</ele><time>2010-07-21T11:14:07Z</time></trkpt>
	<trkpt lat="51.73145167" lon="-2.077748333"><ele>135.000000</ele><time>2010-07-21T11:14:12Z</time></trkpt>
	<trkpt lat="51.73143" lon="-2.077738333"><ele>136.000000</ele><time>2010-07-21T11:14:17Z</time></trkpt>
	<trkpt lat="51.7314" lon="-2.077731667"><ele>135.000000</ele><time>2010-07-21T11:14:22Z</time></trkpt>
	<trkpt lat="51.73138" lon="-2.077726667"><ele>136.000000</ele><time>2010-07-21T11:14:27Z</time></trkpt>
	<trkpt lat="51.73136333" lon="-2.07772"><ele>136.000000</ele><time>2010-07-21T11:14:32Z</time></trkpt>
	<trkpt lat="51.731355" lon="-2.077708333"><ele>137.000000</ele><time>2010-07-21T11:14:37Z</time></trkpt>
	<trkpt lat="51.73134833" lon="-2.077696667"><ele>138.000000</ele><time>2010-07-21T11:14:42Z</time></trkpt>
	<trkpt lat="51.731335" lon="-2.077701667"><ele>141.000000</ele><time>2010-07-21T11:14:47Z</time></trkpt>
	<trkpt lat="51.73132833" lon="-2.077703333"><ele>143.000000</ele><time>2010-07-21T11:14:52Z</time></trkpt>
	<trkpt lat="51.73129833" lon="-2.077698333"><ele>143.000000</ele><time>2010-07-21T11:14:57Z</time></trkpt>
	<trkpt lat="51.73126333" lon="-2.077685"><ele>142.000000</ele><time>2010-07-21T11:15:02Z</time></trkpt>
	<trkpt lat="51.73123" lon="-2.07767"><ele>142.000000</ele><time>2010-07-21T11:15:07Z</time></trkpt>
	<trkpt lat="51.73120333" lon="-2.077646667"><ele>144.000000</ele><time>2010-07-21T11:15:12Z</time></trkpt>
	<trkpt lat="51.731195" lon="-2.077646667"><ele>146.000000</ele><time>2010-07-21T11:15:17Z</time></trkpt>
	<trkpt lat="51.731175" lon="-2.077641667"><ele>145.000000</ele><time>2010-07-21T11:15:22Z</time></trkpt>
	<trkpt lat="51.73115167" lon="-2.077615"><ele>144.000000</ele><time>2010-07-21T11:15:27Z</time></trkpt>
	<trkpt lat="51.73111833" lon="-2.077601667"><ele>142.000000</ele><time>2010-07-21T11:15:32Z</time></trkpt>
	<trkpt lat="51.73109" lon="-2.077593333"><ele>141.000000</ele><time>2010-07-21T11:15:37Z</time></trkpt>
	<trkpt lat="51.73106167" lon="-2.077563333"><ele>142.000000</ele><time>2010-07-21T11:15:42Z</time></trkpt>
	<trkpt lat="51.73103333" lon="-2.07755"><ele>142.000000</ele><time>2010-07-21T11:15:47Z</time></trkpt>
	<trkpt lat="51.73101" lon="-2.077545"><ele>143.000000</ele><time>2010-07-21T11:15:52Z</time></trkpt>
	<trkpt lat="51.73098833" lon="-2.077546667"><ele>144.000000</ele><time>2010-07-21T11:15:57Z</time></trkpt>
	<trkpt lat="51.73095667" lon="-2.077571667"><ele>147.000000</ele><time>2010-07-21T11:16:02Z</time></trkpt>
	<trkpt lat="51.73094167" lon="-2.077571667"><ele>149.000000</ele><time>2010-07-21T11:16:07Z</time></trkpt>
	<trkpt lat="51.730925" lon="-2.077595"><ele>150.000000</ele><time>2010-07-21T11:16:12Z</time></trkpt>
	<trkpt lat="51.730895" lon="-2.07761"><ele>150.000000</ele><time>2010-07-21T11:16:17Z</time></trkpt>
	<trkpt lat="51.730855" lon="-2.077651667"><ele>153.000000</ele><time>2010-07-21T11:16:22Z</time></trkpt>
	<trkpt lat="51.73083333" lon="-2.077681667"><ele>155.000000</ele><time>2010-07-21T11:16:27Z</time></trkpt>
	<trkpt lat="51.73080833" lon="-2.077681667"><ele>155.000000</ele><time>2010-07-21T11:16:32Z</time></trkpt>
	<trkpt lat="51.730785" lon="-2.077678333"><ele>153.000000</ele><time>2010-07-21T11:16:37Z</time></trkpt>
	<trkpt lat="51.73074667" lon="-2.077686667"><ele>150.000000</ele><time>2010-07-21T11:16:42Z</time></trkpt>
	<trkpt lat="51.73070167" lon="-2.077683333"><ele>148.000000</ele><time>2010-07-21T11:16:47Z</time></trkpt>
	<trkpt lat="51.73066333" lon="-2.077673333"><ele>147.000000</ele><time>2010-07-21T11:16:52Z</time></trkpt>
	<trkpt lat="51.73063167" lon="-2.077671667"><ele>149.000000</ele><time>2010-07-21T11:16:57Z</time></trkpt>
	<trkpt lat="51.73060833" lon="-2.077665"><ele>149.000000</ele><time>2010-07-21T11:17:02Z</time></trkpt>
	<trkpt lat="51.73058" lon="-2.07766"><ele>150.000000</ele><time>2010-07-21T11:17:07Z</time></trkpt>
	<trkpt lat="51.73056167" lon="-2.07765"><ele>152.000000</ele><time>2010-07-21T11:17:12Z</time></trkpt>
	<trkpt lat="51.73052833" lon="-2.077625"><ele>152.000000</ele><time>2010-07-21T11:17:17Z</time></trkpt>
	<trkpt lat="51.73049667" lon="-2.077606667"><ele>153.000000</ele><time>2010-07-21T11:17:22Z</time></trkpt>
	<trkpt lat="51.73047333" lon="-2.077591667"><ele>154.000000</ele><time>2010-07-21T11:17:27Z</time></trkpt>
	<trkpt lat="51.73045833" lon="-2.077571667"><ele>156.000000</ele><time>2010-07-21T11:17:32Z</time></trkpt>
	<trkpt lat="51.73044333" lon="-2.07756"><ele>156.000000</ele><time>2010-07-21T11:17:37Z</time></trkpt>
	<trkpt lat="51.73043667" lon="-2.07753"><ele>157.000000</ele><time>2010-07-21T11:17:42Z</time></trkpt>
	<trkpt lat="51.73043667" lon="-2.077485"><ele>157.000000</ele><time>2010-07-21T11:17:47Z</time></trkpt>
	<trkpt lat="51.73044667" lon="-2.077428333"><ele>155.000000</ele><time>2010-07-21T11:17:52Z</time></trkpt>
	<trkpt lat="51.73043667" lon="-2.077388333"><ele>157.000000</ele><time>2010-07-21T11:17:57Z</time></trkpt>
	<trkpt lat="51.73043667" lon="-2.077343333"><ele>157.000000</ele><time>2010-07-21T11:18:02Z</time></trkpt>
	<trkpt lat="51.73043667" lon="-2.077281667"><ele>157.000000</ele><time>2010-07-21T11:18:07Z</time></trkpt>
	<trkpt lat="51.73042667" lon="-2.077226667"><ele>157.000000</ele><time>2010-07-21T11:18:12Z</time></trkpt>
	<trkpt lat="51.73042333" lon="-2.077178333"><ele>158.000000</ele><time>2010-07-21T11:18:17Z</time></trkpt>
	<trkpt lat="51.73041833" lon="-2.07714"><ele>157.000000</ele><time>2010-07-21T11:18:22Z</time></trkpt>
	<trkpt lat="51.73040333" lon="-2.077093333"><ele>157.000000</ele><time>2010-07-21T11:18:27Z</time></trkpt>
	<trkpt lat="51.73039833" lon="-2.077045"><ele>159.000000</ele><time>2010-07-21T11:18:32Z</time></trkpt>
	<trkpt lat="51.73038333" lon="-2.07698"><ele>159.000000</ele><time>2010-07-21T11:18:37Z</time></trkpt>
	<trkpt lat="51.730375" lon="-2.076945"><ele>159.000000</ele><time>2010-07-21T11:18:42Z</time></trkpt>
	<trkpt lat="51.73036833" lon="-2.076933333"><ele>159.000000</ele><time>2010-07-21T11:18:47Z</time></trkpt>
	<trkpt lat="51.73035667" lon="-2.076923333"><ele>159.000000</ele><time>2010-07-21T11:18:52Z</time></trkpt>
	<trkpt lat="51.73034667" lon="-2.07689"><ele>161.000000</ele><time>2010-07-21T11:18:57Z</time></trkpt>
	<trkpt lat="51.73034333" lon="-2.076861667"><ele>162.000000</ele><time>2010-07-21T11:19:02Z</time></trkpt>
	<trkpt lat="51.73032667" lon="-2.076835"><ele>162.000000</ele><time>2010-07-21T11:19:07Z</time></trkpt>
	<trkpt lat="51.73030833" lon="-2.076795"><ele>162.000000</ele><time>2010-07-21T11:19:12Z</time></trkpt>
	<trkpt lat="51.73029833" lon="-2.076753333"><ele>162.000000</ele><time>2010-07-21T11:19:17Z</time></trkpt>
	<trkpt lat="51.73028833" lon="-2.076728333"><ele>162.000000</ele><time>2010-07-21T11:19:22Z</time></trkpt>
	<trkpt lat="51.73027167" lon="-2.076695"><ele>161.000000</ele><time>2010-07-21T11:19:27Z</time></trkpt>
	<trkpt lat="51.730255" lon="-2.076675"><ele>162.000000</ele><time>2010-07-21T11:19:32Z</time></trkpt>
	<trkpt lat="51.73023333" lon="-2.076646667"><ele>162.000000</ele><time>2010-07-21T11:19:37Z</time></trkpt>
	<trkpt lat="51.73020167" lon="-2.076625"><ele>162.000000</ele><time>2010-07-21T11:19:42Z</time></trkpt>
	<trkpt lat="51.73017" lon="-2.076618333"><ele>162.000000</ele><time>2010-07-21T11:19:47Z</time></trkpt>
	<trkpt lat="51.730135" lon="-2.07661"><ele>163.000000</ele><time>2010-07-21T11:19:52Z</time></trkpt>
	<trkpt lat="51.73009" lon="-2.076603333"><ele>163.000000</ele><time>2010-07-21T11:19:57Z</time></trkpt>
	<trkpt lat="51.730045" lon="-2.0766"><ele>163.000000</ele><time>2010-07-21T11:20:02Z</time></trkpt>
	<trkpt lat="51.730005" lon="-2.076596667"><ele>163.000000</ele><time>2010-07-21T11:20:07Z</time></trkpt>
	<trkpt lat="51.72996333" lon="-2.076593333"><ele>163.000000</ele><time>2010-07-21T11:20:12Z</time></trkpt>
	<trkpt lat="51.72993333" lon="-2.076598333"><ele>166.000000</ele><time>2010-07-21T11:20:17Z</time></trkpt>
	<trkpt lat="51.72990833" lon="-2.076598333"><ele>168.000000</ele><time>2010-07-21T11:20:22Z</time></trkpt>
	<trkpt lat="51.72989167" lon="-2.076603333"><ele>168.000000</ele><time>2010-07-21T11:20:27Z</time></trkpt>
	<trkpt lat="51.729885" lon="-2.076623333"><ele>168.000000</ele><time>2010-07-21T11:20:32Z</time></trkpt>
	<trkpt lat="51.729885" lon="-2.07663"><ele>168.000000</ele><time>2010-07-21T11:20:37Z</time></trkpt>
	<trkpt lat="51.72984333" lon="-2.076605"><ele>170.000000</ele><time>2010-07-21T11:20:42Z</time></trkpt>
	<trkpt lat="51.72979833" lon="-2.076605"><ele>170.000000</ele><time>2010-07-21T11:20:47Z</time></trkpt>
	<trkpt lat="51.729765" lon="-2.076625"><ele>170.000000</ele><time>2010-07-21T11:20:52Z</time></trkpt>
	<trkpt lat="51.72971833" lon="-2.076633333"><ele>170.000000</ele><time>2010-07-21T11:20:57Z</time></trkpt>
	<trkpt lat="51.72967" lon="-2.076643333"><ele>170.000000</ele><time>2010-07-21T11:21:02Z</time></trkpt>
	<trkpt lat="51.72962833" lon="-2.076661667"><ele>171.000000</ele><time>2010-07-21T11:21:07Z</time></trkpt>
	<trkpt lat="51.72957" lon="-2.076695"><ele>169.000000</ele><time>2010-07-21T11:21:13Z</time></trkpt>
	<trkpt lat="51.72952" lon="-2.076718333"><ele>168.000000</ele><time>2010-07-21T11:21:18Z</time></trkpt>
	<trkpt lat="51.72946167" lon="-2.076746667"><ele>168.000000</ele><time>2010-07-21T11:21:24Z</time></trkpt>
	<trkpt lat="51.72942333" lon="-2.07676"><ele>171.000000</ele><time>2010-07-21T11:21:29Z</time></trkpt>
	<trkpt lat="51.72938167" lon="-2.07677"><ele>172.000000</ele><time>2010-07-21T11:21:34Z</time></trkpt>
	<trkpt lat="51.729335" lon="-2.076781667"><ele>171.000000</ele><time>2010-07-21T11:21:39Z</time></trkpt>
	<trkpt lat="51.72929" lon="-2.076796667"><ele>170.000000</ele><time>2010-07-21T11:21:44Z</time></trkpt>
	<trkpt lat="51.72924833" lon="-2.076801667"><ele>169.000000</ele><time>2010-07-21T11:21:49Z</time></trkpt>
	<trkpt lat="51.72923" lon="-2.076818333"><ele>170.000000</ele><time>2010-07-21T11:21:54Z</time></trkpt>
	<trkpt lat="51.72920667" lon="-2.076836667"><ele>171.000000</ele><time>2010-07-21T11:21:59Z</time></trkpt>
	<trkpt lat="51.72919" lon="-2.076841667"><ele>174.000000</ele><time>2010-07-21T11:22:04Z</time></trkpt>
	<trkpt lat="51.729175" lon="-2.076843333"><ele>176.000000</ele><time>2010-07-21T11:22:09Z</time></trkpt>
	<trkpt lat="51.72912833" lon="-2.076858333"><ele>176.000000</ele><time>2010-07-21T11:22:15Z</time></trkpt>
	<trkpt lat="51.72910167" lon="-2.076885"><ele>176.000000</ele><time>2010-07-21T11:22:20Z</time></trkpt>
	<trkpt lat="51.729095" lon="-2.076898333"><ele>174.000000</ele><time>2010-07-21T11:22:25Z</time></trkpt>
	<trkpt lat="51.72909" lon="-2.07689"><ele>175.000000</ele><time>2010-07-21T11:22:30Z</time></trkpt>
	<trkpt lat="51.72904833" lon="-2.076903333"><ele>176.000000</ele><time>2010-07-21T11:22:35Z</time></trkpt>
	<trkpt lat="51.72899167" lon="-2.07691"><ele>177.000000</ele><time>2010-07-21T11:22:41Z</time></trkpt>
	<trkpt lat="51.72894833" lon="-2.076915"><ele>177.000000</ele><time>2010-07-21T11:22:46Z</time></trkpt>
	<trkpt lat="51.72893667" lon="-2.07693"><ele>176.000000</ele><time>2010-07-21T11:22:51Z</time></trkpt>
	<trkpt lat="51.72891167" lon="-2.076933333"><ele>177.000000</ele><time>2010-07-21T11:22:56Z</time></trkpt>
	<trkpt lat="51.72887667" lon="-2.076931667"><ele>178.000000</ele><time>2010-07-21T11:23:01Z</time></trkpt>
	<trkpt lat="51.728855" lon="-2.0769"><ele>177.000000</ele><time>2010-07-21T11:23:07Z</time></trkpt>
	<trkpt lat="51.728815" lon="-2.076923333"><ele>178.000000</ele><time>2010-07-21T11:23:12Z</time></trkpt>
	<trkpt lat="51.72876833" lon="-2.076906667"><ele>178.000000</ele><time>2010-07-21T11:23:17Z</time></trkpt>
	<trkpt lat="51.72871833" lon="-2.07689"><ele>178.000000</ele><time>2010-07-21T11:23:23Z</time></trkpt>
	<trkpt lat="51.72869667" lon="-2.076875"><ele>177.000000</ele><time>2010-07-21T11:23:28Z</time></trkpt>
	<trkpt lat="51.72866667" lon="-2.076855"><ele>177.000000</ele><time>2010-07-21T11:23:33Z</time></trkpt>
	<trkpt lat="51.728635" lon="-2.076826667"><ele>179.000000</ele><time>2010-07-21T11:23:38Z</time></trkpt>
	<trkpt lat="51.72860833" lon="-2.076786667"><ele>181.000000</ele><time>2010-07-21T11:23:43Z</time></trkpt>
	<trkpt lat="51.72857" lon="-2.076761667"><ele>181.000000</ele><time>2010-07-21T11:23:48Z</time></trkpt>
	<trkpt lat="51.728525" lon="-2.076728333"><ele>181.000000</ele><time>2010-07-21T11:23:53Z</time></trkpt>
	<trkpt lat="51.72848333" lon="-2.076725"><ele>184.000000</ele><time>2010-07-21T11:23:58Z</time></trkpt>
	<trkpt lat="51.72844167" lon="-2.076711667"><ele>185.000000</ele><time>2010-07-21T11:24:03Z</time></trkpt>
	<trkpt lat="51.72839333" lon="-2.076695"><ele>184.000000</ele><time>2010-07-21T11:24:08Z</time></trkpt>
	<trkpt lat="51.72834333" lon="-2.076685"><ele>185.000000</ele><time>2010-07-21T11:24:13Z</time></trkpt>
	<trkpt lat="51.72831167" lon="-2.07665"><ele>184.000000</ele><time>2010-07-21T11:24:18Z</time></trkpt>
	<trkpt lat="51.728285" lon="-2.076625"><ele>184.000000</ele><time>2010-07-21T11:24:23Z</time></trkpt>
	<trkpt lat="51.72827833" lon="-2.076638333"><ele>185.000000</ele><time>2010-07-21T11:24:28Z</time></trkpt>
	<trkpt lat="51.72827" lon="-2.076636667"><ele>184.000000</ele><time>2010-07-21T11:24:33Z</time></trkpt>
	<trkpt lat="51.72823833" lon="-2.076606667"><ele>184.000000</ele><time>2010-07-21T11:24:38Z</time></trkpt>
	<trkpt lat="51.72819833" lon="-2.076573333"><ele>185.000000</ele><time>2010-07-21T11:24:43Z</time></trkpt>
	<trkpt lat="51.72815333" lon="-2.076546667"><ele>185.000000</ele><time>2010-07-21T11:24:48Z</time></trkpt>
	<trkpt lat="51.72811" lon="-2.076523333"><ele>185.000000</ele><time>2010-07-21T11:24:53Z</time></trkpt>
	<trkpt lat="51.72806" lon="-2.07649"><ele>185.000000</ele><time>2010-07-21T11:24:59Z</time></trkpt>
	<trkpt lat="51.72802833" lon="-2.076456667"><ele>187.000000</ele><time>2010-07-21T11:25:04Z</time></trkpt>
	<trkpt lat="51.72799" lon="-2.076433333"><ele>189.000000</ele><time>2010-07-21T11:25:09Z</time></trkpt>
	<trkpt lat="51.727945" lon="-2.07641"><ele>189.000000</ele><time>2010-07-21T11:25:14Z</time></trkpt>
	<trkpt lat="51.727895" lon="-2.07639"><ele>188.000000</ele><time>2010-07-21T11:25:19Z</time></trkpt>
	<trkpt lat="51.72785667" lon="-2.076366667"><ele>188.000000</ele><time>2010-07-21T11:25:24Z</time></trkpt>
	<trkpt lat="51.72781333" lon="-2.076341667"><ele>187.000000</ele><time>2010-07-21T11:25:29Z</time></trkpt>
	<trkpt lat="51.72776667" lon="-2.076311667"><ele>188.000000</ele><time>2010-07-21T11:25:34Z</time></trkpt>
	<trkpt lat="51.72774833" lon="-2.07626"><ele>188.000000</ele><time>2010-07-21T11:25:39Z</time></trkpt>
	<trkpt lat="51.72775167" lon="-2.076225"><ele>187.000000</ele><time>2010-07-21T11:25:44Z</time></trkpt>
	<trkpt lat="51.72777" lon="-2.07618"><ele>188.000000</ele><time>2010-07-21T11:25:49Z</time></trkpt>
	<trkpt lat="51.72778833" lon="-2.076123333"><ele>188.000000</ele><time>2010-07-21T11:25:54Z</time></trkpt>
	<trkpt lat="51.727805" lon="-2.076068333"><ele>188.000000</ele><time>2010-07-21T11:25:59Z</time></trkpt>
	<trkpt lat="51.72782667" lon="-2.076008333"><ele>187.000000</ele><time>2010-07-21T11:26:04Z</time></trkpt>
	<trkpt lat="51.72784333" lon="-2.075956667"><ele>188.000000</ele><time>2010-07-21T11:26:09Z</time></trkpt>
	<trkpt lat="51.727855" lon="-2.075896667"><ele>186.000000</ele><time>2010-07-21T11:26:14Z</time></trkpt>
	<trkpt lat="51.72788" lon="-2.07584"><ele>186.000000</ele><time>2010-07-21T11:26:19Z</time></trkpt>
	<trkpt lat="51.727905" lon="-2.075788333"><ele>188.000000</ele><time>2010-07-21T11:26:24Z</time></trkpt>
	<trkpt lat="51.727925" lon="-2.075741667"><ele>190.000000</ele><time>2010-07-21T11:26:29Z</time></trkpt>
	<trkpt lat="51.72796167" lon="-2.075676667"><ele>189.000000</ele><time>2010-07-21T11:26:34Z</time></trkpt>
	<trkpt lat="51.728005" lon="-2.07561"><ele>188.000000</ele><time>2010-07-21T11:26:39Z</time></trkpt>
	<trkpt lat="51.72803333" lon="-2.075553333"><ele>187.000000</ele><time>2010-07-21T11:26:44Z</time></trkpt>
	<trkpt lat="51.72806" lon="-2.075495"><ele>188.000000</ele><time>2010-07-21T11:26:49Z</time></trkpt>
	<trkpt lat="51.72806333" lon="-2.075425"><ele>189.000000</ele><time>2010-07-21T11:26:54Z</time></trkpt>
	<trkpt lat="51.72805667" lon="-2.0754"><ele>189.000000</ele><time>2010-07-21T11:26:59Z</time></trkpt>
	<trkpt lat="51.728075" lon="-2.0754"><ele>188.000000</ele><time>2010-07-21T11:27:05Z</time></trkpt>
	<trkpt lat="51.72807333" lon="-2.075401667"><ele>188.000000</ele><time>2010-07-21T11:27:10Z</time></trkpt>
	<trkpt lat="51.728075" lon="-2.075396667"><ele>187.000000</ele><time>2010-07-21T11:27:15Z</time></trkpt>
	<trkpt lat="51.728075" lon="-2.075396667"><ele>187.000000</ele><time>2010-07-21T11:27:20Z</time></trkpt>
	<trkpt lat="51.72807" lon="-2.075396667"><ele>187.000000</ele><time>2010-07-21T11:27:25Z</time></trkpt>
	<trkpt lat="51.72806833" lon="-2.075398333"><ele>186.000000</ele><time>2010-07-21T11:27:30Z</time></trkpt>
</trkseg>
</trk>
</gpx>
